Provisional Data: Sterling Run near Sterling Run, PA


Please select a monitoring station.
Please select start date.
Please select start date.

Toggle Unit: C/F Toggle Unit: C/F
Sample Time Temperature (C) Temperature (F) Specific Conductivity (mS/cm) pH   Turbidity (NTU+) DO (mg/L)
5/4/2021 12:00:00 AM 11.53 52.754 0.061 6.44 1.92 10.88
5/4/2021 12:15:00 AM 11.52 52.736 0.061 6.43 2.04 10.88
5/4/2021 12:30:00 AM 11.5 52.7 0.061 6.42 1.98 10.9
5/4/2021 12:45:00 AM 11.49 52.682 0.061 6.42 1.98 10.9
5/4/2021 1:00:00 AM 11.47 52.646 0.061 6.42 1.94 10.9
5/4/2021 1:15:00 AM 11.46 52.628 0.061 6.43 1.89 10.9
5/4/2021 1:30:00 AM 11.44 52.592 0.061 6.41 1.97 10.91
5/4/2021 1:45:00 AM 11.43 52.574 0.061 6.42 2.04 10.91
5/4/2021 2:00:00 AM 11.43 52.574 0.061 6.41 1.91 10.9
5/4/2021 2:15:00 AM 11.42 52.556 0.061 6.41 2.26 10.9
5/4/2021 2:30:00 AM 11.4 52.52 0.062 6.41 1.98 10.9
5/4/2021 2:45:00 AM 11.39 52.502 0.062 6.41 1.89 10.91
5/4/2021 3:00:00 AM 11.38 52.484 0.062 6.41 1.88 10.91
5/4/2021 3:15:00 AM 11.38 52.484 0.062 6.41 1.87 10.91
5/4/2021 3:30:00 AM 11.37 52.466 0.062 6.42 1.92 10.91
5/4/2021 3:45:00 AM 11.36 52.448 0.062 6.41 1.92 10.92
5/4/2021 4:00:00 AM 11.35 52.43 0.062 6.41 1.77 10.92
5/4/2021 4:15:00 AM 11.34 52.412 0.062 6.39 1.94 10.92
5/4/2021 4:30:00 AM 11.33 52.394 0.062 6.4 1.94 10.93
5/4/2021 4:45:00 AM 11.32 52.376 0.062 6.41 1.95 10.93
5/4/2021 5:00:00 AM 11.31 52.358 0.062 6.4 1.97 10.93
5/4/2021 5:15:00 AM 11.3 52.34 0.062 6.4 1.88 10.94
5/4/2021 5:30:00 AM 11.29 52.322 0.062 6.4 1.84 10.94
5/4/2021 5:45:00 AM 11.28 52.304 0.062 6.4 1.83 10.94
5/4/2021 6:00:00 AM 11.28 52.304 0.062 6.4 1.91 10.94
5/4/2021 6:15:00 AM 11.27 52.286 0.062 6.39 1.92 10.95
5/4/2021 6:30:00 AM 11.26 52.268 0.062 6.4 1.91 10.97
5/4/2021 6:45:00 AM 11.26 52.268 0.062 6.39 1.95 10.98
5/4/2021 7:00:00 AM 11.25 52.25 0.062 6.38 1.92 10.99
5/4/2021 7:15:00 AM 11.26 52.268 0.062 6.41 1.85 11.02
5/4/2021 7:30:00 AM 11.28 52.304 0.062 6.41 1.89 11.05
5/4/2021 7:45:00 AM 11.29 52.322 0.062 6.42 1.84 11.08
5/4/2021 8:00:00 AM 11.31 52.358 0.062 6.43 1.83 11.09
5/4/2021 8:15:00 AM 11.33 52.394 0.062 6.44 1.87 11.1
5/4/2021 8:30:00 AM 11.36 52.448 0.062 6.44 1.82 11.12
5/4/2021 8:45:00 AM 11.42 52.556 0.062 6.47 1.87 11.15
5/4/2021 9:00:00 AM 11.5 52.7 0.062 6.49 1.85 11.16
5/4/2021 9:15:00 AM 11.57 52.826 0.062 6.52 1.77 11.16
5/4/2021 9:30:00 AM 11.71 53.078 0.062 6.55 1.73 11.15
5/4/2021 9:45:00 AM 11.86 53.348 0.062 6.58 1.9 11.13
5/4/2021 10:00:00 AM 11.9 53.42 0.062 6.57 1.78 11.11
5/4/2021 10:15:00 AM 11.9 53.42 0.062 6.57 1.82 11.06
5/4/2021 10:30:00 AM 12.01 53.618 0.062 6.59 1.85 11.06
5/4/2021 10:45:00 AM 12.13 53.834 0.061 6.6 1.76 11.05
5/4/2021 11:00:00 AM 12.28 54.104 0.061 6.61 1.75 11.03
5/4/2021 11:15:00 AM 12.32 54.176 0.061 6.59 1.86 11
5/4/2021 11:30:00 AM 12.36 54.248 0.061 6.59 1.74 10.96
5/4/2021 11:45:00 AM 12.48 54.464 0.061 6.61 1.82 10.96
5/4/2021 12:00:00 PM 12.6 54.68 0.061 6.61 1.74 10.96
5/4/2021 12:15:00 PM 12.79 55.022 0.061 6.63 1.75 10.94
5/4/2021 12:30:00 PM 12.93 55.274 0.061 6.63 1.77 10.9
5/4/2021 12:45:00 PM 12.97 55.346 0.061 6.61 1.73 10.86
5/4/2021 1:00:00 PM 13.1 55.58 0.061 6.62 1.92 10.84
5/4/2021 1:15:00 PM 13.23 55.814 0.061 6.62 1.82 10.82
5/4/2021 1:30:00 PM 13.28 55.904 0.061 6.62 1.79 10.79
5/4/2021 1:45:00 PM 13.44 56.192 0.061 6.62 1.81 10.76
5/4/2021 2:00:00 PM 13.56 56.408 0.061 6.64 1.79 10.74
5/4/2021 2:15:00 PM 13.48 56.264 0.061 6.59 1.76 10.69
5/4/2021 2:30:00 PM 13.49 56.282 0.061 6.58 1.89 10.67
5/4/2021 2:45:00 PM 13.5 56.3 0.061 6.57 1.93 10.63
5/4/2021 3:00:00 PM 13.45 56.21 0.061 6.55 2.04 10.59
5/4/2021 3:15:00 PM 13.44 56.192 0.061 6.54 2.16 10.56
5/4/2021 3:30:00 PM 13.41 56.138 0.061 6.52 2.15 10.56
5/4/2021 3:45:00 PM 13.37 56.066 0.061 6.49 2.04 10.53
5/4/2021 4:00:00 PM 13.52 56.336 0.059 6.6 3.96 10.48
5/4/2021 4:15:00 PM 13.5 56.3 0.059 6.54 8.27 10.49
5/4/2021 4:30:00 PM 13.47 56.246 0.059 6.52 5.99 10.52
5/4/2021 4:45:00 PM 13.5 56.3 0.058 6.5 4.95 10.54
5/4/2021 5:00:00 PM 13.5 56.3 0.058 6.51 6.05 10.55
5/4/2021 5:15:00 PM 13.47 56.246 0.058 6.51 9.11 10.55
5/4/2021 5:30:00 PM 13.43 56.174 0.058 6.53 24.29 10.53
5/4/2021 5:45:00 PM 13.36 56.048 0.056 6.54 19.65 10.52
5/4/2021 6:00:00 PM 13.27 55.886 0.056 6.55 16.55 10.54
5/4/2021 6:15:00 PM 13.2 55.76 0.056 6.59 38.59 10.55
5/4/2021 6:30:00 PM 13.12 55.616 0.056 6.56 21.93 10.55
5/4/2021 6:45:00 PM 13.05 55.49 0.055 6.53 13.62 10.56
5/4/2021 7:00:00 PM 12.99 55.382 0.056 6.52 17.65 10.57
5/4/2021 7:15:00 PM 12.92 55.256 0.056 6.52 18.06 10.58
5/4/2021 7:30:00 PM 12.86 55.148 0.057 6.51 18.66 10.58
5/4/2021 7:45:00 PM 12.81 55.058 0.058 6.51 20.4 10.59
5/4/2021 8:00:00 PM 12.78 55.004 0.058 6.47 13.83 10.6
5/4/2021 8:15:00 PM 12.74 54.932 0.059 6.45 10.47 10.6
5/4/2021 8:30:00 PM 12.7 54.86 0.059 6.45 8.65 10.61
5/4/2021 8:45:00 PM 12.66 54.788 0.06 6.46 7.24 10.62
5/4/2021 9:00:00 PM 12.61 54.698 0.06 6.45 6.56 10.63
5/4/2021 9:15:00 PM 12.57 54.626 0.061 6.44 6.16 10.64
5/4/2021 9:30:00 PM 12.52 54.536 0.061 6.43 5.76 10.65
5/4/2021 9:45:00 PM 12.47 54.446 0.061 6.4 5.25 10.66
5/4/2021 10:00:00 PM 12.42 54.356 0.061 6.39 5.12 10.68
5/4/2021 10:15:00 PM 12.39 54.302 0.061 6.38 4.54 10.69
5/4/2021 10:30:00 PM 12.36 54.248 0.061 6.38 4.34 10.69
5/4/2021 10:45:00 PM 12.33 54.194 0.061 6.39 4.3 10.71
5/4/2021 11:00:00 PM 12.3 54.14 0.061 6.39 4.18 10.72
5/4/2021 11:15:00 PM 12.27 54.086 0.061 6.42 4.19 10.73
5/4/2021 11:30:00 PM 12.25 54.05 0.061 6.42 4.08 10.73
5/4/2021 11:45:00 PM 12.21 53.978 0.061 6.41 3.65 10.74
5/5/2021 12:00:00 AM 12.18 53.924 0.061 6.41 3.7 10.75
5/5/2021 12:15:00 AM 12.15 53.87 0.061 6.4 3.8 10.75
5/5/2021 12:30:00 AM 12.12 53.816 0.061 6.39 3.57 10.77
5/5/2021 12:45:00 AM 12.1 53.78 0.061 6.39 3.56 10.77
5/5/2021 1:00:00 AM 12.06 53.708 0.061 6.38 3.63 10.78
5/5/2021 1:15:00 AM 12.04 53.672 0.061 6.38 3.38 10.78
5/5/2021 1:30:00 AM 12.01 53.618 0.061 6.4 3.35 10.79
5/5/2021 1:45:00 AM 11.98 53.564 0.061 6.38 3.2 10.8
5/5/2021 2:00:00 AM 11.95 53.51 0.061 6.38 3.41 10.8
5/5/2021 2:15:00 AM 11.92 53.456 0.06 6.38 3.02 10.81
5/5/2021 2:30:00 AM 11.89 53.402 0.06 6.37 3.18 10.82
5/5/2021 2:45:00 AM 11.87 53.366 0.06 6.38 3 10.83
5/5/2021 3:00:00 AM 11.86 53.348 0.06 6.39 3 10.84
5/5/2021 3:15:00 AM 11.83 53.294 0.06 6.39 3.09 10.84
5/5/2021 3:30:00 AM 11.81 53.258 0.06 6.39 2.89 10.84
5/5/2021 3:45:00 AM 11.79 53.222 0.06 6.38 2.9 10.84
5/5/2021 4:00:00 AM 11.77 53.186 0.06 6.38 2.94 10.85
5/5/2021 4:15:00 AM 11.75 53.15 0.06 6.38 3.02 10.86
5/5/2021 4:30:00 AM 11.73 53.114 0.06 6.38 3.02 10.86
5/5/2021 4:45:00 AM 11.71 53.078 0.06 6.38 3.11 10.87
5/5/2021 5:00:00 AM 11.69 53.042 0.06 6.39 2.99 10.87
5/5/2021 5:15:00 AM 11.67 53.006 0.06 6.39 2.92 10.88
5/5/2021 5:30:00 AM 11.65 52.97 0.06 6.39 2.88 10.89
5/5/2021 5:45:00 AM 11.63 52.934 0.059 6.38 3.27 10.89
5/5/2021 6:00:00 AM 11.61 52.898 0.059 6.4 2.7 10.89
5/5/2021 6:15:00 AM 11.6 52.88 0.059 6.41 2.69 10.9
5/5/2021 6:30:00 AM 11.58 52.844 0.059 6.43 2.72 10.91
5/5/2021 6:45:00 AM 11.56 52.808 0.059 6.44 2.73 10.92
5/5/2021 7:00:00 AM 11.54 52.772 0.059 6.44 2.6 10.94
5/5/2021 7:15:00 AM 11.52 52.736 0.059 6.45 2.61 10.95
5/5/2021 7:30:00 AM 11.51 52.718 0.059 6.45 2.63 10.97
5/5/2021 7:45:00 AM 11.49 52.682 0.059 6.47 2.52 10.98
5/5/2021 8:00:00 AM 11.48 52.664 0.059 6.47 2.44 11
5/5/2021 8:15:00 AM 11.46 52.628 0.058 6.47 2.66 11.01
5/5/2021 8:30:00 AM 11.45 52.61 0.058 6.47 2.6 11.01
5/5/2021 8:45:00 AM 11.43 52.574 0.058 6.47 2.55 11.03
5/5/2021 9:00:00 AM 11.42 52.556 0.058 6.47 2.62 11.03
5/5/2021 9:15:00 AM 11.41 52.538 0.058 6.47 2.6 11.05
5/5/2021 9:30:00 AM 11.41 52.538 0.058 6.49 2.59 11.07
5/5/2021 9:45:00 AM 11.42 52.556 0.058 6.49 2.64 11.1
5/5/2021 10:00:00 AM 11.44 52.592 0.058 6.51 2.82 11.12
5/5/2021 10:15:00 AM 11.49 52.682 0.057 6.53 2.78 11.14
5/5/2021 10:30:00 AM 11.5 52.7 0.057 6.52 2.65 11.14
5/5/2021 10:45:00 AM 11.51 52.718 0.057 6.52 2.62 11.12
5/5/2021 11:00:00 AM 11.5 52.7 0.057 6.52 2.76 11.11
5/5/2021 11:15:00 AM 11.49 52.682 0.057 6.51 2.65 11.11
5/5/2021 11:30:00 AM 11.49 52.682 0.057 6.52 2.82 11.12
5/5/2021 11:45:00 AM 11.51 52.718 0.057 6.53 2.84 11.14
5/5/2021 12:00:00 PM 11.53 52.754 0.057 6.54 2.85 11.17
5/5/2021 12:15:00 PM 11.54 52.772 0.057 6.55 2.72 11.17
5/5/2021 12:30:00 PM 11.58 52.844 0.057 6.56 2.68 11.17
5/5/2021 12:45:00 PM 11.59 52.862 0.057 6.56 2.7 11.17
5/5/2021 1:00:00 PM 11.6 52.88 0.057 6.56 2.74 11.17
5/5/2021 1:15:00 PM 11.65 52.97 0.057 6.56 2.69 11.17
5/5/2021 1:30:00 PM 11.67 53.006 0.057 6.56 2.78 11.17
5/5/2021 1:45:00 PM 11.68 53.024 0.057 6.56 2.77 11.17
5/5/2021 2:00:00 PM 11.67 53.006 0.057 6.55 2.66 11.15
5/5/2021 2:15:00 PM 11.64 52.952 0.057 6.54 2.69 11.15
5/5/2021 2:30:00 PM 11.59 52.862 0.057 6.53 2.68 11.14
5/5/2021 2:45:00 PM 11.57 52.826 0.058 6.52 2.67 11.15
5/5/2021 3:00:00 PM 11.57 52.826 0.058 6.54 2.64 11.16
5/5/2021 3:15:00 PM 11.59 52.862 0.058 6.55 2.71 11.18
5/5/2021 3:30:00 PM 11.67 53.006 0.058 6.57 2.75 11.19
5/5/2021 3:45:00 PM 11.68 53.024 0.058 6.56 2.63 11.19
5/5/2021 4:00:00 PM 11.68 53.024 0.058 6.57 2.68 11.17
5/5/2021 4:15:00 PM 11.69 53.042 0.058 6.55 2.61 11.16
5/5/2021 4:30:00 PM 11.68 53.024 0.058 6.55 2.71 11.16
5/5/2021 4:45:00 PM 11.7 53.06 0.058 6.56 2.67 11.16
5/5/2021 5:00:00 PM 11.72 53.096 0.058 6.54 2.64 11.15
5/5/2021 5:15:00 PM 11.69 53.042 0.058 6.53 2.81 11.14
5/5/2021 5:30:00 PM 11.66 52.988 0.058 6.53 2.56 11.13
5/5/2021 5:45:00 PM 11.63 52.934 0.058 6.53 2.59 11.13
5/5/2021 6:00:00 PM 11.58 52.844 0.058 6.51 2.65 11.13
5/5/2021 6:15:00 PM 11.51 52.718 0.058 6.5 2.53 11.14
5/5/2021 6:30:00 PM 11.44 52.592 0.058 6.49 2.59 11.13
5/5/2021 6:45:00 PM 11.38 52.484 0.058 6.48 2.57 11.12
5/5/2021 7:00:00 PM 11.31 52.358 0.058 6.47 2.55 11.12
5/5/2021 7:15:00 PM 11.23 52.214 0.058 6.46 2.52 11.12
5/5/2021 7:30:00 PM 11.15 52.07 0.058 6.45 2.51 11.14
5/5/2021 7:45:00 PM 11.09 51.962 0.058 6.45 2.44 11.15
5/5/2021 8:00:00 PM 11.02 51.836 0.058 6.45 2.58 11.15
5/5/2021 8:15:00 PM 10.95 51.71 0.058 6.45 2.52 11.17
5/5/2021 8:30:00 PM 10.89 51.602 0.058 6.43 2.45 11.18
5/5/2021 8:45:00 PM 10.82 51.476 0.058 6.43 2.56 11.19
5/5/2021 9:00:00 PM 10.76 51.368 0.058 6.44 2.6 11.21
5/5/2021 9:15:00 PM 10.7 51.26 0.058 6.43 2.55 11.23
5/5/2021 9:30:00 PM 10.64 51.152 0.057 6.43 2.5 11.24
5/5/2021 9:45:00 PM 10.59 51.062 0.057 6.43 2.44 11.26
5/5/2021 10:00:00 PM 10.54 50.972 0.057 6.43 2.49 11.28
5/5/2021 10:15:00 PM 10.49 50.882 0.057 6.44 2.53 11.29
5/5/2021 10:30:00 PM 10.44 50.792 0.057 6.43 2.56 11.31
5/5/2021 10:45:00 PM 10.4 50.72 0.057 6.43 2.48 11.32
5/5/2021 11:00:00 PM 10.35 50.63 0.057 6.44 2.49 11.34
5/5/2021 11:15:00 PM 10.31 50.558 0.057 6.44 2.39 11.35
5/5/2021 11:30:00 PM 10.26 50.468 0.057 6.43 2.48 11.35
5/5/2021 11:45:00 PM 10.22 50.396 0.057 6.44 2.34 11.37
5/6/2021 12:00:00 AM 10.16 50.288 0.057 6.44 2.34 11.39
5/6/2021 12:15:00 AM 10.12 50.216 0.057 6.44 2.42 11.4
5/6/2021 12:30:00 AM 10.08 50.144 0.057 6.44 2.33 11.41
5/6/2021 12:45:00 AM 10.04 50.072 0.057 6.44 2.4 11.42
5/6/2021 1:00:00 AM 9.99 49.982 0.057 6.44 2.34 11.43
5/6/2021 1:15:00 AM 9.95 49.91 0.057 6.44 2.43 11.45
5/6/2021 1:30:00 AM 9.91 49.838 0.057 6.44 2.41 11.46
5/6/2021 1:45:00 AM 9.87 49.766 0.057 6.45 2.46 11.47
5/6/2021 2:00:00 AM 9.84 49.712 0.057 6.44 2.41 11.48
5/6/2021 2:15:00 AM 9.79 49.622 0.057 6.44 2.47 11.49
5/6/2021 2:30:00 AM 9.75 49.55 0.057 6.45 2.38 11.5
5/6/2021 2:45:00 AM 9.72 49.496 0.057 6.45 2.41 11.52
5/6/2021 3:00:00 AM 9.69 49.442 0.057 6.44 2.36 11.53
5/6/2021 3:15:00 AM 9.65 49.37 0.057 6.44 2.3 11.53
5/6/2021 3:30:00 AM 9.61 49.298 0.057 6.44 2.32 11.55
5/6/2021 3:45:00 AM 9.58 49.244 0.057 6.44 2.28 11.56
5/6/2021 4:00:00 AM 9.53 49.154 0.057 6.43 2.3 11.57
5/6/2021 4:15:00 AM 9.5 49.1 0.057 6.44 2.45 11.58
5/6/2021 4:30:00 AM 9.46 49.028 0.057 6.43 2.36 11.59
5/6/2021 4:45:00 AM 9.42 48.956 0.057 6.43 2.28 11.6
5/6/2021 5:00:00 AM 9.38 48.884 0.057 6.43 2.32 11.62
5/6/2021 5:15:00 AM 9.35 48.83 0.057 6.43 2.24 11.63
5/6/2021 5:30:00 AM 9.31 48.758 0.057 6.43 2.33 11.64
5/6/2021 5:45:00 AM 9.26 48.668 0.057 6.43 2.31 11.65
5/6/2021 6:00:00 AM 9.21 48.578 0.057 6.43 2.28 11.67
5/6/2021 6:15:00 AM 9.16 48.488 0.057 6.43 2.29 11.69
5/6/2021 6:30:00 AM 9.11 48.398 0.057 6.43 2.23 11.72
5/6/2021 6:45:00 AM 9.05 48.29 0.057 6.44 2.3 11.74
5/6/2021 7:00:00 AM 9.01 48.218 0.057 6.44 2.4 11.77
5/6/2021 7:15:00 AM 8.98 48.164 0.057 6.45 2.23 11.81
5/6/2021 7:30:00 AM 8.95 48.11 0.056 6.46 2.25 11.84
5/6/2021 7:45:00 AM 8.95 48.11 0.056 6.47 2.25 11.88
5/6/2021 8:00:00 AM 8.94 48.092 0.057 6.48 2.25 11.9
5/6/2021 8:15:00 AM 8.94 48.092 0.056 6.49 2.29 11.91
5/6/2021 8:30:00 AM 8.95 48.11 0.056 6.5 2.25 11.93
5/6/2021 8:45:00 AM 8.96 48.128 0.056 6.5 2.27 11.93
5/6/2021 9:00:00 AM 8.97 48.146 0.056 6.51 2.22 11.93
5/6/2021 9:15:00 AM 8.99 48.182 0.056 6.51 2.2 11.92
5/6/2021 9:30:00 AM 9.06 48.308 0.056 6.54 2.25 11.92
5/6/2021 9:45:00 AM 9.14 48.452 0.056 6.54 2.17 11.92
5/6/2021 10:00:00 AM 9.33 48.794 0.056 6.57 2.15 11.89
5/6/2021 10:15:00 AM 9.54 49.172 0.056 6.59 2.19 11.86
5/6/2021 10:30:00 AM 9.76 49.568 0.056 6.6 2.11 11.82
5/6/2021 10:45:00 AM 9.78 49.604 0.056 6.58 2.19 11.78
5/6/2021 11:00:00 AM 9.8 49.64 0.056 6.57 2.1 11.76
5/6/2021 11:15:00 AM 9.8 49.64 0.056 6.56 2.18 11.77
5/6/2021 11:30:00 AM 9.95 49.91 0.056 6.59 2.18 11.75
5/6/2021 11:45:00 AM 10.01 50.018 0.056 6.57 2.4 11.73
5/6/2021 12:00:00 PM 10.29 50.522 0.056 6.61 2.11 11.68
5/6/2021 12:15:00 PM 10.35 50.63 0.056 6.58 2.32 11.64
5/6/2021 12:30:00 PM 10.6 51.08 0.056 6.62 2.23 11.58
5/6/2021 12:45:00 PM 10.76 51.368 0.056 6.62 2.17 11.54
5/6/2021 1:00:00 PM 10.77 51.386 0.056 6.6 2.22 11.51
5/6/2021 1:15:00 PM 10.8 51.44 0.056 6.6 2.14 11.51
5/6/2021 1:30:00 PM 10.82 51.476 0.056 6.59 2.16 11.5
5/6/2021 1:45:00 PM 10.87 51.566 0.056 6.6 2.2 11.49
5/6/2021 2:00:00 PM 10.88 51.584 0.056 6.59 2.25 11.47
5/6/2021 2:15:00 PM 10.91 51.638 0.056 6.59 2.24 11.47
5/6/2021 2:30:00 PM 10.94 51.692 0.056 6.59 2.24 11.46
5/6/2021 2:45:00 PM 11.04 51.872 0.056 6.61 2.13 11.44
5/6/2021 3:00:00 PM 11.07 51.926 0.056 6.59 2.14 11.42
5/6/2021 3:15:00 PM 11.09 51.962 0.056 6.59 2.1 11.41
5/6/2021 3:30:00 PM 11.12 52.016 0.056 6.59 2.2 11.4
5/6/2021 3:45:00 PM 11.12 52.016 0.056 6.59 2.19 11.39
5/6/2021 4:00:00 PM 11.14 52.052 0.056 6.58 2.19 11.37
5/6/2021 4:15:00 PM 11.16 52.088 0.056 6.59 2.19 11.37
5/6/2021 4:30:00 PM 11.17 52.106 0.056 6.58 2.14 11.36
5/6/2021 4:45:00 PM 11.18 52.124 0.056 6.59 2.21 11.35
5/6/2021 5:00:00 PM 11.15 52.07 0.056 6.57 2.15 11.34
5/6/2021 5:15:00 PM 11.12 52.016 0.056 6.56 2.18 11.33
5/6/2021 5:30:00 PM 11.11 51.998 0.056 6.56 2.2 11.31
5/6/2021 5:45:00 PM 11.09 51.962 0.056 6.56 2.15 11.31
5/6/2021 6:00:00 PM 11.06 51.908 0.056 6.55 2.14 11.3
5/6/2021 6:15:00 PM 11.01 51.818 0.056 6.54 2.19 11.28
5/6/2021 6:30:00 PM 10.95 51.71 0.056 6.53 2.21 11.29
5/6/2021 6:45:00 PM 10.89 51.602 0.056 6.52 2.19 11.28
5/6/2021 7:00:00 PM 10.82 51.476 0.056 6.51 2.22 11.28
5/6/2021 7:15:00 PM 10.74 51.332 0.056 6.5 2.16 11.29
5/6/2021 7:30:00 PM 10.66 51.188 0.056 6.49 2.2 11.3
5/6/2021 7:45:00 PM 10.58 51.044 0.056 6.48 2.25 11.3
5/6/2021 8:00:00 PM 10.51 50.918 0.056 6.47 2.2 11.31
5/6/2021 8:15:00 PM 10.42 50.756 0.056 6.46 2.15 11.32
5/6/2021 8:30:00 PM 10.33 50.594 0.056 6.45 2.22 11.33
5/6/2021 8:45:00 PM 10.24 50.432 0.056 6.45 2.2 11.35
5/6/2021 9:00:00 PM 10.16 50.288 0.056 6.44 2.27 11.35
5/6/2021 9:15:00 PM 10.07 50.126 0.056 6.44 2.25 11.37
5/6/2021 9:30:00 PM 9.99 49.982 0.056 6.43 2.19 11.4
5/6/2021 9:45:00 PM 9.91 49.838 0.056 6.43 2.22 11.42
5/6/2021 10:00:00 PM 9.82 49.676 0.056 6.43 2.23 11.45
5/6/2021 10:15:00 PM 9.74 49.532 0.056 6.42 2.24 11.47
5/6/2021 10:30:00 PM 9.66 49.388 0.056 6.42 2.17 11.5
5/6/2021 10:45:00 PM 9.58 49.244 0.056 6.42 2.19 11.52
5/6/2021 11:00:00 PM 9.5 49.1 0.056 6.42 2.32 11.54
5/6/2021 11:15:00 PM 9.43 48.974 0.056 6.43 2.34 11.56
5/6/2021 11:30:00 PM 9.35 48.83 0.056 6.42 2.23 11.59
5/6/2021 11:45:00 PM 9.28 48.704 0.056 6.43 2.23 11.61
5/7/2021 12:00:00 AM 9.21 48.578 0.056 6.42 2.18 11.63
5/7/2021 12:15:00 AM 9.13 48.434 0.056 6.42 2.25 11.65
5/7/2021 12:30:00 AM 9.06 48.308 0.056 6.42 2.17 11.66
5/7/2021 12:45:00 AM 8.99 48.182 0.056 6.42 2.15 11.68
5/7/2021 1:00:00 AM 8.92 48.056 0.056 6.42 2.2 11.72
5/7/2021 1:15:00 AM 8.85 47.93 0.056 6.42 2.14 11.74
5/7/2021 1:30:00 AM 8.78 47.804 0.056 6.42 2.25 11.75
5/7/2021 1:45:00 AM 8.72 47.696 0.056 6.42 2.17 11.77
5/7/2021 2:00:00 AM 8.65 47.57 0.056 6.42 2.2 11.79
5/7/2021 2:15:00 AM 8.59 47.462 0.056 6.42 2.17 11.8
5/7/2021 2:30:00 AM 8.54 47.372 0.056 6.43 2.16 11.83
5/7/2021 2:45:00 AM 8.48 47.264 0.056 6.43 2.12 11.83
5/7/2021 3:00:00 AM 8.42 47.156 0.056 6.42 2.16 11.86
5/7/2021 3:15:00 AM 8.36 47.048 0.056 6.43 2.2 11.87
5/7/2021 3:30:00 AM 8.31 46.958 0.056 6.42 2.19 11.89
5/7/2021 3:45:00 AM 8.24 46.832 0.056 6.42 2.13 11.9
5/7/2021 4:00:00 AM 8.18 46.724 0.056 6.42 2.29 11.92
5/7/2021 4:15:00 AM 8.12 46.616 0.056 6.42 2.13 11.93
5/7/2021 4:30:00 AM 8.07 46.526 0.056 6.42 2.11 11.95
5/7/2021 4:45:00 AM 8.01 46.418 0.056 6.42 2.12 11.97
5/7/2021 5:00:00 AM 7.95 46.31 0.056 6.42 2.24 11.98
5/7/2021 5:15:00 AM 7.9 46.22 0.056 6.42 2.13 12
5/7/2021 5:30:00 AM 7.84 46.112 0.056 6.42 2.22 12.02
5/7/2021 5:45:00 AM 7.78 46.004 0.056 6.43 2.25 12.04
5/7/2021 6:00:00 AM 7.73 45.914 0.056 6.42 2.15 12.04
5/7/2021 6:15:00 AM 7.68 45.824 0.056 6.42 2.1 12.08
5/7/2021 6:30:00 AM 7.64 45.752 0.056 6.43 2.19 12.09
5/7/2021 6:45:00 AM 7.61 45.698 0.056 6.43 2.24 12.13
5/7/2021 7:00:00 AM 7.58 45.644 0.056 6.44 2.17 12.15
5/7/2021 7:15:00 AM 7.56 45.608 0.056 6.45 2.11 12.18
5/7/2021 7:30:00 AM 7.56 45.608 0.056 6.46 2.14 12.2
5/7/2021 7:45:00 AM 7.56 45.608 0.056 6.47 2.13 12.22
5/7/2021 8:00:00 AM 7.57 45.626 0.056 6.48 2.09 12.24
5/7/2021 8:15:00 AM 7.59 45.662 0.056 6.5 2.08 12.27
5/7/2021 8:30:00 AM 7.63 45.734 0.056 6.51 2.1 12.29
5/7/2021 8:45:00 AM 7.66 45.788 0.056 6.52 2.03 12.29
5/7/2021 9:00:00 AM 7.71 45.878 0.056 6.53 2.01 12.28
5/7/2021 9:15:00 AM 7.78 46.004 0.056 6.54 2.09 12.27
5/7/2021 9:30:00 AM 7.88 46.184 0.056 6.55 2.04 12.27
5/7/2021 9:45:00 AM 7.99 46.382 0.056 6.56 1.98 12.23
5/7/2021 10:00:00 AM 8.05 46.49 0.056 6.57 2.13 12.22
5/7/2021 10:15:00 AM 8.13 46.634 0.056 6.57 2.02 12.17
5/7/2021 10:30:00 AM 8.22 46.796 0.056 6.57 1.92 12.14
5/7/2021 10:45:00 AM 8.33 46.994 0.056 6.58 1.99 12.13
5/7/2021 11:00:00 AM 8.42 47.156 0.056 6.58 2.78 12.1
5/7/2021 11:15:00 AM 8.56 47.408 0.056 6.6 2.07 12.08
5/7/2021 11:30:00 AM 8.71 47.678 0.056 6.6 2.04 12.06
5/7/2021 11:45:00 AM 8.76 47.768 0.056 6.59 2 12.02
5/7/2021 12:00:00 PM 8.9 48.02 0.056 6.61 2.04 11.99
5/7/2021 12:15:00 PM 9.02 48.236 0.056 6.61 2.07 11.96
5/7/2021 12:30:00 PM 9.11 48.398 0.056 6.61 1.99 11.92
5/7/2021 12:45:00 PM 9.21 48.578 0.056 6.61 2.01 11.88
5/7/2021 1:00:00 PM 9.24 48.632 0.056 6.6 2.16 11.85
5/7/2021 1:15:00 PM 9.26 48.668 0.056 6.58 1.98 11.81
5/7/2021 1:30:00 PM 9.29 48.722 0.056 6.57 2.03 11.77
5/7/2021 1:45:00 PM 9.33 48.794 0.056 6.57 2.03 11.77
5/7/2021 2:00:00 PM 9.35 48.83 0.056 6.57 2.02 11.76
5/7/2021 2:15:00 PM 9.36 48.848 0.056 6.57 2.01 11.74
5/7/2021 2:30:00 PM 9.35 48.83 0.056 6.55 1.97 11.74
5/7/2021 2:45:00 PM 9.34 48.812 0.056 6.55 2.23 11.73
5/7/2021 3:00:00 PM 9.35 48.83 0.056 6.55 2.11 11.73
5/7/2021 3:15:00 PM 9.34 48.812 0.056 6.54 2.1 11.73
5/7/2021 3:30:00 PM 9.34 48.812 0.056 6.54 2.07 11.72
5/7/2021 3:45:00 PM 9.33 48.794 0.056 6.54 2.09 11.73
5/7/2021 4:00:00 PM 9.33 48.794 0.056 6.54 2.14 11.72
5/7/2021 4:15:00 PM 9.31 48.758 0.056 6.53 2.21 11.71
5/7/2021 4:30:00 PM 9.3 48.74 0.055 6.53 2.15 11.72
5/7/2021 4:45:00 PM 9.29 48.722 0.055 6.53 2.13 11.72
5/7/2021 5:00:00 PM 9.27 48.686 0.055 6.53 2.16 11.71
5/7/2021 5:15:00 PM 9.24 48.632 0.055 6.52 2.32 11.73
5/7/2021 5:30:00 PM 9.22 48.596 0.055 6.51 2.32 11.73
5/7/2021 5:45:00 PM 9.2 48.56 0.055 6.51 2.29 11.73
5/7/2021 6:00:00 PM 9.17 48.506 0.055 6.51 2.37 11.73
5/7/2021 6:15:00 PM 9.15 48.47 0.055 6.51 2.64 11.72
5/7/2021 6:30:00 PM 9.13 48.434 0.055 6.51 2.65 11.73
5/7/2021 6:45:00 PM 9.12 48.416 0.055 6.51 2.72 11.74
5/7/2021 7:00:00 PM 9.11 48.398 0.055 6.52 2.93 11.74
5/7/2021 7:15:00 PM 9.09 48.362 0.056 6.51 2.94 11.73
5/7/2021 7:30:00 PM 9.07 48.326 0.056 6.51 3.04 11.72
5/7/2021 7:45:00 PM 9.05 48.29 0.056 6.51 4.55 11.71
5/7/2021 8:00:00 PM 9.03 48.254 0.056 6.5 2.91 11.71
5/7/2021 8:15:00 PM 9.01 48.218 0.056 6.5 3.01 11.7
5/7/2021 8:30:00 PM 8.99 48.182 0.056 6.49 2.81 11.69
5/7/2021 8:45:00 PM 8.96 48.128 0.057 6.48 2.72 11.7
5/7/2021 9:00:00 PM 8.94 48.092 0.057 6.48 2.84 11.7
5/7/2021 9:15:00 PM 8.92 48.056 0.057 6.48 2.89 11.71
5/7/2021 9:30:00 PM 8.89 48.002 0.057 6.47 2.95 11.71
5/7/2021 9:45:00 PM 8.87 47.966 0.057 6.47 2.92 11.72
5/7/2021 10:00:00 PM 8.85 47.93 0.057 6.47 2.97 11.72
5/7/2021 10:15:00 PM 8.83 47.894 0.058 6.47 2.66 11.74
5/7/2021 10:30:00 PM 8.81 47.858 0.058 6.46 2.64 11.75
5/7/2021 10:45:00 PM 8.79 47.822 0.058 6.47 2.72 11.75
5/7/2021 11:00:00 PM 8.76 47.768 0.058 6.45 2.76 11.76
5/7/2021 11:15:00 PM 8.74 47.732 0.058 6.47 2.51 11.76
5/7/2021 11:30:00 PM 8.71 47.678 0.058 6.46 2.68 11.77
5/7/2021 11:45:00 PM 8.68 47.624 0.058 6.46 2.64 11.77
5/8/2021 12:00:00 AM 8.65 47.57 0.058 6.45 2.52 11.78
5/8/2021 12:15:00 AM 8.61 47.498 0.058 6.46 2.38 11.8
5/8/2021 12:30:00 AM 8.59 47.462 0.058 6.46 2.65 11.8
5/8/2021 12:45:00 AM 8.55 47.39 0.058 6.45 2.42 11.81
5/8/2021 1:00:00 AM 8.5 47.3 0.058 6.45 2.3 11.82
5/8/2021 1:15:00 AM 8.45 47.21 0.058 6.45 2.34 11.83
5/8/2021 1:30:00 AM 8.41 47.138 0.058 6.44 2.33 11.85
5/8/2021 1:45:00 AM 8.37 47.066 0.058 6.44 2.38 11.86
5/8/2021 2:00:00 AM 8.33 46.994 0.058 6.45 2.3 11.86
5/8/2021 2:15:00 AM 8.3 46.94 0.058 6.44 2.31 11.87
5/8/2021 2:30:00 AM 8.25 46.85 0.058 6.43 2.41 11.89
5/8/2021 2:45:00 AM 8.2 46.76 0.058 6.43 2.26 11.9
5/8/2021 3:00:00 AM 8.15 46.67 0.058 6.43 2.32 11.91
5/8/2021 3:15:00 AM 8.11 46.598 0.057 6.44 2.35 11.93
5/8/2021 3:30:00 AM 8.07 46.526 0.057 6.43 2.21 11.94
5/8/2021 3:45:00 AM 8.03 46.454 0.057 6.43 2.29 11.95
5/8/2021 4:00:00 AM 7.99 46.382 0.057 6.43 2.15 11.97
5/8/2021 4:15:00 AM 7.95 46.31 0.057 6.42 2.21 11.97
5/8/2021 4:30:00 AM 7.91 46.238 0.057 6.43 2.27 11.99
5/8/2021 4:45:00 AM 7.87 46.166 0.057 6.43 2.26 11.99
5/8/2021 5:00:00 AM 7.83 46.094 0.057 6.43 2.24 12.01
5/8/2021 5:15:00 AM 7.8 46.04 0.057 6.44 2.15 12.03
5/8/2021 5:30:00 AM 7.77 45.986 0.057 6.43 2.17 12.03
5/8/2021 5:45:00 AM 7.74 45.932 0.057 6.43 2.15 12.04
5/8/2021 6:00:00 AM 7.7 45.86 0.057 6.43 2.22 12.05
5/8/2021 6:15:00 AM 7.67 45.806 0.057 6.44 2.28 12.08
5/8/2021 6:30:00 AM 7.65 45.77 0.057 6.43 2.16 12.09
5/8/2021 6:45:00 AM 7.63 45.734 0.057 6.44 2.27 12.12
5/8/2021 7:00:00 AM 7.6 45.68 0.057 6.44 2.15 12.14
5/8/2021 7:15:00 AM 7.59 45.662 0.057 6.46 2.31 12.14
5/8/2021 7:30:00 AM 7.58 45.644 0.057 6.45 2.08 12.18
5/8/2021 7:45:00 AM 7.57 45.626 0.057 6.46 2.1 12.2
5/8/2021 8:00:00 AM 7.58 45.644 0.057 6.47 2.18 12.23
5/8/2021 8:15:00 AM 7.58 45.644 0.057 6.48 2.08 12.24
5/8/2021 8:30:00 AM 7.59 45.662 0.057 6.48 2.04 12.24
5/8/2021 8:45:00 AM 7.62 45.716 0.057 6.49 2.08 12.26
5/8/2021 9:00:00 AM 7.71 45.878 0.057 6.52 1.99 12.28
5/8/2021 9:15:00 AM 7.79 46.022 0.057 6.53 2.08 12.29
5/8/2021 9:30:00 AM 7.83 46.094 0.057 6.53 2.08 12.28
5/8/2021 9:45:00 AM 7.9 46.22 0.057 6.54 2.07 12.26
5/8/2021 10:00:00 AM 7.99 46.382 0.057 6.55 2.09 12.24
5/8/2021 10:15:00 AM 8.08 46.544 0.057 6.56 2.07 12.22
5/8/2021 10:30:00 AM 8.19 46.742 0.057 6.56 2.01 12.21
5/8/2021 10:45:00 AM 8.19 46.742 0.057 6.54 2.11 12.16
5/8/2021 11:00:00 AM 8.2 46.76 0.057 6.54 2.1 12.12
5/8/2021 11:15:00 AM 8.22 46.796 0.057 6.53 1.98 12.12
5/8/2021 11:30:00 AM 8.22 46.796 0.057 6.52 2.03 12.1
5/8/2021 11:45:00 AM 8.25 46.85 0.057 6.52 2 12.1
5/8/2021 12:00:00 PM 8.36 47.048 0.057 6.55 2.1 12.12
5/8/2021 12:15:00 PM 8.35 47.03 0.057 6.52 2.03 12.11
5/8/2021 12:30:00 PM 8.64 47.552 0.057 6.58 2.1 12.1
5/8/2021 12:45:00 PM 8.73 47.714 0.057 6.57 2.02 12.07
5/8/2021 1:00:00 PM 8.83 47.894 0.057 6.57 2.08 12.02
5/8/2021 1:15:00 PM 8.81 47.858 0.057 6.54 2.13 11.97
5/8/2021 1:30:00 PM 8.74 47.732 0.057 6.53 2.07 11.98
5/8/2021 1:45:00 PM 8.87 47.966 0.056 6.56 2.07 11.98
5/8/2021 2:00:00 PM 8.79 47.822 0.057 6.52 2.17 11.93
5/8/2021 2:15:00 PM 8.4 47.12 0.056 6.48 2.31 11.92
5/8/2021 2:30:00 PM 8.23 46.814 0.056 6.44 2.49 11.95
5/8/2021 2:45:00 PM 8.22 46.796 0.056 6.45 2.69 11.96
5/8/2021 3:00:00 PM 8.24 46.832 0.056 6.46 2.73 12
5/8/2021 3:15:00 PM 8.23 46.814 0.056 6.47 2.78 12.04
5/8/2021 3:30:00 PM 8.34 47.012 0.056 6.5 2.65 12.06
5/8/2021 3:45:00 PM 8.44 47.192 0.056 6.52 3.04 12.06
5/8/2021 4:00:00 PM 8.46 47.228 0.056 6.5 3.17 12.01
5/8/2021 4:15:00 PM 8.49 47.282 0.056 6.52 3.25 12.01
5/8/2021 4:30:00 PM 8.52 47.336 0.056 6.52 3.09 12.02
5/8/2021 4:45:00 PM 8.63 47.534 0.056 6.55 2.86 12.01
5/8/2021 5:00:00 PM 8.68 47.624 0.056 6.56 3.01 12
5/8/2021 5:15:00 PM 8.71 47.678 0.056 6.53 3.02 11.98
5/8/2021 5:30:00 PM 8.75 47.75 0.056 6.54 2.85 11.96
5/8/2021 5:45:00 PM 8.82 47.876 0.056 6.54 2.9 11.94
5/8/2021 6:00:00 PM 8.87 47.966 0.056 6.54 2.88 11.93
5/8/2021 6:15:00 PM 8.89 48.002 0.056 6.53 2.73 11.89
5/8/2021 6:30:00 PM 8.91 48.038 0.056 6.52 2.83 11.87
5/8/2021 6:45:00 PM 8.9 48.02 0.057 6.51 3.05 11.86
5/8/2021 7:00:00 PM 8.86 47.948 0.057 6.5 3.02 11.86
5/8/2021 7:15:00 PM 8.83 47.894 0.057 6.49 3.04 11.86
5/8/2021 7:30:00 PM 8.8 47.84 0.057 6.48 3.1 11.86
5/8/2021 7:45:00 PM 8.77 47.786 0.057 6.48 3 11.86
5/8/2021 8:00:00 PM 8.73 47.714 0.057 6.46 3 11.85
5/8/2021 8:15:00 PM 8.69 47.642 0.057 6.45 2.94 11.85
5/8/2021 8:30:00 PM 8.64 47.552 0.057 6.44 2.85 11.85
5/8/2021 8:45:00 PM 8.59 47.462 0.058 6.43 2.89 11.86
5/8/2021 9:00:00 PM 8.54 47.372 0.058 6.42 2.84 11.86
5/8/2021 9:15:00 PM 8.5 47.3 0.058 6.42 2.74 11.88
5/8/2021 9:30:00 PM 8.47 47.246 0.058 6.42 2.68 11.89
5/8/2021 9:45:00 PM 8.43 47.174 0.058 6.41 2.7 11.9
5/8/2021 10:00:00 PM 8.38 47.084 0.058 6.42 2.82 11.92
5/8/2021 10:15:00 PM 8.34 47.012 0.058 6.41 2.71 11.93
5/8/2021 10:30:00 PM 8.29 46.922 0.058 6.41 2.76 11.95
5/8/2021 10:45:00 PM 8.24 46.832 0.058 6.4 2.6 11.96
5/8/2021 11:00:00 PM 8.2 46.76 0.058 6.4 2.72 11.97
5/8/2021 11:15:00 PM 8.16 46.688 0.058 6.41 2.59 11.99
5/8/2021 11:30:00 PM 8.11 46.598 0.058 6.4 2.58 12
5/8/2021 11:45:00 PM 8.06 46.508 0.057 6.4 2.53 12.01
5/9/2021 12:00:00 AM 8.01 46.418 0.057 6.4 2.51 12.04
5/9/2021 12:15:00 AM 7.95 46.31 0.057 6.4 2.5 12.05
5/9/2021 12:30:00 AM 7.9 46.22 0.057 6.4 2.41 12.06
5/9/2021 12:45:00 AM 7.85 46.13 0.057 6.4 2.62 12.09
5/9/2021 1:00:00 AM 7.8 46.04 0.057 6.4 2.47 12.11
5/9/2021 1:15:00 AM 7.74 45.932 0.057 6.4 2.37 12.12
5/9/2021 1:30:00 AM 7.69 45.842 0.057 6.4 2.49 12.13
5/9/2021 1:45:00 AM 7.63 45.734 0.057 6.4 2.32 12.14
5/9/2021 2:00:00 AM 7.57 45.626 0.057 6.39 2.47 12.15
5/9/2021 2:15:00 AM 7.52 45.536 0.057 6.4 2.47 12.17
5/9/2021 2:30:00 AM 7.47 45.446 0.057 6.39 2.36 12.19
5/9/2021 2:45:00 AM 7.41 45.338 0.057 6.4 2.4 12.21
5/9/2021 3:00:00 AM 7.35 45.23 0.057 6.39 2.37 12.23
5/9/2021 3:15:00 AM 7.3 45.14 0.057 6.39 2.28 12.25
5/9/2021 3:30:00 AM 7.25 45.05 0.057 6.39 2.35 12.27
5/9/2021 3:45:00 AM 7.19 44.942 0.057 6.4 2.35 12.29
5/9/2021 4:00:00 AM 7.14 44.852 0.057 6.39 2.3 12.31
5/9/2021 4:15:00 AM 7.09 44.762 0.057 6.38 2.3 12.33
5/9/2021 4:30:00 AM 7.04 44.672 0.057 6.39 2.36 12.35
5/9/2021 4:45:00 AM 7 44.6 0.057 6.39 2.29 12.36
5/9/2021 5:00:00 AM 6.96 44.528 0.057 6.4 2.34 12.37
5/9/2021 5:15:00 AM 6.93 44.474 0.057 6.39 2.28 12.39
5/9/2021 5:30:00 AM 6.89 44.402 0.057 6.39 2.28 12.4
5/9/2021 5:45:00 AM 6.85 44.33 0.057 6.39 2.32 12.41
5/9/2021 6:00:00 AM 6.82 44.276 0.057 6.39 2.48 12.43
5/9/2021 6:15:00 AM 6.79 44.222 0.057 6.41 2.3 12.45
5/9/2021 6:30:00 AM 6.78 44.204 0.057 6.4 2.33 12.47
5/9/2021 6:45:00 AM 6.75 44.15 0.057 6.41 2.29 12.49
5/9/2021 7:00:00 AM 6.75 44.15 0.057 6.42 2.2 12.51
5/9/2021 7:15:00 AM 6.75 44.15 0.057 6.42 2.23 12.54
5/9/2021 7:30:00 AM 6.76 44.168 0.057 6.43 2.19 12.55
5/9/2021 7:45:00 AM 6.79 44.222 0.057 6.45 2.22 12.59
5/9/2021 8:00:00 AM 6.83 44.294 0.057 6.47 2.15 12.6
5/9/2021 8:15:00 AM 6.87 44.366 0.057 6.48 2.26 12.6
5/9/2021 8:30:00 AM 6.88 44.384 0.057 6.48 2.16 12.6
5/9/2021 8:45:00 AM 6.92 44.456 0.057 6.49 2.12 12.6
5/9/2021 9:00:00 AM 7 44.6 0.057 6.5 2.14 12.6
5/9/2021 9:15:00 AM 7.09 44.762 0.057 6.53 2.15 12.58
5/9/2021 9:30:00 AM 7.14 44.852 0.057 6.52 2.12 12.56
5/9/2021 9:45:00 AM 7.19 44.942 0.057 6.51 2.11 12.53
5/9/2021 10:00:00 AM 7.23 45.014 0.057 6.51 2.15 12.5
5/9/2021 10:15:00 AM 7.29 45.122 0.057 6.52 2.14 12.48
5/9/2021 10:30:00 AM 7.34 45.212 0.057 6.52 2.13 12.46
5/9/2021 10:45:00 AM 7.39 45.302 0.057 6.51 2.1 12.45
5/9/2021 11:00:00 AM 7.44 45.392 0.057 6.52 2.06 12.43
5/9/2021 11:15:00 AM 7.48 45.464 0.057 6.52 2.28 12.4
5/9/2021 11:30:00 AM 7.51 45.518 0.057 6.51 2.12 12.39
5/9/2021 11:45:00 AM 7.52 45.536 0.057 6.5 2.1 12.35
5/9/2021 12:00:00 PM 7.53 45.554 0.057 6.5 2.07 12.34
5/9/2021 12:15:00 PM 7.55 45.59 0.057 6.51 2.07 12.35
5/9/2021 12:30:00 PM 7.55 45.59 0.057 6.49 2.14 12.32
5/9/2021 12:45:00 PM 7.55 45.59 0.057 6.49 2.1 12.32
5/9/2021 1:00:00 PM 7.53 45.554 0.057 6.48 2.16 12.31
5/9/2021 1:15:00 PM 7.51 45.518 0.057 6.48 2.21 12.32
5/9/2021 1:30:00 PM 7.49 45.482 0.057 6.47 2.26 12.32
5/9/2021 1:45:00 PM 7.47 45.446 0.057 6.47 2.24 12.32
5/9/2021 2:00:00 PM 7.4 45.32 0.056 6.46 2.32 12.33
5/9/2021 2:15:00 PM 7.35 45.23 0.056 6.46 2.47 12.33
5/9/2021 2:30:00 PM 7.31 45.158 0.056 6.45 2.62 12.34
5/9/2021 2:45:00 PM 7.24 45.032 0.056 6.44 2.96 12.33
5/9/2021 3:00:00 PM 7.05 44.69 0.056 6.4 3.32 12.33
5/9/2021 3:15:00 PM 6.83 44.294 0.055 6.35 3.27 12.37
5/9/2021 3:30:00 PM 6.78 44.204 0.055 6.39 3.62 12.4
5/9/2021 3:45:00 PM 6.74 44.132 0.055 6.4 4.02 12.45
5/9/2021 4:00:00 PM 6.72 44.096 0.055 6.39 4.07 12.47
5/9/2021 4:15:00 PM 6.69 44.042 0.055 6.41 4.42 12.48
5/9/2021 4:30:00 PM 6.66 43.988 0.055 6.38 4.82 12.49
5/9/2021 4:45:00 PM 6.63 43.934 0.055 6.41 5.07 12.5
5/9/2021 5:00:00 PM 6.59 43.862 0.055 6.39 5.81 12.51
5/9/2021 5:15:00 PM 6.57 43.826 0.055 6.37 6.87 12.51
5/9/2021 5:30:00 PM 6.56 43.808 0.055 6.37 8.47 12.51
5/9/2021 5:45:00 PM 6.54 43.772 0.055 6.37 9.86 12.5
5/9/2021 6:00:00 PM 6.54 43.772 0.055 6.38 13.63 12.51
5/9/2021 6:15:00 PM 6.54 43.772 0.055 6.44 26.91 12.51
5/9/2021 6:30:00 PM 6.54 43.772 0.055 6.44 25.31 12.51
5/9/2021 6:45:00 PM 6.55 43.79 0.054 6.42 39.32 12.5
5/9/2021 7:00:00 PM 6.56 43.808 0.054 6.39 72.64 12.49
5/9/2021 7:15:00 PM 6.58 43.844 0.054 6.36 50.07 12.5
5/9/2021 7:30:00 PM 6.62 43.916 0.054 6.34 72.74 12.48
5/9/2021 7:45:00 PM 6.65 43.97 0.054 6.31 93.05 12.48
5/9/2021 8:00:00 PM 6.67 44.006 0.054 6.28 83.86 12.48
5/9/2021 8:15:00 PM 6.7 44.06 0.054 6.22 130.12 12.48
5/9/2021 8:30:00 PM 6.72 44.096 0.053 6.2 123.86 12.48
5/9/2021 8:45:00 PM 6.75 44.15 0.052 6.16 135.46 12.47
5/9/2021 9:00:00 PM 6.78 44.204 0.051 6.11 133.11 12.47
5/9/2021 9:15:00 PM 6.8 44.24 0.05 6.12 133.32 12.45
5/9/2021 9:30:00 PM 6.83 44.294 0.049 6.07 155.23 12.45
5/9/2021 9:45:00 PM 6.85 44.33 0.048 6.08 220.79 12.45
5/9/2021 10:00:00 PM 6.86 44.348 0.047 6.06 300.07 12.44
5/9/2021 10:15:00 PM 6.88 44.384 0.046 6.07 127.87 12.44
5/9/2021 10:30:00 PM 6.89 44.402 0.045 6.07 112.01 12.44
5/9/2021 10:45:00 PM 6.9 44.42 0.045 6.06 105.09 12.44
5/9/2021 11:00:00 PM 6.91 44.438 0.045 6.09 96.53 12.44
5/9/2021 11:15:00 PM 6.92 44.456 0.044 6 90.78 12.43
5/9/2021 11:30:00 PM 6.93 44.474 0.044 6.1 80.74 12.43
5/9/2021 11:45:00 PM 6.94 44.492 0.044 6.05 73.67 12.43
5/10/2021 12:00:00 AM 6.95 44.51 0.044 6.02 84.6 12.44
5/10/2021 12:15:00 AM 6.96 44.528 0.044 6.03 88.03 12.43
5/10/2021 12:30:00 AM 6.97 44.546 0.044 6.03 87.97 12.44
5/10/2021 12:45:00 AM 6.98 44.564 0.044 6.09 77.33 12.43
5/10/2021 1:00:00 AM 6.99 44.582 0.043 6.06 15457.55 12.43
5/10/2021 1:15:00 AM 7 44.6 0.043 6.02 122.89 12.42
5/10/2021 1:30:00 AM 7.01 44.618 0.043 6.02 112.89 12.43
5/10/2021 1:45:00 AM 7.01 44.618 0.043 6.06 266.86 12.44
5/10/2021 2:00:00 AM 7.02 44.636 0.042 6.03 85.6 12.43
5/10/2021 2:15:00 AM 7.03 44.654 0.042 6.04 187.7 12.44
5/10/2021 2:30:00 AM 7.03 44.654 0.042 6.05 101.98 12.44
5/10/2021 2:45:00 AM 7.04 44.672 0.042 6.02 80.86 12.43
5/10/2021 3:00:00 AM 7.04 44.672 0.042 6.08 69.77 12.43
5/10/2021 3:15:00 AM 7.04 44.672 0.042 6.09 79.79 12.42
5/10/2021 3:30:00 AM 7.04 44.672 0.042 6.12 71.98 12.42
5/10/2021 3:45:00 AM 7.05 44.69 0.042 6.08 56.71 12.42
5/10/2021 4:00:00 AM 7.05 44.69 0.042 6.02 128.19 12.43
5/10/2021 4:15:00 AM 7.06 44.708 0.038 6.04 7231.27 12.43
5/10/2021 4:30:00 AM 7.06 44.708 0.038 6.03 1093.53 12.43
5/10/2021 4:45:00 AM 7.07 44.726 0.04 6.06 570.16 12.43
5/10/2021 5:00:00 AM 7.07 44.726 0.042 6.13 2137.29 12.43
5/10/2021 5:15:00 AM 7.08 44.744 0.042 6.09 1073.26 12.43
5/10/2021 5:30:00 AM 7.09 44.762 0.027 6.07 45.16 12.43
5/10/2021 5:45:00 AM 7.09 44.762 0.042 6.09 461.02 12.43
5/10/2021 6:00:00 AM 7.1 44.78 0.042 6.11 106.17 12.43
5/10/2021 6:15:00 AM 7.11 44.798 0.042 6.1 683 12.42
5/10/2021 6:30:00 AM 7.12 44.816 0.042 6.12 362.81 12.42
5/10/2021 6:45:00 AM 7.13 44.834 0.042 6.12 33.95 12.42
5/10/2021 7:00:00 AM 7.14 44.852 0.042 6.09 32.81 12.42
5/10/2021 7:15:00 AM 7.16 44.888 0.042 6.11 28.73 12.42
5/10/2021 7:30:00 AM 7.18 44.924 0.042 6.12 31.84 12.42
5/10/2021 7:45:00 AM 7.2 44.96 0.042 6.12 34.28 12.42
5/10/2021 8:00:00 AM 7.24 45.032 0.042 6.11 38.1 12.42
5/10/2021 8:15:00 AM 7.29 45.122 0.042 6.12 565.6 12.42
5/10/2021 8:30:00 AM 7.33 45.194 0.042 6.13 108.75 12.41
5/10/2021 8:45:00 AM 7.37 45.266 0.042 6.12 42.78 12.39
5/10/2021 9:00:00 AM 7.42 45.356 0.042 6.13 41.33 12.38
5/10/2021 9:15:00 AM 7.51 45.518 0.039 6.17 28.79 12.37
5/10/2021 9:30:00 AM 7.56 45.608 0.042 6.17 41.3 12.36
5/10/2021 9:45:00 AM 7.67 45.806 0.042 6.19 27.9 12.34
5/10/2021 10:00:00 AM 7.74 45.932 0.042 6.2 30.29 12.32
5/10/2021 10:15:00 AM 7.8 46.04 0.042 6.19 33.12 12.3
5/10/2021 10:30:00 AM 7.95 46.31 0.042 6.22 30.58 12.27
5/10/2021 10:45:00 AM 8.1 46.58 0.042 6.24 27.76 12.22
5/10/2021 11:00:00 AM 8.22 46.796 0.042 6.24 21.04 12.18
5/10/2021 11:15:00 AM 8.38 47.084 0.042 6.26 22.24 12.14
5/10/2021 11:30:00 AM 8.39 47.102 0.042 6.27 24.59 12.12
5/10/2021 11:45:00 AM 8.54 47.372 0.042 6.28 23.81 12.09
5/10/2021 12:00:00 PM 8.56 47.408 0.042 6.25 21.64 12.06
5/10/2021 12:15:00 PM 8.58 47.444 0.042 6.27 23.08 12.05
5/10/2021 12:30:00 PM 8.61 47.498 0.042 6.28 19.56 12.04
5/10/2021 12:45:00 PM 8.7 47.66 0.042 6.29 21.52 12.02
5/10/2021 1:00:00 PM 8.79 47.822 0.042 6.28 42.44 12
5/10/2021 1:15:00 PM 8.83 47.894 0.042 6.25 25.12 11.98
5/10/2021 1:30:00 PM 8.95 48.11 0.042 6.26 27.58 11.95
5/10/2021 1:45:00 PM 9.02 48.236 0.042 6.27 18.51 11.92
5/10/2021 2:00:00 PM 9.08 48.344 0.042 6.28 20.98 11.9
5/10/2021 2:15:00 PM 9.17 48.506 0.042 6.24 19.16 11.88
5/10/2021 2:30:00 PM 9.25 48.65 0.043 6.26 15.4 11.85
5/10/2021 2:45:00 PM 9.31 48.758 0.043 6.26 20.89 11.83
5/10/2021 3:00:00 PM 9.32 48.776 0.043 6.22 24.07 11.83
5/10/2021 3:15:00 PM 9.37 48.866 0.043 6.28 17.08 11.81
5/10/2021 3:30:00 PM 9.39 48.902 0.043 6.26 18.47 11.8
5/10/2021 3:45:00 PM 9.42 48.956 0.043 6.27 15.64 11.79
5/10/2021 4:00:00 PM 9.43 48.974 0.043 6.27 14.65 11.78
5/10/2021 4:15:00 PM 9.49 49.082 0.043 6.29 15.63 11.77
5/10/2021 4:30:00 PM 9.55 49.19 0.043 6.29 14.13 11.75
5/10/2021 4:45:00 PM 9.6 49.28 0.043 6.3 14.27 11.73
5/10/2021 5:00:00 PM 9.57 49.226 0.043 6.27 16.76 11.73
5/10/2021 5:15:00 PM 9.53 49.154 0.043 6.27 18.52 11.74
5/10/2021 5:30:00 PM 9.49 49.082 0.043 6.27 15.35 11.75
5/10/2021 5:45:00 PM 9.48 49.064 0.043 6.27 16.23 11.75
5/10/2021 6:00:00 PM 9.44 48.992 0.043 6.28 14.75 11.76
5/10/2021 6:15:00 PM 9.41 48.938 0.043 6.27 13.49 11.77
5/10/2021 6:30:00 PM 9.37 48.866 0.043 6.25 12.51 11.77
5/10/2021 6:45:00 PM 9.33 48.794 0.043 6.25 12.63 11.78
5/10/2021 7:00:00 PM 9.29 48.722 0.043 6.25 12.15 11.78
5/10/2021 7:15:00 PM 9.26 48.668 0.043 6.26 12.06 11.79
5/10/2021 7:30:00 PM 9.22 48.596 0.043 6.25 13.28 11.8
5/10/2021 7:45:00 PM 9.18 48.524 0.043 6.25 12.28 11.81
5/10/2021 8:00:00 PM 9.14 48.452 0.043 6.25 12.41 11.82
5/10/2021 8:15:00 PM 9.1 48.38 0.043 6.26 12.2 11.83
5/10/2021 8:30:00 PM 9.05 48.29 0.043 6.24 12.21 11.83
5/10/2021 8:45:00 PM 9 48.2 0.044 6.24 11.93 11.85
5/10/2021 9:00:00 PM 8.95 48.11 0.044 6.23 12.05 11.87
5/10/2021 9:15:00 PM 8.89 48.002 0.044 6.23 30.92 11.88
5/10/2021 9:30:00 PM 8.84 47.912 0.044 6.23 12.41 11.9
5/10/2021 9:45:00 PM 8.78 47.804 0.044 6.22 33.02 11.92
5/10/2021 10:00:00 PM 8.73 47.714 0.044 6.24 12.12 11.94
5/10/2021 10:15:00 PM 8.67 47.606 0.044 6.23 12.2 11.96
5/10/2021 10:30:00 PM 8.61 47.498 0.044 6.23 11.47 11.97
5/10/2021 10:45:00 PM 8.55 47.39 0.044 6.22 12.19 11.99
5/10/2021 11:00:00 PM 8.5 47.3 0.044 6.22 11.99 12.02
5/10/2021 11:15:00 PM 8.44 47.192 0.044 6.22 11.99 12.03
5/10/2021 11:30:00 PM 8.39 47.102 0.044 6.22 11.74 12.04
5/10/2021 11:45:00 PM 8.33 46.994 0.044 6.22 11.77 12.06
5/11/2021 12:00:00 AM 8.28 46.904 0.044 6.22 11.55 12.08
5/11/2021 12:15:00 AM 8.23 46.814 0.044 6.22 12.13 12.09
5/11/2021 12:30:00 AM 8.18 46.724 0.044 6.22 26.92 12.11
5/11/2021 12:45:00 AM 8.13 46.634 0.044 6.22 12.63 12.12
5/11/2021 1:00:00 AM 8.08 46.544 0.044 6.22 29.78 12.13
5/11/2021 1:15:00 AM 8.03 46.454 0.044 6.22 10.57 12.16
5/11/2021 1:30:00 AM 7.99 46.382 0.044 6.23 11.27 12.17
5/11/2021 1:45:00 AM 7.95 46.31 0.044 6.23 11.48 12.18
5/11/2021 2:00:00 AM 7.92 46.256 0.044 6.24 11.55 12.19
5/11/2021 2:15:00 AM 7.88 46.184 0.044 6.22 35.04 12.21
5/11/2021 2:30:00 AM 7.85 46.13 0.044 6.23 11.81 12.22
5/11/2021 2:45:00 AM 7.83 46.094 0.044 6.23 11.76 12.22
5/11/2021 3:00:00 AM 7.8 46.04 0.044 6.24 11.55 12.23
5/11/2021 3:15:00 AM 7.77 45.986 0.044 6.24 10.46 12.23
5/11/2021 3:30:00 AM 7.75 45.95 0.044 6.24 10.8 12.23
5/11/2021 3:45:00 AM 7.73 45.914 0.044 6.25 10.49 12.24
5/11/2021 4:00:00 AM 7.71 45.878 0.045 6.24 10.11 12.27
5/11/2021 4:15:00 AM 7.68 45.824 0.045 6.25 10.06 12.27
5/11/2021 4:30:00 AM 7.66 45.788 0.045 6.24 10.05 12.27
5/11/2021 4:45:00 AM 7.63 45.734 0.045 6.25 9.92 12.27
5/11/2021 5:00:00 AM 7.6 45.68 0.045 6.24 40.11 12.29
5/11/2021 5:15:00 AM 7.57 45.626 0.045 6.24 10.26 12.29
5/11/2021 5:30:00 AM 7.55 45.59 0.045 6.23 9.69 12.31
5/11/2021 5:45:00 AM 7.52 45.536 0.045 6.25 10.04 12.32
5/11/2021 6:00:00 AM 7.49 45.482 0.045 6.24 10.42 12.31
5/11/2021 6:15:00 AM 7.46 45.428 0.045 6.23 10.05 12.33
5/11/2021 6:30:00 AM 7.44 45.392 0.045 6.24 10.24 12.34
5/11/2021 6:45:00 AM 7.42 45.356 0.045 6.24 10.38 12.36
5/11/2021 7:00:00 AM 7.4 45.32 0.045 6.25 9.79 12.37
5/11/2021 7:15:00 AM 7.4 45.32 0.045 6.25 9.26 12.38
5/11/2021 7:30:00 AM 7.4 45.32 0.045 6.25 9.81 12.4
5/11/2021 7:45:00 AM 7.4 45.32 0.045 6.26 9.62 12.39
5/11/2021 8:00:00 AM 7.41 45.338 0.045 6.26 10.37 12.4
5/11/2021 8:15:00 AM 7.44 45.392 0.045 6.27 10.77 12.39
5/11/2021 8:30:00 AM 7.49 45.482 0.045 6.29 9.74 12.38
5/11/2021 8:45:00 AM 7.54 45.572 0.045 6.29 10.48 12.37
5/11/2021 9:00:00 AM 7.62 45.716 0.045 6.3 9.86 12.36
5/11/2021 9:15:00 AM 7.7 45.86 0.045 6.32 9.44 12.33
5/11/2021 9:30:00 AM 7.81 46.058 0.045 6.31 10.02 12.31
5/11/2021 9:45:00 AM 7.93 46.274 0.045 6.33 9.48 12.27
5/11/2021 10:00:00 AM 7.98 46.364 0.045 6.33 9.76 12.25
5/11/2021 10:15:00 AM 8.06 46.508 0.045 6.34 9.42 12.22
5/11/2021 10:30:00 AM 8.13 46.634 0.045 6.34 9.37 12.2
5/11/2021 10:45:00 AM 8.24 46.832 0.045 6.33 9.23 12.17
5/11/2021 11:00:00 AM 8.29 46.922 0.045 6.34 9.59 12.14
5/11/2021 11:15:00 AM 8.31 46.958 0.045 6.33 9.47 12.13
5/11/2021 11:30:00 AM 8.38 47.084 0.045 6.33 9.16 12.11
5/11/2021 11:45:00 AM 8.56 47.408 0.045 6.35 8.66 12.09
5/11/2021 12:00:00 PM 8.66 47.588 0.045 6.34 13.93 12.04
5/11/2021 12:15:00 PM 8.71 47.678 0.046 6.33 9.53 12.02
5/11/2021 12:30:00 PM 8.83 47.894 0.046 6.35 9.28 11.99
5/11/2021 12:45:00 PM 8.95 48.11 0.046 6.34 8.86 11.98
5/11/2021 1:00:00 PM 9.06 48.308 0.046 6.35 8.75 11.95
5/11/2021 1:15:00 PM 9.15 48.47 0.046 6.35 8.71 11.91
5/11/2021 1:30:00 PM 9.28 48.704 0.046 6.36 8.68 11.88
5/11/2021 1:45:00 PM 9.38 48.884 0.046 6.37 8.71 11.84
5/11/2021 2:00:00 PM 9.53 49.154 0.046 6.36 9.07 11.81
5/11/2021 2:15:00 PM 9.62 49.316 0.046 6.34 8.7 11.77
5/11/2021 2:30:00 PM 9.65 49.37 0.046 6.35 8.67 11.74
5/11/2021 2:45:00 PM 9.76 49.568 0.046 6.35 8.7 11.72
5/11/2021 3:00:00 PM 9.75 49.55 0.046 6.33 9.02 11.71
5/11/2021 3:15:00 PM 9.83 49.694 0.046 6.34 8.96 11.7
5/11/2021 3:30:00 PM 9.92 49.856 0.046 6.35 8.67 11.67
5/11/2021 3:45:00 PM 9.87 49.766 0.046 6.33 8.08 11.66
5/11/2021 4:00:00 PM 9.9 49.82 0.046 6.33 8.95 11.65
5/11/2021 4:15:00 PM 9.92 49.856 0.046 6.32 8.31 11.65
5/11/2021 4:30:00 PM 9.87 49.766 0.046 6.31 8.48 11.66
5/11/2021 4:45:00 PM 9.88 49.784 0.046 6.32 8.02 11.65
5/11/2021 5:00:00 PM 9.88 49.784 0.046 6.31 8.32 11.65
5/11/2021 5:15:00 PM 9.86 49.748 0.046 6.31 8.59 11.65
5/11/2021 5:30:00 PM 9.86 49.748 0.046 6.32 8.12 11.66
5/11/2021 5:45:00 PM 9.81 49.658 0.046 6.3 21.46 11.66
5/11/2021 6:00:00 PM 9.77 49.586 0.046 6.3 8.07 11.68
5/11/2021 6:15:00 PM 9.72 49.496 0.046 6.29 8.17 11.69
5/11/2021 6:30:00 PM 9.65 49.37 0.046 6.31 7.84 11.7
5/11/2021 6:45:00 PM 9.61 49.298 0.046 6.29 8.29 11.72
5/11/2021 7:00:00 PM 9.54 49.172 0.046 6.28 7.95 11.74
5/11/2021 7:15:00 PM 9.48 49.064 0.046 6.28 8.19 11.75
5/11/2021 7:30:00 PM 9.41 48.938 0.046 6.28 8.07 11.77
5/11/2021 7:45:00 PM 9.35 48.83 0.046 6.28 12.91 11.79
5/11/2021 8:00:00 PM 9.27 48.686 0.046 6.27 7.88 11.8
5/11/2021 8:15:00 PM 9.2 48.56 0.046 6.28 7.92 11.81
5/11/2021 8:30:00 PM 9.12 48.416 0.046 6.26 8.39 11.83
5/11/2021 8:45:00 PM 9.06 48.308 0.047 6.27 34.29 11.85
5/11/2021 9:00:00 PM 8.99 48.182 0.047 6.26 8.29 11.88
5/11/2021 9:15:00 PM 8.92 48.056 0.047 6.25 8.46 11.9
5/11/2021 9:30:00 PM 8.84 47.912 0.047 6.24 8.37 11.92
5/11/2021 9:45:00 PM 8.76 47.768 0.047 6.25 27.76 11.94
5/11/2021 10:00:00 PM 8.68 47.624 0.047 6.23 10.41 11.97
5/11/2021 10:15:00 PM 8.6 47.48 0.047 6.24 27.58 12
5/11/2021 10:30:00 PM 8.52 47.336 0.047 6.24 43.08 12.02
5/11/2021 10:45:00 PM 8.44 47.192 0.047 6.25 7.86 12.05
5/11/2021 11:00:00 PM 8.36 47.048 0.047 6.23 7.58 12.08
5/11/2021 11:15:00 PM 8.28 46.904 0.047 6.24 7.62 12.1
5/11/2021 11:30:00 PM 8.2 46.76 0.047 6.23 42.72 12.13
5/11/2021 11:45:00 PM 8.12 46.616 0.047 6.24 7.96 12.15
5/12/2021 12:00:00 AM 8.04 46.472 0.047 6.23 8.14 12.18
5/12/2021 12:15:00 AM 7.97 46.346 0.047 6.24 8.17 12.21
5/12/2021 12:30:00 AM 7.9 46.22 0.047 6.23 8.49 12.22
5/12/2021 12:45:00 AM 7.83 46.094 0.047 6.23 8.16 12.26
5/12/2021 1:00:00 AM 7.77 45.986 0.047 6.23 8.11 12.28
5/12/2021 1:15:00 AM 7.7 45.86 0.047 6.24 8.02 12.3
5/12/2021 1:30:00 AM 7.63 45.734 0.047 6.22 8.4 12.3
5/12/2021 1:45:00 AM 7.56 45.608 0.047 6.23 8.28 12.34
5/12/2021 2:00:00 AM 7.49 45.482 0.047 6.23 7.76 12.35
5/12/2021 2:15:00 AM 7.43 45.374 0.047 6.22 8.36 12.37
5/12/2021 2:30:00 AM 7.37 45.266 0.047 6.23 6.97 12.39
5/12/2021 2:45:00 AM 7.32 45.176 0.047 6.23 7.2 12.41
5/12/2021 3:00:00 AM 7.28 45.104 0.047 6.24 7.01 12.42
5/12/2021 3:15:00 AM 7.25 45.05 0.047 6.24 6.85 12.43
5/12/2021 3:30:00 AM 7.22 44.996 0.047 6.25 7.01 12.44
5/12/2021 3:45:00 AM 7.2 44.96 0.047 6.25 6.95 12.45
5/12/2021 4:00:00 AM 7.18 44.924 0.047 6.25 6.77 12.45
5/12/2021 4:15:00 AM 7.17 44.906 0.048 6.25 6.79 12.45
5/12/2021 4:30:00 AM 7.15 44.87 0.048 6.26 6.74 12.46
5/12/2021 4:45:00 AM 7.12 44.816 0.048 6.26 6.61 12.46
5/12/2021 5:00:00 AM 7.09 44.762 0.048 6.25 9.55 12.47
5/12/2021 5:15:00 AM 7.06 44.708 0.048 6.24 6.62 12.48
5/12/2021 5:30:00 AM 7.03 44.654 0.048 6.25 6.61 12.48
5/12/2021 5:45:00 AM 7 44.6 0.048 6.24 6.71 12.51
5/12/2021 6:00:00 AM 6.98 44.564 0.048 6.25 6.7 12.52
5/12/2021 6:15:00 AM 6.95 44.51 0.048 6.24 6.9 12.53
5/12/2021 6:30:00 AM 6.93 44.474 0.048 6.24 6.77 12.54
5/12/2021 6:45:00 AM 6.9 44.42 0.048 6.25 6.84 12.55
5/12/2021 7:00:00 AM 6.88 44.384 0.048 6.25 6.7 12.57
5/12/2021 7:15:00 AM 6.86 44.348 0.048 6.25 6.73 12.59
5/12/2021 7:30:00 AM 6.86 44.348 0.048 6.25 6.92 12.59
5/12/2021 7:45:00 AM 6.87 44.366 0.048 6.27 12.14 12.61
5/12/2021 8:00:00 AM 6.89 44.402 0.048 6.28 6.55 12.61
5/12/2021 8:15:00 AM 6.94 44.492 0.048 6.29 6.53 12.61
5/12/2021 8:30:00 AM 6.97 44.546 0.048 6.29 6.53 12.61
5/12/2021 8:45:00 AM 7.04 44.672 0.048 6.3 6.58 12.6
5/12/2021 9:00:00 AM 7.14 44.852 0.048 6.32 7.74 12.58
5/12/2021 9:15:00 AM 7.26 45.068 0.048 6.34 6.55 12.56
5/12/2021 9:30:00 AM 7.36 45.248 0.048 6.33 6.66 12.52
5/12/2021 9:45:00 AM 7.49 45.482 0.048 6.34 6.37 12.48
5/12/2021 10:00:00 AM 7.63 45.734 0.048 6.35 6.46 12.46
5/12/2021 10:15:00 AM 7.78 46.004 0.048 6.35 6.26 12.4
5/12/2021 10:30:00 AM 7.95 46.31 0.048 6.37 6.36 12.36
5/12/2021 10:45:00 AM 8.14 46.652 0.048 6.37 6.34 12.31
5/12/2021 11:00:00 AM 8.34 47.012 0.048 6.36 6.23 12.25
5/12/2021 11:15:00 AM 8.55 47.39 0.048 6.37 8.4 12.19
5/12/2021 11:30:00 AM 8.74 47.732 0.048 6.38 6.42 12.13
5/12/2021 11:45:00 AM 8.86 47.948 0.048 6.38 6.09 12.07
5/12/2021 12:00:00 PM 8.95 48.11 0.048 6.36 6.25 12.04
5/12/2021 12:15:00 PM 9.18 48.524 0.048 6.37 6.26 11.99
5/12/2021 12:30:00 PM 9.23 48.614 0.048 6.34 6.21 11.95
5/12/2021 12:45:00 PM 9.24 48.632 0.048 6.34 6.5 11.93
5/12/2021 1:00:00 PM 9.43 48.974 0.048 6.37 6.45 11.88
5/12/2021 1:15:00 PM 9.45 49.01 0.048 6.35 6.45 11.86
5/12/2021 1:30:00 PM 9.64 49.352 0.048 6.38 6.44 11.82
5/12/2021 1:45:00 PM 9.67 49.406 0.048 6.36 6.35 11.79
5/12/2021 2:00:00 PM 9.72 49.496 0.048 6.35 6.44 11.79
5/12/2021 2:15:00 PM 9.88 49.784 0.048 6.37 6.6 11.76
5/12/2021 2:30:00 PM 9.9 49.82 0.048 6.35 6.61 11.74
5/12/2021 2:45:00 PM 9.93 49.874 0.048 6.35 6.5 11.73
5/12/2021 3:00:00 PM 10.1 50.18 0.049 6.37 6.44 11.7
5/12/2021 3:15:00 PM 10.1 50.18 0.049 6.35 6.29 11.67
5/12/2021 3:30:00 PM 10.18 50.324 0.049 6.35 6.5 11.66
5/12/2021 3:45:00 PM 10.21 50.378 0.049 6.36 6.5 11.63
5/12/2021 4:00:00 PM 10.29 50.522 0.049 6.36 6.44 11.61
5/12/2021 4:15:00 PM 10.3 50.54 0.049 6.34 6.55 11.59
5/12/2021 4:30:00 PM 10.29 50.522 0.049 6.34 6.59 11.59
5/12/2021 4:45:00 PM 10.28 50.504 0.049 6.35 6.45 11.58
5/12/2021 5:00:00 PM 10.28 50.504 0.049 6.33 6.52 11.57
5/12/2021 5:15:00 PM 10.23 50.414 0.049 6.33 6.47 11.58
5/12/2021 5:30:00 PM 10.21 50.378 0.049 6.33 6.58 11.59
5/12/2021 5:45:00 PM 10.19 50.342 0.049 6.32 6.53 11.59
5/12/2021 6:00:00 PM 10.14 50.252 0.049 6.31 6.47 11.59
5/12/2021 6:15:00 PM 10.1 50.18 0.049 6.31 6.4 11.6
5/12/2021 6:30:00 PM 10.05 50.09 0.049 6.31 6.43 11.6
5/12/2021 6:45:00 PM 10.03 50.054 0.049 6.31 6.24 11.61
5/12/2021 7:00:00 PM 9.98 49.964 0.049 6.33 6.25 11.62
5/12/2021 7:15:00 PM 9.94 49.892 0.049 6.31 6.12 11.63
5/12/2021 7:30:00 PM 9.88 49.784 0.049 6.31 6.13 11.64
5/12/2021 7:45:00 PM 9.82 49.676 0.049 6.3 6.08 11.66
5/12/2021 8:00:00 PM 9.75 49.55 0.049 6.29 6.1 11.67
5/12/2021 8:15:00 PM 9.69 49.442 0.049 6.28 6.12 11.68
5/12/2021 8:30:00 PM 9.62 49.316 0.049 6.28 6.07 11.7
5/12/2021 8:45:00 PM 9.55 49.19 0.049 6.28 6.34 11.71
5/12/2021 9:00:00 PM 9.48 49.064 0.049 6.28 7.88 11.74
5/12/2021 9:15:00 PM 9.4 48.92 0.049 6.28 7.76 11.76
5/12/2021 9:30:00 PM 9.33 48.794 0.049 6.27 10.56 11.78
5/12/2021 9:45:00 PM 9.26 48.668 0.049 6.27 6.31 11.81
5/12/2021 10:00:00 PM 9.19 48.542 0.049 6.26 9.89 11.83
5/12/2021 10:15:00 PM 9.11 48.398 0.049 6.26 10.91 11.85
5/12/2021 10:30:00 PM 9.03 48.254 0.049 6.26 9.64 11.87
5/12/2021 10:45:00 PM 8.96 48.128 0.049 6.26 8.81 11.89
5/12/2021 11:00:00 PM 8.88 47.984 0.05 6.26 8.24 11.92
5/12/2021 11:15:00 PM 8.8 47.84 0.05 6.26 8.96 11.94
5/12/2021 11:30:00 PM 8.73 47.714 0.05 6.26 8.6 11.97
5/12/2021 11:45:00 PM 8.65 47.57 0.05 6.26 8.83 11.99
5/13/2021 12:00:00 AM 8.57 47.426 0.05 6.26 11.62 12.01
5/13/2021 12:15:00 AM 8.49 47.282 0.05 6.25 9.2 12.04
5/13/2021 12:30:00 AM 8.41 47.138 0.05 6.26 8.56 12.06
5/13/2021 12:45:00 AM 8.33 46.994 0.05 6.25 8.73 12.09
5/13/2021 1:00:00 AM 8.25 46.85 0.05 6.25 9.72 12.12
5/13/2021 1:15:00 AM 8.17 46.706 0.05 6.25 6.96 12.14
5/13/2021 1:30:00 AM 8.09 46.562 0.05 6.24 7.52 12.17
5/13/2021 1:45:00 AM 8.01 46.418 0.05 6.25 7.74 12.19
5/13/2021 2:00:00 AM 7.93 46.274 0.05 6.24 7.55 12.21
5/13/2021 2:15:00 AM 7.85 46.13 0.05 6.25 7.7 12.23
5/13/2021 2:30:00 AM 7.77 45.986 0.05 6.25 8.99 12.26
5/13/2021 2:45:00 AM 7.69 45.842 0.05 6.25 8.36 12.29
5/13/2021 3:00:00 AM 7.61 45.698 0.05 6.25 9.27 12.3
5/13/2021 3:15:00 AM 7.54 45.572 0.05 6.26 8.1 12.34
5/13/2021 3:30:00 AM 7.47 45.446 0.05 6.25 10.24 12.36
5/13/2021 3:45:00 AM 7.4 45.32 0.05 6.26 7.01 12.38
5/13/2021 4:00:00 AM 7.33 45.194 0.05 6.25 7.33 12.4
5/13/2021 4:15:00 AM 7.26 45.068 0.05 6.26 7.01 12.43
5/13/2021 4:30:00 AM 7.19 44.942 0.05 6.26 8.79 12.44
5/13/2021 4:45:00 AM 7.13 44.834 0.05 6.26 9.45 12.47
5/13/2021 5:00:00 AM 7.07 44.726 0.05 6.25 8.72 12.49
5/13/2021 5:15:00 AM 7.01 44.618 0.05 6.26 7.09 12.51
5/13/2021 5:30:00 AM 6.95 44.51 0.05 6.26 7.92 12.53
5/13/2021 5:45:00 AM 6.9 44.42 0.05 6.26 8.54 12.54
5/13/2021 6:00:00 AM 6.85 44.33 0.05 6.25 8.57 12.57
5/13/2021 6:15:00 AM 6.8 44.24 0.05 6.28 8.29 12.58
5/13/2021 6:30:00 AM 6.76 44.168 0.05 6.26 8.71 12.6
5/13/2021 6:45:00 AM 6.71 44.078 0.05 6.26 9.34 12.62
5/13/2021 7:00:00 AM 6.69 44.042 0.051 6.27 9.92 12.64
5/13/2021 7:15:00 AM 6.66 43.988 0.051 6.29 9.65 12.66
5/13/2021 7:30:00 AM 6.64 43.952 0.051 6.28 7.54 12.67
5/13/2021 7:45:00 AM 6.63 43.934 0.051 6.28 7.9 12.68
5/13/2021 8:00:00 AM 6.63 43.934 0.051 6.29 7.54 12.7
5/13/2021 8:15:00 AM 6.65 43.97 0.051 6.3 7.75 12.7
5/13/2021 8:30:00 AM 6.69 44.042 0.051 6.32 6.95 12.69
5/13/2021 8:45:00 AM 6.77 44.186 0.051 6.33 6.93 12.68
5/13/2021 9:00:00 AM 6.86 44.348 0.051 6.34 7.35 12.67
5/13/2021 9:15:00 AM 6.97 44.546 0.051 6.35 7.61 12.64
5/13/2021 9:30:00 AM 7.09 44.762 0.051 6.37 6.89 12.62
5/13/2021 9:45:00 AM 7.24 45.032 0.051 6.37 8.09 12.58
5/13/2021 10:00:00 AM 7.4 45.32 0.051 6.38 7.7 12.53
5/13/2021 10:15:00 AM 7.58 45.644 0.051 6.39 8.64 12.48
5/13/2021 10:30:00 AM 7.78 46.004 0.051 6.39 6.82 12.43
5/13/2021 10:45:00 AM 8 46.4 0.051 6.4 7.02 12.37
5/13/2021 11:00:00 AM 8.25 46.85 0.051 6.41 7.02 12.31
5/13/2021 11:15:00 AM 8.32 46.976 0.051 6.39 7.78 12.23
5/13/2021 11:30:00 AM 8.48 47.264 0.051 6.4 7.36 12.19
5/13/2021 11:45:00 AM 8.73 47.714 0.051 6.42 7.16 12.15
5/13/2021 12:00:00 PM 8.77 47.786 0.051 6.39 7.05 12.1
5/13/2021 12:15:00 PM 8.82 47.876 0.051 6.39 6.9 12.07
5/13/2021 12:30:00 PM 8.96 48.128 0.051 6.4 7.27 12.05
5/13/2021 12:45:00 PM 9.12 48.416 0.051 6.41 7.72 11.99
5/13/2021 1:00:00 PM 9.24 48.632 0.051 6.41 7.5 11.94
5/13/2021 1:15:00 PM 9.31 48.758 0.051 6.39 7.07 11.91
5/13/2021 1:30:00 PM 9.3 48.74 0.051 6.37 7.56 11.89
5/13/2021 1:45:00 PM 9.45 49.01 0.051 6.4 7.44 11.86
5/13/2021 2:00:00 PM 9.42 48.956 0.051 6.38 8.14 11.86
5/13/2021 2:15:00 PM 9.5 49.1 0.051 6.39 7.13 11.84
5/13/2021 2:30:00 PM 9.55 49.19 0.051 6.39 7.99 11.82
5/13/2021 2:45:00 PM 9.61 49.298 0.051 6.39 8.93 11.8
5/13/2021 3:00:00 PM 9.67 49.406 0.051 6.39 8.25 11.79
5/13/2021 3:15:00 PM 9.75 49.55 0.051 6.4 7.14 11.77
5/13/2021 3:30:00 PM 9.78 49.604 0.051 6.39 7.7 11.75
5/13/2021 3:45:00 PM 9.83 49.694 0.051 6.4 8.23 11.72
5/13/2021 4:00:00 PM 9.84 49.712 0.051 6.38 7.4 11.71
5/13/2021 4:15:00 PM 9.84 49.712 0.051 6.37 8.44 11.69
5/13/2021 4:30:00 PM 9.85 49.73 0.051 6.39 8.4 11.69
5/13/2021 4:45:00 PM 9.91 49.838 0.051 6.38 8.06 11.7
5/13/2021 5:00:00 PM 9.9 49.82 0.051 6.38 7.59 11.69
5/13/2021 5:15:00 PM 9.93 49.874 0.051 6.38 7.01 11.67
5/13/2021 5:30:00 PM 9.98 49.964 0.051 6.39 7.34 11.66
5/13/2021 5:45:00 PM 10.02 50.036 0.051 6.39 7.52 11.65
5/13/2021 6:00:00 PM 10.02 50.036 0.051 6.38 8.05 11.62
5/13/2021 6:15:00 PM 10.03 50.054 0.051 6.37 8.66 11.62
5/13/2021 6:30:00 PM 9.99 49.982 0.051 6.37 7.18 11.61
5/13/2021 6:45:00 PM 9.96 49.928 0.051 6.35 7.75 11.62
5/13/2021 7:00:00 PM 9.93 49.874 0.051 6.34 7.07 11.62
5/13/2021 7:15:00 PM 9.89 49.802 0.052 6.34 6.98 11.63
5/13/2021 7:30:00 PM 9.86 49.748 0.052 6.33 7.79 11.64
5/13/2021 7:45:00 PM 9.83 49.694 0.052 6.34 7.65 11.64
5/13/2021 8:00:00 PM 9.81 49.658 0.052 6.33 7.45 11.65
5/13/2021 8:15:00 PM 9.77 49.586 0.052 6.34 7.34 11.65
5/13/2021 8:30:00 PM 9.71 49.478 0.052 6.32 7.35 11.66
5/13/2021 8:45:00 PM 9.66 49.388 0.052 6.32 7.24 11.66
5/13/2021 9:00:00 PM 9.6 49.28 0.052 6.31 7.71 11.67
5/13/2021 9:15:00 PM 9.55 49.19 0.052 6.31 7.59 11.69
5/13/2021 9:30:00 PM 9.49 49.082 0.052 6.32 7.77 11.71
5/13/2021 9:45:00 PM 9.42 48.956 0.052 6.3 7.74 11.72
5/13/2021 10:00:00 PM 9.37 48.866 0.052 6.3 7.68 11.74
5/13/2021 10:15:00 PM 9.31 48.758 0.052 6.31 7.35 11.76
5/13/2021 10:30:00 PM 9.24 48.632 0.052 6.3 7.96 11.78
5/13/2021 10:45:00 PM 9.18 48.524 0.052 6.3 7.51 11.81
5/13/2021 11:00:00 PM 9.11 48.398 0.052 6.3 7.9 11.83
5/13/2021 11:15:00 PM 9.04 48.272 0.052 6.29 8.49 11.85
5/13/2021 11:30:00 PM 8.97 48.146 0.052 6.31 8.17 11.86
5/13/2021 11:45:00 PM 8.89 48.002 0.052 6.3 7.89 11.89
5/14/2021 12:00:00 AM 8.82 47.876 0.052 6.29 7.74 11.91
5/14/2021 12:15:00 AM 8.75 47.75 0.052 6.3 8.11 11.93
5/14/2021 12:30:00 AM 8.67 47.606 0.052 6.29 7.41 11.96
5/14/2021 12:45:00 AM 8.6 47.48 0.052 6.29 8.02 11.98
5/14/2021 1:00:00 AM 8.52 47.336 0.052 6.29 7.55 12
5/14/2021 1:15:00 AM 8.45 47.21 0.052 6.29 7.71 12.03
5/14/2021 1:30:00 AM 8.38 47.084 0.052 6.29 7.67 12.05
5/14/2021 1:45:00 AM 8.31 46.958 0.052 6.29 7.53 12.07
5/14/2021 2:00:00 AM 8.24 46.832 0.052 6.29 7.38 12.09
5/14/2021 2:15:00 AM 8.17 46.706 0.052 6.29 7.68 12.12
5/14/2021 2:30:00 AM 8.1 46.58 0.052 6.28 7.62 12.13
5/14/2021 2:45:00 AM 8.03 46.454 0.052 6.28 8.03 12.15
5/14/2021 3:00:00 AM 7.96 46.328 0.052 6.29 8.13 12.17
5/14/2021 3:15:00 AM 7.9 46.22 0.052 6.29 7.44 12.19
5/14/2021 3:30:00 AM 7.83 46.094 0.053 6.29 8.05 12.21
5/14/2021 3:45:00 AM 7.77 45.986 0.053 6.28 7.06 12.23
5/14/2021 4:00:00 AM 7.7 45.86 0.053 6.28 7.48 12.25
5/14/2021 4:15:00 AM 7.64 45.752 0.053 6.29 7.45 12.27
5/14/2021 4:30:00 AM 7.57 45.626 0.053 6.29 7.45 12.29
5/14/2021 4:45:00 AM 7.51 45.518 0.053 6.28 6.74 12.31
5/14/2021 5:00:00 AM 7.45 45.41 0.053 6.28 7.15 12.34
5/14/2021 5:15:00 AM 7.39 45.302 0.053 6.28 7.1 12.36
5/14/2021 5:30:00 AM 7.33 45.194 0.053 6.28 6.89 12.37
5/14/2021 5:45:00 AM 7.27 45.086 0.053 6.28 7.27 12.4
5/14/2021 6:00:00 AM 7.21 44.978 0.053 6.28 7.62 12.42
5/14/2021 6:15:00 AM 7.16 44.888 0.053 6.28 7.33 12.44
5/14/2021 6:30:00 AM 7.1 44.78 0.053 6.28 8.06 12.46
5/14/2021 6:45:00 AM 7.06 44.708 0.053 6.29 8.58 12.47
5/14/2021 7:00:00 AM 7.02 44.636 0.053 6.3 10.84 12.49
5/14/2021 7:15:00 AM 6.99 44.582 0.053 6.29 2176.59 12.53
5/14/2021 7:30:00 AM 6.97 44.546 0.053 6.3 7.35 12.55
5/14/2021 7:45:00 AM 6.96 44.528 0.053 6.31 24.44 12.56
5/14/2021 8:00:00 AM 6.96 44.528 0.053 6.33 7.63 12.57
5/14/2021 8:15:00 AM 6.97 44.546 0.053 6.32 9.56 12.57
5/14/2021 8:30:00 AM 7.01 44.618 0.053 6.34 6.17 12.57
5/14/2021 8:45:00 AM 7.09 44.762 0.053 6.35 6.37 12.56
5/14/2021 9:00:00 AM 7.19 44.942 0.053 6.36 7.63 12.55
5/14/2021 9:15:00 AM 7.31 45.158 0.053 6.38 6.6 12.51
5/14/2021 9:30:00 AM 7.45 45.41 0.053 6.39 6 12.49
5/14/2021 9:45:00 AM 7.61 45.698 0.053 6.4 10.02 12.45
5/14/2021 10:00:00 AM 7.78 46.004 0.053 6.4 5.76 12.4
5/14/2021 10:15:00 AM 7.97 46.346 0.053 6.42 6.49 12.36
5/14/2021 10:30:00 AM 8.17 46.706 0.053 6.42 6.18 12.3
5/14/2021 10:45:00 AM 8.4 47.12 0.053 6.42 6.62 12.25
5/14/2021 11:00:00 AM 8.63 47.534 0.053 6.43 41.17 12.18
5/14/2021 11:15:00 AM 8.87 47.966 0.053 6.44 6.19 12.11
5/14/2021 11:30:00 AM 9.11 48.398 0.053 6.44 6.78 12.04
5/14/2021 11:45:00 AM 9.37 48.866 0.053 6.44 6.32 11.98
5/14/2021 12:00:00 PM 9.62 49.316 0.053 6.44 6.24 11.9
5/14/2021 12:15:00 PM 9.87 49.766 0.053 6.46 5.91 11.83
5/14/2021 12:30:00 PM 10.12 50.216 0.053 6.45 6.91 11.76
5/14/2021 12:45:00 PM 10.38 50.684 0.053 6.45 5.98 11.69
5/14/2021 1:00:00 PM 10.61 51.098 0.053 6.45 5.94 11.63
5/14/2021 1:15:00 PM 10.72 51.296 0.053 6.43 5.79 11.59
5/14/2021 1:30:00 PM 10.89 51.602 0.053 6.44 5.8 11.53
5/14/2021 1:45:00 PM 11.14 52.052 0.053 6.44 6.15 11.45
5/14/2021 2:00:00 PM 11.28 52.304 0.053 6.44 6.14 11.42
5/14/2021 2:15:00 PM 11.11 51.998 0.053 6.39 6.31 11.39
5/14/2021 2:30:00 PM 11.08 51.944 0.053 6.39 6.83 11.36
5/14/2021 2:45:00 PM 11.06 51.908 0.054 6.39 7.68 11.35
5/14/2021 3:00:00 PM 11.03 51.854 0.054 6.38 7.5 11.36
5/14/2021 3:15:00 PM 11 51.8 0.054 6.39 5.99 11.36
5/14/2021 3:30:00 PM 10.99 51.782 0.052 6.4 5.08 11.37
5/14/2021 3:45:00 PM 11.01 51.818 0.054 6.39 5.28 11.38
5/14/2021 4:00:00 PM 11.06 51.908 0.054 6.41 9.65 11.36
5/14/2021 4:15:00 PM 11.14 52.052 0.053 6.42 7.9 11.34
5/14/2021 4:30:00 PM 11.13 52.034 0.054 6.4 5.28 11.35
5/14/2021 4:45:00 PM 11.15 52.07 0.054 6.4 5.06 11.34
5/14/2021 5:00:00 PM 11.18 52.124 0.054 6.4 4.83 11.33
5/14/2021 5:15:00 PM 11.15 52.07 0.054 6.39 5.21 11.32
5/14/2021 5:30:00 PM 11.15 52.07 0.054 6.4 4.37 11.32
5/14/2021 5:45:00 PM 11.12 52.016 0.054 6.39 4.69 11.32
5/14/2021 6:00:00 PM 11.09 51.962 0.053 6.38 4.83 11.32
5/14/2021 6:15:00 PM 11.05 51.89 0.054 6.37 4.66 11.31
5/14/2021 6:30:00 PM 11.01 51.818 0.054 6.37 4.94 11.32
5/14/2021 6:45:00 PM 10.98 51.764 0.054 6.37 4.54 11.33
5/14/2021 7:00:00 PM 10.94 51.692 0.054 6.36 4.63 11.33
5/14/2021 7:15:00 PM 10.89 51.602 0.054 6.36 4.58 11.33
5/14/2021 7:30:00 PM 10.84 51.512 0.054 6.35 4.74 11.34
5/14/2021 7:45:00 PM 10.79 51.422 0.054 6.34 5.53 11.35
5/14/2021 8:00:00 PM 10.73 51.314 0.054 6.35 5.67 11.36
5/14/2021 8:15:00 PM 10.67 51.206 0.054 6.33 5.52 11.36
5/14/2021 8:30:00 PM 10.61 51.098 0.054 6.33 6.6 11.37
5/14/2021 8:45:00 PM 10.55 50.99 0.054 6.34 12.49 11.39
5/14/2021 9:00:00 PM 10.49 50.882 0.054 6.33 5.4 11.4
5/14/2021 9:15:00 PM 10.42 50.756 0.054 6.33 5.16 11.42
5/14/2021 9:30:00 PM 10.36 50.648 0.054 6.32 5.15 11.44
5/14/2021 9:45:00 PM 10.3 50.54 0.054 6.32 5.51 11.44
5/14/2021 10:00:00 PM 10.24 50.432 0.054 6.33 5.54 11.46
5/14/2021 10:15:00 PM 10.2 50.36 0.054 6.33 5.18 11.49
5/14/2021 10:30:00 PM 10.15 50.27 0.054 6.33 4.99 11.49
5/14/2021 10:45:00 PM 10.1 50.18 0.054 6.32 5.22 11.51
5/14/2021 11:00:00 PM 10.05 50.09 0.054 6.33 4.99 11.53
5/14/2021 11:15:00 PM 9.99 49.982 0.054 6.32 6.16 11.54
5/14/2021 11:30:00 PM 9.93 49.874 0.054 6.32 4.87 11.56
5/14/2021 11:45:00 PM 9.87 49.766 0.054 6.32 6.11 11.58
5/15/2021 12:00:00 AM 9.8 49.64 0.054 6.32 4.98 11.59
5/15/2021 12:15:00 AM 9.74 49.532 0.054 6.32 5.1 11.61
5/15/2021 12:30:00 AM 9.67 49.406 0.054 6.32 4.84 11.63
5/15/2021 12:45:00 AM 9.61 49.298 0.054 6.32 5.17 11.65
5/15/2021 1:00:00 AM 9.54 49.172 0.055 6.32 4.89 11.67
5/15/2021 1:15:00 AM 9.48 49.064 0.055 6.32 5.61 11.69
5/15/2021 1:30:00 AM 9.42 48.956 0.055 6.32 5.42 11.71
5/15/2021 1:45:00 AM 9.35 48.83 0.055 6.33 5.6 11.73
5/15/2021 2:00:00 AM 9.29 48.722 0.055 6.32 5.94 11.75
5/15/2021 2:15:00 AM 9.22 48.596 0.055 6.31 6.55 11.77
5/15/2021 2:30:00 AM 9.15 48.47 0.055 6.32 6.6 11.79
5/15/2021 2:45:00 AM 9.08 48.344 0.055 6.31 5.81 11.81
5/15/2021 3:00:00 AM 9.01 48.218 0.055 6.33 5.89 11.83
5/15/2021 3:15:00 AM 8.94 48.092 0.055 6.31 5.68 11.85
5/15/2021 3:30:00 AM 8.87 47.966 0.055 6.31 5.55 11.87
5/15/2021 3:45:00 AM 8.8 47.84 0.055 6.31 5.8 11.89
5/15/2021 4:00:00 AM 8.73 47.714 0.055 6.31 9.92 11.9
5/15/2021 4:15:00 AM 8.66 47.588 0.055 6.31 6.32 11.93
5/15/2021 4:30:00 AM 8.59 47.462 0.055 6.31 5.44 11.95
5/15/2021 4:45:00 AM 8.52 47.336 0.055 6.32 5.27 11.98
5/15/2021 5:00:00 AM 8.45 47.21 0.055 6.31 4.99 11.99
5/15/2021 5:15:00 AM 8.38 47.084 0.055 6.31 5.76 12.02
5/15/2021 5:30:00 AM 8.31 46.958 0.055 6.31 5.61 12.04
5/15/2021 5:45:00 AM 8.25 46.85 0.055 6.32 6.37 12.06
5/15/2021 6:00:00 AM 8.18 46.724 0.055 6.31 5.76 12.09
5/15/2021 6:15:00 AM 8.12 46.616 0.055 6.31 5.33 12.11
5/15/2021 6:30:00 AM 8.05 46.49 0.055 6.31 5.98 12.13
5/15/2021 6:45:00 AM 8 46.4 0.055 6.31 5.99 12.16
5/15/2021 7:00:00 AM 7.95 46.31 0.055 6.32 5.86 12.18
5/15/2021 7:15:00 AM 7.92 46.256 0.055 6.34 5.93 12.21
5/15/2021 7:30:00 AM 7.89 46.202 0.055 6.33 5.61 12.24
5/15/2021 7:45:00 AM 7.88 46.184 0.055 6.33 5.35 12.25
5/15/2021 8:00:00 AM 7.86 46.148 0.055 6.36 4.94 12.26
5/15/2021 8:15:00 AM 7.87 46.166 0.055 6.35 5.74 12.28
5/15/2021 8:30:00 AM 7.9 46.22 0.055 6.37 5.38 12.27
5/15/2021 8:45:00 AM 7.95 46.31 0.055 6.38 5.65 12.28
5/15/2021 9:00:00 AM 8.05 46.49 0.055 6.39 5.24 12.26
5/15/2021 9:15:00 AM 8.16 46.688 0.055 6.4 5.32 12.23
5/15/2021 9:30:00 AM 8.3 46.94 0.055 6.41 5.55 12.2
5/15/2021 9:45:00 AM 8.45 47.21 0.055 6.43 5.55 12.17
5/15/2021 10:00:00 AM 8.61 47.498 0.055 6.43 5.63 12.14
5/15/2021 10:15:00 AM 8.78 47.804 0.055 6.43 5.97 12.09
5/15/2021 10:30:00 AM 8.98 48.164 0.055 6.44 5.38 12.04
5/15/2021 10:45:00 AM 9.19 48.542 0.055 6.45 5.17 12
5/15/2021 11:00:00 AM 9.39 48.902 0.055 6.47 4.83 11.94
5/15/2021 11:15:00 AM 9.62 49.316 0.055 6.46 5.31 11.88
5/15/2021 11:30:00 AM 9.85 49.73 0.055 6.46 5.39 11.82
5/15/2021 11:45:00 AM 10.05 50.09 0.055 6.47 5.16 11.77
5/15/2021 12:00:00 PM 10.33 50.594 0.055 6.47 5.6 11.7
5/15/2021 12:15:00 PM 10.57 51.026 0.055 6.48 5.25 11.64
5/15/2021 12:30:00 PM 10.72 51.296 0.055 6.47 5.9 11.58
5/15/2021 12:45:00 PM 10.71 51.278 0.055 6.44 7.87 11.53
5/15/2021 1:00:00 PM 10.68 51.224 0.055 6.42 5.32 11.52
5/15/2021 1:15:00 PM 10.79 51.422 0.055 6.46 4.58 11.5
5/15/2021 1:30:00 PM 10.94 51.692 0.056 6.45 4.6 11.47
5/15/2021 1:45:00 PM 11.11 51.998 0.056 6.46 5.08 11.44
5/15/2021 2:00:00 PM 11.12 52.016 0.056 6.43 5.37 11.41
5/15/2021 2:15:00 PM 11.17 52.106 0.056 6.44 6.98 11.38
5/15/2021 2:30:00 PM 11.23 52.214 0.056 6.44 5 11.35
5/15/2021 2:45:00 PM 11.29 52.322 0.056 6.44 4.97 11.34
5/15/2021 3:00:00 PM 11.35 52.43 0.056 6.44 5.56 11.32
5/15/2021 3:15:00 PM 11.45 52.61 0.056 6.46 7.69 11.3
5/15/2021 3:30:00 PM 11.59 52.862 0.056 6.46 5.62 11.28
5/15/2021 3:45:00 PM 11.64 52.952 0.056 6.45 7.28 11.27
5/15/2021 4:00:00 PM 11.63 52.934 0.056 6.43 6.92 11.24
5/15/2021 4:15:00 PM 11.7 53.06 0.056 6.44 9.18 11.21
5/15/2021 4:30:00 PM 11.77 53.186 0.056 6.45 5.21 11.2
5/15/2021 4:45:00 PM 11.77 53.186 0.056 6.43 4.75 11.2
5/15/2021 5:00:00 PM 11.78 53.204 0.056 6.43 6.16 11.18
5/15/2021 5:15:00 PM 11.77 53.186 0.056 6.42 4.99 11.18
5/15/2021 5:30:00 PM 11.72 53.096 0.056 6.42 5.31 11.17
5/15/2021 5:45:00 PM 11.73 53.114 0.056 6.42 4.77 11.16
5/15/2021 6:00:00 PM 11.7 53.06 0.056 6.43 5.16 11.16
5/15/2021 6:15:00 PM 11.62 52.916 0.056 6.4 4.81 11.15
5/15/2021 6:30:00 PM 11.59 52.862 0.056 6.4 4.62 11.16
5/15/2021 6:45:00 PM 11.52 52.736 0.056 6.39 4.2 11.17
5/15/2021 7:00:00 PM 11.44 52.592 0.056 6.38 4.3 11.18
5/15/2021 7:15:00 PM 11.37 52.466 0.056 6.38 4.22 11.2
5/15/2021 7:30:00 PM 11.28 52.304 0.056 6.36 4.17 11.21
5/15/2021 7:45:00 PM 11.2 52.16 0.056 6.36 4.27 11.22
5/15/2021 8:00:00 PM 11.12 52.016 0.056 6.35 4.16 11.24
5/15/2021 8:15:00 PM 11.06 51.908 0.056 6.35 4.08 11.24
5/15/2021 8:30:00 PM 10.99 51.782 0.056 6.35 4.28 11.25
5/15/2021 8:45:00 PM 10.93 51.674 0.056 6.35 4.28 11.26
5/15/2021 9:00:00 PM 10.87 51.566 0.056 6.35 4.68 11.27
5/15/2021 9:15:00 PM 10.81 51.458 0.056 6.34 4.79 11.29
5/15/2021 9:30:00 PM 10.75 51.35 0.056 6.34 6.49 11.3
5/15/2021 9:45:00 PM 10.7 51.26 0.056 6.35 5.22 11.32
5/15/2021 10:00:00 PM 10.65 51.17 0.056 6.34 15286.79 11.34
5/15/2021 10:15:00 PM 10.59 51.062 0.056 6.34 18.87 11.35
5/15/2021 10:30:00 PM 10.54 50.972 0.056 6.34 5.93 11.35
5/15/2021 10:45:00 PM 10.48 50.864 0.056 6.35 5.11 11.37
5/15/2021 11:00:00 PM 10.43 50.774 0.056 6.33 4.11 11.39
5/15/2021 11:15:00 PM 10.37 50.666 0.056 6.34 4.15 11.4
5/15/2021 11:30:00 PM 10.32 50.576 0.056 6.34 3.95 11.42
5/15/2021 11:45:00 PM 10.27 50.486 0.056 6.34 4.52 11.44
5/16/2021 12:00:00 AM 10.21 50.378 0.057 6.34 4.11 11.45
5/16/2021 12:15:00 AM 10.16 50.288 0.057 6.35 4.09 11.47
5/16/2021 12:30:00 AM 10.12 50.216 0.057 6.35 3.97 11.49
5/16/2021 12:45:00 AM 10.07 50.126 0.057 6.35 3.97 11.49
5/16/2021 1:00:00 AM 10.01 50.018 0.057 6.35 3.94 11.51
5/16/2021 1:15:00 AM 9.96 49.928 0.057 6.35 3.96 11.53
5/16/2021 1:30:00 AM 9.9 49.82 0.057 6.34 3.98 11.54
5/16/2021 1:45:00 AM 9.84 49.712 0.057 6.35 4.14 11.56
5/16/2021 2:00:00 AM 9.79 49.622 0.057 6.34 3.91 11.57
5/16/2021 2:15:00 AM 9.73 49.514 0.057 6.35 4.08 11.59
5/16/2021 2:30:00 AM 9.67 49.406 0.057 6.34 3.95 11.6
5/16/2021 2:45:00 AM 9.61 49.298 0.057 6.34 4 11.62
5/16/2021 3:00:00 AM 9.56 49.208 0.057 6.35 14.25 11.64
5/16/2021 3:15:00 AM 9.5 49.1 0.057 6.34 4.45 11.65
5/16/2021 3:30:00 AM 9.45 49.01 0.057 6.34 4.18 11.67
5/16/2021 3:45:00 AM 9.4 48.92 0.057 6.34 4.18 11.68
5/16/2021 4:00:00 AM 9.35 48.83 0.057 6.34 4.28 11.7
5/16/2021 4:15:00 AM 9.3 48.74 0.057 6.34 11.23 11.71
5/16/2021 4:30:00 AM 9.26 48.668 0.057 6.35 12.21 11.73
5/16/2021 4:45:00 AM 9.22 48.596 0.057 6.35 10.96 11.74
5/16/2021 5:00:00 AM 9.18 48.524 0.057 6.34 9.77 11.75
5/16/2021 5:15:00 AM 9.14 48.452 0.057 6.34 11.71 11.76
5/16/2021 5:30:00 AM 9.11 48.398 0.057 6.35 9.78 11.77
5/16/2021 5:45:00 AM 9.08 48.344 0.057 6.34 9.74 11.78
5/16/2021 6:00:00 AM 9.04 48.272 0.057 6.34 9.02 11.8
5/16/2021 6:15:00 AM 9.01 48.218 0.057 6.36 9.28 11.81
5/16/2021 6:30:00 AM 8.99 48.182 0.057 6.35 8.31 11.82
5/16/2021 6:45:00 AM 8.96 48.128 0.057 6.35 11.32 11.84
5/16/2021 7:00:00 AM 8.94 48.092 0.057 6.35 10 11.85
5/16/2021 7:15:00 AM 8.93 48.074 0.057 6.36 9.99 11.85
5/16/2021 7:30:00 AM 8.92 48.056 0.057 6.36 9.6 11.88
5/16/2021 7:45:00 AM 8.93 48.074 0.057 6.37 10.19 11.89
5/16/2021 8:00:00 AM 8.94 48.092 0.057 6.38 11.02 11.91
5/16/2021 8:15:00 AM 8.95 48.11 0.057 6.38 10.22 11.91
5/16/2021 8:30:00 AM 8.98 48.164 0.057 6.39 8.62 11.91
5/16/2021 8:45:00 AM 9.01 48.218 0.057 6.4 11.98 11.92
5/16/2021 9:00:00 AM 9.04 48.272 0.057 6.41 9.04 11.92
5/16/2021 9:15:00 AM 9.1 48.38 0.057 6.43 9.4 11.91
5/16/2021 9:30:00 AM 9.17 48.506 0.057 6.42 13.12 11.91
5/16/2021 9:45:00 AM 9.26 48.668 0.057 6.43 9.02 11.89
5/16/2021 10:00:00 AM 9.33 48.794 0.057 6.43 8.81 11.88
5/16/2021 10:15:00 AM 9.38 48.884 0.057 6.43 8.75 11.86
5/16/2021 10:30:00 AM 9.45 49.01 0.057 6.43 8.86 11.84
5/16/2021 10:45:00 AM 9.51 49.118 0.057 6.44 47.25 11.82
5/16/2021 11:00:00 AM 9.6 49.28 0.057 6.44 12.41 11.8
5/16/2021 11:15:00 AM 9.72 49.496 0.057 6.45 81.11 11.78
5/16/2021 11:30:00 AM 9.79 49.622 0.057 6.44 4.95 11.75
5/16/2021 11:45:00 AM 9.88 49.784 0.057 6.45 3.89 11.73
5/16/2021 12:00:00 PM 10.02 50.036 0.057 6.47 4.28 11.71
5/16/2021 12:15:00 PM 10.12 50.216 0.057 6.47 2.79 11.69
5/16/2021 12:30:00 PM 10.2 50.36 0.057 6.47 23.43 11.65
5/16/2021 12:45:00 PM 10.24 50.432 0.057 6.46 96.28 11.62
5/16/2021 1:00:00 PM 10.25 50.45 0.057 6.45 123.06 11.6
5/16/2021 1:15:00 PM 10.26 50.468 0.057 6.46 21.01 11.6
5/16/2021 1:30:00 PM 10.3 50.54 0.057 6.45 3.05 11.6
5/16/2021 1:45:00 PM 10.37 50.666 0.057 6.46 2.65 11.59
5/16/2021 2:00:00 PM 10.44 50.792 0.057 6.48 4.96 11.57
5/16/2021 2:15:00 PM 10.54 50.972 0.057 6.48 2.95 11.56
5/16/2021 2:30:00 PM 10.56 51.008 0.057 6.46 11.59 11.54
5/16/2021 2:45:00 PM 10.7 51.26 0.057 6.49 2.53 11.52
5/16/2021 3:00:00 PM 10.73 51.314 0.057 6.46 2.53 11.49
5/16/2021 3:15:00 PM 10.78 51.404 0.057 6.47 2.47 11.46
5/16/2021 3:30:00 PM 10.95 51.71 0.058 6.47 2.45 11.45
5/16/2021 3:45:00 PM 10.93 51.674 0.058 6.46 2.55 11.43
5/16/2021 4:00:00 PM 11.05 51.89 0.058 6.48 2.53 11.41
5/16/2021 4:15:00 PM 10.99 51.782 0.058 6.46 2.44 11.4
5/16/2021 4:30:00 PM 11.04 51.872 0.058 6.45 2.55 11.38
5/16/2021 4:45:00 PM 11.05 51.89 0.058 6.44 3.09 11.36
5/16/2021 5:00:00 PM 11.17 52.106 0.058 6.47 2.55 11.35
5/16/2021 5:15:00 PM 11.1 51.98 0.058 6.44 2.52 11.35
5/16/2021 5:30:00 PM 11.09 51.962 0.058 6.44 2.49 11.35
5/16/2021 5:45:00 PM 11.08 51.944 0.058 6.44 2.45 11.33
5/16/2021 6:00:00 PM 11.07 51.926 0.058 6.44 2.52 11.34
5/16/2021 6:15:00 PM 11.01 51.818 0.058 6.43 2.41 11.33
5/16/2021 6:30:00 PM 10.96 51.728 0.058 6.42 2.46 11.32
5/16/2021 6:45:00 PM 10.91 51.638 0.058 6.43 2.52 11.33
5/16/2021 7:00:00 PM 10.87 51.566 0.058 6.41 2.45 11.32
5/16/2021 7:15:00 PM 10.84 51.512 0.058 6.42 2.48 11.33
5/16/2021 7:30:00 PM 10.8 51.44 0.058 6.41 2.5 11.33
5/16/2021 7:45:00 PM 10.75 51.35 0.058 6.4 2.44 11.33
5/16/2021 8:00:00 PM 10.71 51.278 0.058 6.39 2.38 11.34
5/16/2021 8:15:00 PM 10.66 51.188 0.058 6.39 2.62 11.34
5/16/2021 8:30:00 PM 10.6 51.08 0.058 6.38 3.22 11.35
5/16/2021 8:45:00 PM 10.54 50.972 0.058 6.38 3.15 11.36
5/16/2021 9:00:00 PM 10.48 50.864 0.058 6.37 4.57 11.36
5/16/2021 9:15:00 PM 10.42 50.756 0.058 6.38 3.97 11.38
5/16/2021 9:30:00 PM 10.36 50.648 0.058 6.37 3.9 11.39
5/16/2021 9:45:00 PM 10.3 50.54 0.058 6.38 3.95 11.42
5/16/2021 10:00:00 PM 10.25 50.45 0.058 6.37 4.11 11.43
5/16/2021 10:15:00 PM 10.18 50.324 0.058 6.37 3.9 11.45
5/16/2021 10:30:00 PM 10.12 50.216 0.058 6.37 3.69 11.46
5/16/2021 10:45:00 PM 10.07 50.126 0.058 6.4 4.18 11.47
5/16/2021 11:00:00 PM 10.01 50.018 0.058 6.37 4.12 11.5
5/16/2021 11:15:00 PM 9.94 49.892 0.058 6.36 4.18 11.52
5/16/2021 11:30:00 PM 9.88 49.784 0.058 6.37 4.16 11.53
5/16/2021 11:45:00 PM 9.82 49.676 0.058 6.38 10.87 11.55
5/17/2021 12:00:00 AM 9.76 49.568 0.058 6.36 6.57 11.57
5/17/2021 12:15:00 AM 9.7 49.46 0.058 6.37 5.25 11.58
5/17/2021 12:30:00 AM 9.64 49.352 0.058 6.36 5.47 11.6
5/17/2021 12:45:00 AM 9.58 49.244 0.058 6.36 4.87 11.62
5/17/2021 1:00:00 AM 9.52 49.136 0.058 6.36 8.11 11.64
5/17/2021 1:15:00 AM 9.46 49.028 0.058 6.37 5.22 11.65
5/17/2021 1:30:00 AM 9.4 48.92 0.058 6.36 6.84 11.68
5/17/2021 1:45:00 AM 9.34 48.812 0.058 6.36 122.52 11.69
5/17/2021 2:00:00 AM 9.28 48.704 0.058 6.36 3.12 11.71
5/17/2021 2:15:00 AM 9.21 48.578 0.058 6.36 3.2 11.73
5/17/2021 2:30:00 AM 9.15 48.47 0.058 6.36 3.08 11.75
5/17/2021 2:45:00 AM 9.09 48.362 0.058 6.36 39.47 11.76
5/17/2021 3:00:00 AM 9.03 48.254 0.058 6.37 10.15 11.79
5/17/2021 3:15:00 AM 8.97 48.146 0.059 6.36 4.33 11.8
5/17/2021 3:30:00 AM 8.9 48.02 0.059 6.36 4.68 11.81
5/17/2021 3:45:00 AM 8.84 47.912 0.059 6.36 4.76 11.84
5/17/2021 4:00:00 AM 8.78 47.804 0.059 6.36 3.72 11.86
5/17/2021 4:15:00 AM 8.72 47.696 0.059 6.35 3.72 11.87
5/17/2021 4:30:00 AM 8.66 47.588 0.059 6.36 3.5 11.89
5/17/2021 4:45:00 AM 8.6 47.48 0.059 6.37 3.67 11.91
5/17/2021 5:00:00 AM 8.53 47.354 0.059 6.35 3.63 11.93
5/17/2021 5:15:00 AM 8.47 47.246 0.059 6.35 4.2 11.95
5/17/2021 5:30:00 AM 8.42 47.156 0.059 6.35 4.47 11.96
5/17/2021 5:45:00 AM 8.36 47.048 0.059 6.36 4.12 11.98
5/17/2021 6:00:00 AM 8.3 46.94 0.059 6.36 4.02 12
5/17/2021 6:15:00 AM 8.25 46.85 0.059 6.35 4.08 12.02
5/17/2021 6:30:00 AM 8.19 46.742 0.059 6.35 4.17 12.05
5/17/2021 6:45:00 AM 8.15 46.67 0.059 6.36 3.99 12.07
5/17/2021 7:00:00 AM 8.12 46.616 0.059 6.36 3.95 12.1
5/17/2021 7:15:00 AM 8.1 46.58 0.059 6.38 3.97 12.13
5/17/2021 7:30:00 AM 8.08 46.544 0.059 6.38 4 12.15
5/17/2021 7:45:00 AM 8.08 46.544 0.059 6.39 3.91 12.17
5/17/2021 8:00:00 AM 8.09 46.562 0.059 6.39 3.96 12.18
5/17/2021 8:15:00 AM 8.11 46.598 0.059 6.41 4.07 12.19
5/17/2021 8:30:00 AM 8.15 46.67 0.059 6.43 3.99 12.2
5/17/2021 8:45:00 AM 8.19 46.742 0.059 6.42 3.99 12.19
5/17/2021 9:00:00 AM 8.29 46.922 0.059 6.44 4.02 12.18
5/17/2021 9:15:00 AM 8.43 47.174 0.059 6.46 3.99 12.15
5/17/2021 9:30:00 AM 8.59 47.462 0.059 6.47 4.16 12.13
5/17/2021 9:45:00 AM 8.77 47.786 0.059 6.49 3.88 12.09
5/17/2021 10:00:00 AM 8.94 48.092 0.059 6.48 4.01 12.04
5/17/2021 10:15:00 AM 9.14 48.452 0.059 6.5 3.99 12
5/17/2021 10:30:00 AM 9.37 48.866 0.059 6.51 3.91 11.95
5/17/2021 10:45:00 AM 9.61 49.298 0.059 6.51 3.96 11.9
5/17/2021 11:00:00 AM 9.87 49.766 0.059 6.51 3.96 11.83
5/17/2021 11:15:00 AM 10.13 50.234 0.059 6.53 3.74 11.76
5/17/2021 11:30:00 AM 10.4 50.72 0.059 6.52 3.7 11.7
5/17/2021 11:45:00 AM 10.66 51.188 0.059 6.53 3.73 11.63
5/17/2021 12:00:00 PM 10.92 51.656 0.059 6.52 3.92 11.56
5/17/2021 12:15:00 PM 11.18 52.124 0.059 6.52 3.77 11.5
5/17/2021 12:30:00 PM 11.44 52.592 0.059 6.52 4.58 11.43
5/17/2021 12:45:00 PM 11.68 53.024 0.059 6.53 4.54 11.36
5/17/2021 1:00:00 PM 11.88 53.384 0.059 6.52 3.95 11.31
5/17/2021 1:15:00 PM 12 53.6 0.059 6.51 3.97 11.26
5/17/2021 1:30:00 PM 12.06 53.708 0.059 6.5 3.51 11.2
5/17/2021 1:45:00 PM 12.23 54.014 0.059 6.49 7.9 11.16
5/17/2021 2:00:00 PM 12.24 54.032 0.059 6.5 6.68 11.12
5/17/2021 2:15:00 PM 12.08 53.744 0.059 6.45 6.12 11.12
5/17/2021 2:30:00 PM 11.99 53.582 0.059 6.45 3.79 11.12
5/17/2021 2:45:00 PM 11.95 53.51 0.059 6.44 3.9 11.11
5/17/2021 3:00:00 PM 11.94 53.492 0.059 6.45 4.2 11.11
5/17/2021 3:15:00 PM 11.97 53.546 0.059 6.46 4.18 11.1
5/17/2021 3:30:00 PM 12.09 53.762 0.059 6.48 3.9 11.12
5/17/2021 3:45:00 PM 12.23 54.014 0.059 6.49 3.8 11.13
5/17/2021 4:00:00 PM 12.23 54.014 0.059 6.47 3.71 11.13
5/17/2021 4:15:00 PM 12.2 53.96 0.059 6.43 5.13 11.12
5/17/2021 4:30:00 PM 12.18 53.924 0.059 6.46 6.74 11.11
5/17/2021 4:45:00 PM 12.27 54.086 0.059 6.48 6.94 11.09
5/17/2021 5:00:00 PM 12.32 54.176 0.059 6.48 18.53 11.08
5/17/2021 5:15:00 PM 12.19 53.942 0.059 6.46 3.64 11.07
5/17/2021 5:30:00 PM 12.15 53.87 0.059 6.45 3.59 11.06
5/17/2021 5:45:00 PM 12.18 53.924 0.059 6.46 3.56 11.05
5/17/2021 6:00:00 PM 12.15 53.87 0.059 6.45 3.87 11.04
5/17/2021 6:15:00 PM 12.08 53.744 0.059 6.45 3.81 11.03
5/17/2021 6:30:00 PM 12.03 53.654 0.059 6.44 3.87 11.03
5/17/2021 6:45:00 PM 11.99 53.582 0.059 6.43 3.78 11.02
5/17/2021 7:00:00 PM 11.95 53.51 0.06 6.43 3.89 11.02
5/17/2021 7:15:00 PM 11.92 53.456 0.06 6.43 3.84 11.02
5/17/2021 7:30:00 PM 11.89 53.402 0.06 6.43 3.81 11.02
5/17/2021 7:45:00 PM 11.85 53.33 0.06 6.43 3.76 11.01
5/17/2021 8:00:00 PM 11.8 53.24 0.059 6.41 3.76 11.02
5/17/2021 8:15:00 PM 11.74 53.132 0.059 6.4 3.69 11.02
5/17/2021 8:30:00 PM 11.67 53.006 0.059 6.4 3.97 11.03
5/17/2021 8:45:00 PM 11.61 52.898 0.059 6.4 3.96 11.04
5/17/2021 9:00:00 PM 11.54 52.772 0.059 6.39 4.21 11.06
5/17/2021 9:15:00 PM 11.47 52.646 0.059 6.39 4.05 11.07
5/17/2021 9:30:00 PM 11.41 52.538 0.059 6.4 4.14 11.08
5/17/2021 9:45:00 PM 11.35 52.43 0.059 6.39 4.37 11.1
5/17/2021 10:00:00 PM 11.3 52.34 0.059 6.39 4.15 11.12
5/17/2021 10:15:00 PM 11.24 52.232 0.059 6.39 4.17 11.14
5/17/2021 10:30:00 PM 11.17 52.106 0.059 6.39 4.14 11.16
5/17/2021 10:45:00 PM 11.11 51.998 0.059 6.4 4.19 11.17
5/17/2021 11:00:00 PM 11.05 51.89 0.059 6.39 4.16 11.19
5/17/2021 11:15:00 PM 11 51.8 0.059 6.39 4.25 11.21
5/17/2021 11:30:00 PM 10.94 51.692 0.059 6.39 4.3 11.21
5/17/2021 11:45:00 PM 10.89 51.602 0.059 6.39 4.35 11.24
5/18/2021 12:00:00 AM 10.84 51.512 0.059 6.39 4.26 11.25
5/18/2021 12:15:00 AM 10.79 51.422 0.059 6.4 4.3 11.26
5/18/2021 12:30:00 AM 10.74 51.332 0.059 6.39 4.23 11.27
5/18/2021 12:45:00 AM 10.69 51.242 0.059 6.39 4.32 11.28
5/18/2021 1:00:00 AM 10.64 51.152 0.059 6.39 4.33 11.3
5/18/2021 1:15:00 AM 10.58 51.044 0.06 6.39 4.5 11.32
5/18/2021 1:30:00 AM 10.52 50.936 0.06 6.4 4.52 11.33
5/18/2021 1:45:00 AM 10.47 50.846 0.06 6.39 4.59 11.36
5/18/2021 2:00:00 AM 10.42 50.756 0.06 6.39 4.42 11.36
5/18/2021 2:15:00 AM 10.37 50.666 0.06 6.4 4.43 11.38
5/18/2021 2:30:00 AM 10.31 50.558 0.06 6.39 4.53 11.39
5/18/2021 2:45:00 AM 10.25 50.45 0.06 6.38 4.39 11.41
5/18/2021 3:00:00 AM 10.19 50.342 0.06 6.39 4.42 11.43
5/18/2021 3:15:00 AM 10.13 50.234 0.06 6.39 4.39 11.44
5/18/2021 3:30:00 AM 10.08 50.144 0.06 6.38 4.55 11.46
5/18/2021 3:45:00 AM 10.03 50.054 0.06 6.38 4.43 11.44
5/18/2021 4:00:00 AM 9.97 49.946 0.06 6.38 4.54 11.49
5/18/2021 4:15:00 AM 9.91 49.838 0.06 6.39 4.48 11.51
5/18/2021 4:30:00 AM 9.86 49.748 0.06 6.38 4.42 11.53
5/18/2021 4:45:00 AM 9.8 49.64 0.06 6.38 4.36 11.55
5/18/2021 5:00:00 AM 9.74 49.532 0.06 6.38 3.95 11.55
5/18/2021 5:15:00 AM 9.69 49.442 0.06 6.38 3.78 11.58
5/18/2021 5:30:00 AM 9.63 49.334 0.06 6.38 3.68 11.59
5/18/2021 5:45:00 AM 9.57 49.226 0.06 6.39 3.44 11.61
5/18/2021 6:00:00 AM 9.52 49.136 0.06 6.38 3.37 11.62
5/18/2021 6:15:00 AM 9.46 49.028 0.06 6.38 3.67 11.65
5/18/2021 6:30:00 AM 9.41 48.938 0.06 6.38 3.22 11.68
5/18/2021 6:45:00 AM 9.37 48.866 0.06 6.39 3.24 11.7
5/18/2021 7:00:00 AM 9.34 48.812 0.06 6.39 3.12 11.72
5/18/2021 7:15:00 AM 9.32 48.776 0.06 6.41 3.05 11.76
5/18/2021 7:30:00 AM 9.3 48.74 0.06 6.41 3.03 11.78
5/18/2021 7:45:00 AM 9.31 48.758 0.06 6.41 2.98 11.79
5/18/2021 8:00:00 AM 9.32 48.776 0.06 6.42 3.06 11.8
5/18/2021 8:15:00 AM 9.34 48.812 0.06 6.42 3.03 11.8
5/18/2021 8:30:00 AM 9.37 48.866 0.06 6.43 2.94 11.81
5/18/2021 8:45:00 AM 9.42 48.956 0.06 6.45 3.04 11.81
5/18/2021 9:00:00 AM 9.52 49.136 0.06 6.46 2.98 11.81
5/18/2021 9:15:00 AM 9.64 49.352 0.06 6.48 2.99 11.8
5/18/2021 9:30:00 AM 9.79 49.622 0.06 6.48 2.91 11.76
5/18/2021 9:45:00 AM 9.97 49.946 0.06 6.51 2.99 11.74
5/18/2021 10:00:00 AM 10.16 50.288 0.06 6.5 2.95 11.7
5/18/2021 10:15:00 AM 10.36 50.648 0.06 6.52 2.91 11.66
5/18/2021 10:30:00 AM 10.58 51.044 0.06 6.52 2.96 11.61
5/18/2021 10:45:00 AM 10.8 51.44 0.061 6.52 2.84 11.57
5/18/2021 11:00:00 AM 11.05 51.89 0.061 6.53 2.93 11.51
5/18/2021 11:15:00 AM 11.31 52.358 0.061 6.53 2.91 11.44
5/18/2021 11:30:00 AM 11.56 52.808 0.061 6.53 2.85 11.38
5/18/2021 11:45:00 AM 11.82 53.276 0.061 6.55 3.13 11.33
5/18/2021 12:00:00 PM 12.08 53.744 0.061 6.54 3.19 11.26
5/18/2021 12:15:00 PM 12.34 54.212 0.061 6.55 2.95 11.21
5/18/2021 12:30:00 PM 12.58 54.644 0.061 6.55 2.9 11.15
5/18/2021 12:45:00 PM 12.82 55.076 0.061 6.54 2.91 11.09
5/18/2021 1:00:00 PM 12.86 55.148 0.061 6.52 2.94 11.04
5/18/2021 1:15:00 PM 12.97 55.346 0.061 6.52 2.95 11.01
5/18/2021 1:30:00 PM 13.18 55.724 0.061 6.54 2.96 10.98
5/18/2021 1:45:00 PM 13.36 56.048 0.061 6.53 2.96 10.94
5/18/2021 2:00:00 PM 13.46 56.228 0.061 6.53 3.06 10.89
5/18/2021 2:15:00 PM 13.66 56.588 0.061 6.54 3.01 10.85
5/18/2021 2:30:00 PM 13.75 56.75 0.061 6.53 3 10.83
5/18/2021 2:45:00 PM 13.79 56.822 0.061 6.51 3.05 10.81
5/18/2021 3:00:00 PM 13.9 57.02 0.061 6.52 3.54 10.78
5/18/2021 3:15:00 PM 14.06 57.308 0.061 6.54 4.38 10.72
5/18/2021 3:30:00 PM 14.19 57.542 0.061 6.52 2.83 10.67
5/18/2021 3:45:00 PM 14.3 57.74 0.061 6.51 5.22 10.64
5/18/2021 4:00:00 PM 14.34 57.812 0.061 6.53 2.94 10.62
5/18/2021 4:15:00 PM 14.37 57.866 0.061 6.51 3 10.61
5/18/2021 4:30:00 PM 14.18 57.524 0.061 6.47 3 10.58
5/18/2021 4:45:00 PM 14.16 57.488 0.061 6.48 2.99 10.59
5/18/2021 5:00:00 PM 14.2 57.56 0.061 6.48 2.99 10.58
5/18/2021 5:15:00 PM 14.15 57.47 0.061 6.48 2.96 10.58
5/18/2021 5:30:00 PM 14.06 57.308 0.061 6.46 2.9 10.58
5/18/2021 5:45:00 PM 14.02 57.236 0.061 6.46 2.87 10.58
5/18/2021 6:00:00 PM 13.98 57.164 0.061 6.45 2.9 10.57
5/18/2021 6:15:00 PM 13.87 56.966 0.061 6.44 2.88 10.56
5/18/2021 6:30:00 PM 13.83 56.894 0.061 6.45 2.92 10.55
5/18/2021 6:45:00 PM 13.79 56.822 0.061 6.44 2.89 10.54
5/18/2021 7:00:00 PM 13.74 56.732 0.061 6.44 2.88 10.56
5/18/2021 7:15:00 PM 13.66 56.588 0.061 6.44 2.92 10.57
5/18/2021 7:30:00 PM 13.57 56.426 0.061 6.42 2.92 10.58
5/18/2021 7:45:00 PM 13.48 56.264 0.061 6.41 2.94 10.57
5/18/2021 8:00:00 PM 13.39 56.102 0.061 6.41 2.87 10.59
5/18/2021 8:15:00 PM 13.3 55.94 0.061 6.4 2.91 10.61
5/18/2021 8:30:00 PM 13.2 55.76 0.061 6.39 2.85 10.61
5/18/2021 8:45:00 PM 13.1 55.58 0.061 6.39 4.18 10.62
5/18/2021 9:00:00 PM 13.01 55.418 0.061 6.39 3.15 10.65
5/18/2021 9:15:00 PM 12.92 55.256 0.061 6.39 3.09 10.67
5/18/2021 9:30:00 PM 12.84 55.112 0.061 6.39 3.11 10.69
5/18/2021 9:45:00 PM 12.75 54.95 0.061 6.39 3.01 10.71
5/18/2021 10:00:00 PM 12.66 54.788 0.061 6.4 3.19 10.72
5/18/2021 10:15:00 PM 12.59 54.662 0.061 6.4 3.38 10.74
5/18/2021 10:30:00 PM 12.51 54.518 0.061 6.39 3.25 10.77
5/18/2021 10:45:00 PM 12.42 54.356 0.061 6.4 3.35 10.8
5/18/2021 11:00:00 PM 12.35 54.23 0.061 6.4 3.3 10.82
5/18/2021 11:15:00 PM 12.27 54.086 0.061 6.4 3.24 10.84
5/18/2021 11:30:00 PM 12.2 53.96 0.061 6.39 3.17 10.84
5/18/2021 11:45:00 PM 12.13 53.834 0.061 6.4 3.34 10.87
5/19/2021 12:00:00 AM 12.06 53.708 0.061 6.4 3.71 10.88
5/19/2021 12:15:00 AM 11.99 53.582 0.061 6.41 3.26 10.9
5/19/2021 12:30:00 AM 11.92 53.456 0.061 6.4 2.95 10.93
5/19/2021 12:45:00 AM 11.85 53.33 0.061 6.41 2.93 10.94
5/19/2021 1:00:00 AM 11.78 53.204 0.061 6.4 2.97 10.97
5/19/2021 1:15:00 AM 11.71 53.078 0.061 6.41 2.99 10.98
5/19/2021 1:30:00 AM 11.64 52.952 0.061 6.4 3 11
5/19/2021 1:45:00 AM 11.58 52.844 0.062 6.4 2.94 11.02
5/19/2021 2:00:00 AM 11.51 52.718 0.062 6.4 2.88 11.03
5/19/2021 2:15:00 AM 11.44 52.592 0.062 6.4 2.89 11.05
5/19/2021 2:30:00 AM 11.37 52.466 0.062 6.4 2.79 11.08
5/19/2021 2:45:00 AM 11.3 52.34 0.062 6.4 2.91 11.09
5/19/2021 3:00:00 AM 11.24 52.232 0.062 6.41 2.82 11.11
5/19/2021 3:15:00 AM 11.17 52.106 0.062 6.4 2.89 11.13
5/19/2021 3:30:00 AM 11.11 51.998 0.062 6.4 2.86 11.15
5/19/2021 3:45:00 AM 11.04 51.872 0.062 6.41 183.22 11.16
5/19/2021 4:00:00 AM 10.98 51.764 0.062 6.4 2.89 11.19
5/19/2021 4:15:00 AM 10.91 51.638 0.062 6.4 2.86 11.2
5/19/2021 4:30:00 AM 10.85 51.53 0.062 6.4 2.8 11.22
5/19/2021 4:45:00 AM 10.79 51.422 0.062 6.4 2.73 11.24
5/19/2021 5:00:00 AM 10.73 51.314 0.061 6.39 2.71 11.25
5/19/2021 5:15:00 AM 10.67 51.206 0.062 6.4 6.04 11.27
5/19/2021 5:30:00 AM 10.6 51.08 0.062 6.4 5.9 11.29
5/19/2021 5:45:00 AM 10.55 50.99 0.062 6.4 5.29 11.31
5/19/2021 6:00:00 AM 10.49 50.882 0.062 6.39 2.97 11.31
5/19/2021 6:15:00 AM 10.43 50.774 0.062 6.41 2.89 11.35
5/19/2021 6:30:00 AM 10.38 50.684 0.062 6.4 2.84 11.38
5/19/2021 6:45:00 AM 10.33 50.594 0.062 6.4 2.89 11.39
5/19/2021 7:00:00 AM 10.3 50.54 0.062 6.42 2.84 11.43
5/19/2021 7:15:00 AM 10.28 50.504 0.062 6.42 2.81 11.46
5/19/2021 7:30:00 AM 10.27 50.486 0.062 6.43 2.83 11.48
5/19/2021 7:45:00 AM 10.28 50.504 0.062 6.44 2.84 11.5
5/19/2021 8:00:00 AM 10.29 50.522 0.062 6.44 2.87 11.51
5/19/2021 8:15:00 AM 10.31 50.558 0.062 6.45 2.89 11.53
5/19/2021 8:30:00 AM 10.34 50.612 0.062 6.46 2.89 11.53
5/19/2021 8:45:00 AM 10.39 50.702 0.062 6.47 2.82 11.53
5/19/2021 9:00:00 AM 10.47 50.846 0.062 6.49 2.77 11.53
5/19/2021 9:15:00 AM 10.59 51.062 0.062 6.5 2.83 11.51
5/19/2021 9:30:00 AM 10.74 51.332 0.062 6.51 2.77 11.49
5/19/2021 9:45:00 AM 10.91 51.638 0.062 6.52 2.94 11.47
5/19/2021 10:00:00 AM 11.1 51.98 0.062 6.52 2.88 11.43
5/19/2021 10:15:00 AM 11.3 52.34 0.062 6.54 2.94 11.4
5/19/2021 10:30:00 AM 11.52 52.736 0.062 6.54 3.05 11.36
5/19/2021 10:45:00 AM 11.75 53.15 0.062 6.54 3.1 11.31
5/19/2021 11:00:00 AM 12 53.6 0.062 6.55 3.05 11.26
5/19/2021 11:15:00 AM 12.25 54.05 0.062 6.55 3.05 11.19
5/19/2021 11:30:00 AM 12.52 54.536 0.062 6.56 3.03 11.15
5/19/2021 11:45:00 AM 12.79 55.022 0.062 6.56 2.9 11.08
5/19/2021 12:00:00 PM 13.04 55.472 0.062 6.56 2.96 11.03
5/19/2021 12:15:00 PM 13.3 55.94 0.062 6.58 2.97 10.96
5/19/2021 12:30:00 PM 13.51 56.318 0.062 6.57 3.01 10.91
5/19/2021 12:45:00 PM 13.74 56.732 0.062 6.57 2.92 10.85
5/19/2021 1:00:00 PM 13.97 57.146 0.062 6.57 3.37 10.8
5/19/2021 1:15:00 PM 14.16 57.488 0.062 6.56 2.94 10.76
5/19/2021 1:30:00 PM 14.33 57.794 0.062 6.57 2.91 10.73
5/19/2021 1:45:00 PM 14.52 58.136 0.062 6.57 2.93 10.68
5/19/2021 2:00:00 PM 14.69 58.442 0.063 6.56 2.86 10.62
5/19/2021 2:15:00 PM 14.76 58.568 0.063 6.55 2.97 10.59
5/19/2021 2:30:00 PM 14.86 58.748 0.063 6.55 2.96 10.57
5/19/2021 2:45:00 PM 14.95 58.91 0.063 6.54 2.96 10.53
5/19/2021 3:00:00 PM 14.98 58.964 0.063 6.53 2.99 10.51
5/19/2021 3:15:00 PM 15.04 59.072 0.063 6.54 2.9 10.49
5/19/2021 3:30:00 PM 15.12 59.216 0.063 6.54 2.91 10.47
5/19/2021 3:45:00 PM 15.12 59.216 0.063 6.52 2.87 10.46
5/19/2021 4:00:00 PM 15.13 59.234 0.063 6.53 2.78 10.44
5/19/2021 4:15:00 PM 15.1 59.18 0.063 6.51 2.68 10.44
5/19/2021 4:30:00 PM 15.11 59.198 0.063 6.51 2.75 10.43
5/19/2021 4:45:00 PM 15.06 59.108 0.063 6.49 2.72 10.42
5/19/2021 5:00:00 PM 15.05 59.09 0.063 6.5 2.8 10.41
5/19/2021 5:15:00 PM 15.03 59.054 0.063 6.49 2.84 10.4
5/19/2021 5:30:00 PM 15.01 59.018 0.063 6.5 3.34 10.4
5/19/2021 5:45:00 PM 14.98 58.964 0.063 6.48 3 10.4
5/19/2021 6:00:00 PM 14.95 58.91 0.063 6.49 2.93 10.39
5/19/2021 6:15:00 PM 14.86 58.748 0.063 6.47 2.55 10.39
5/19/2021 6:30:00 PM 14.78 58.604 0.063 6.46 2.52 10.37
5/19/2021 6:45:00 PM 14.72 58.496 0.063 6.46 2.59 10.37
5/19/2021 7:00:00 PM 14.65 58.37 0.063 6.46 2.59 10.36
5/19/2021 7:15:00 PM 14.58 58.244 0.063 6.45 2.61 10.37
5/19/2021 7:30:00 PM 14.51 58.118 0.063 6.44 2.64 10.37
5/19/2021 7:45:00 PM 14.43 57.974 0.063 6.44 2.66 10.35
5/19/2021 8:00:00 PM 14.34 57.812 0.063 6.42 2.65 10.36
5/19/2021 8:15:00 PM 14.25 57.65 0.063 6.41 2.73 10.37
5/19/2021 8:30:00 PM 14.16 57.488 0.063 6.41 2.54 10.38
5/19/2021 8:45:00 PM 14.07 57.326 0.063 6.4 3.02 10.39
5/19/2021 9:00:00 PM 13.98 57.164 0.063 6.41 3.67 10.4
5/19/2021 9:15:00 PM 13.9 57.02 0.063 6.4 2.96 10.42
5/19/2021 9:30:00 PM 13.82 56.876 0.063 6.4 3.11 10.43
5/19/2021 9:45:00 PM 13.74 56.732 0.063 6.42 3.05 10.46
5/19/2021 10:00:00 PM 13.66 56.588 0.063 6.41 3.01 10.47
5/19/2021 10:15:00 PM 13.59 56.462 0.063 6.41 3.05 10.5
5/19/2021 10:30:00 PM 13.51 56.318 0.063 6.41 3.06 10.51
5/19/2021 10:45:00 PM 13.44 56.192 0.063 6.41 3.11 10.53
5/19/2021 11:00:00 PM 13.37 56.066 0.063 6.41 3 10.54
5/19/2021 11:15:00 PM 13.3 55.94 0.063 6.42 3.2 10.57
5/19/2021 11:30:00 PM 13.23 55.814 0.063 6.41 3.2 10.59
5/19/2021 11:45:00 PM 13.16 55.688 0.063 6.42 3.22 10.59
5/20/2021 12:00:00 AM 13.09 55.562 0.063 6.43 3.18 10.6
5/20/2021 12:15:00 AM 13.02 55.436 0.063 6.41 3.11 10.62
5/20/2021 12:30:00 AM 12.95 55.31 0.063 6.42 3.04 10.65
5/20/2021 12:45:00 AM 12.89 55.202 0.063 6.42 3.09 10.67
5/20/2021 1:00:00 AM 12.82 55.076 0.063 6.42 2.88 10.68
5/20/2021 1:15:00 AM 12.75 54.95 0.063 6.42 2.77 10.7
5/20/2021 1:30:00 AM 12.68 54.824 0.063 6.42 2.85 10.71
5/20/2021 1:45:00 AM 12.62 54.716 0.063 6.42 2.82 10.73
5/20/2021 2:00:00 AM 12.56 54.608 0.063 6.43 2.87 10.74
5/20/2021 2:15:00 AM 12.49 54.482 0.063 6.43 2.89 10.78
5/20/2021 2:30:00 AM 12.43 54.374 0.063 6.42 2.82 10.77
5/20/2021 2:45:00 AM 12.36 54.248 0.063 6.42 2.76 10.8
5/20/2021 3:00:00 AM 12.3 54.14 0.063 6.44 2.83 10.81
5/20/2021 3:15:00 AM 12.24 54.032 0.063 6.42 2.85 10.84
5/20/2021 3:30:00 AM 12.18 53.924 0.063 6.43 2.74 10.81
5/20/2021 3:45:00 AM 12.12 53.816 0.063 6.42 2.55 10.85
5/20/2021 4:00:00 AM 12.05 53.69 0.063 6.42 3.51 10.88
5/20/2021 4:15:00 AM 12 53.6 0.063 6.42 2.83 10.88
5/20/2021 4:30:00 AM 11.94 53.492 0.063 6.42 5.35 10.92
5/20/2021 4:45:00 AM 11.89 53.402 0.063 6.42 3.28 10.93
5/20/2021 5:00:00 AM 11.84 53.312 0.063 6.42 3.13 10.95
5/20/2021 5:15:00 AM 11.79 53.222 0.063 6.42 3.16 10.96
5/20/2021 5:30:00 AM 11.73 53.114 0.063 6.42 3.19 10.98
5/20/2021 5:45:00 AM 11.68 53.024 0.063 6.44 3.14 11
5/20/2021 6:00:00 AM 11.62 52.916 0.063 6.42 3.07 11.02
5/20/2021 6:15:00 AM 11.57 52.826 0.063 6.42 3.05 11.05
5/20/2021 6:30:00 AM 11.53 52.754 0.063 6.43 3.25 11.07
5/20/2021 6:45:00 AM 11.49 52.682 0.063 6.43 3.07 11.09
5/20/2021 7:00:00 AM 11.46 52.628 0.063 6.43 4.86 11.11
5/20/2021 7:15:00 AM 11.43 52.574 0.064 6.44 4.66 11.12
5/20/2021 7:30:00 AM 11.44 52.592 0.063 6.46 4.5 11.17
5/20/2021 7:45:00 AM 11.45 52.61 0.064 6.47 4.34 11.19
5/20/2021 8:00:00 AM 11.47 52.646 0.064 6.47 4.43 11.21
5/20/2021 8:15:00 AM 11.49 52.682 0.064 6.48 4.4 11.21
5/20/2021 8:30:00 AM 11.52 52.736 0.064 6.49 4.32 11.22
5/20/2021 8:45:00 AM 11.57 52.826 0.064 6.5 4.45 11.22
5/20/2021 9:00:00 AM 11.66 52.988 0.064 6.51 4.38 11.23
5/20/2021 9:15:00 AM 11.77 53.186 0.064 6.52 4.37 11.21
5/20/2021 9:30:00 AM 11.9 53.42 0.064 6.53 4.33 11.19
5/20/2021 9:45:00 AM 12.06 53.708 0.064 6.54 4.31 11.16
5/20/2021 10:00:00 AM 12.25 54.05 0.064 6.55 4.25 11.13
5/20/2021 10:15:00 AM 12.45 54.41 0.064 6.55 3.71 11.1
5/20/2021 10:30:00 AM 12.67 54.806 0.064 6.58 3.92 11.07
5/20/2021 10:45:00 AM 12.88 55.184 0.064 6.58 3.14 11.04
5/20/2021 11:00:00 AM 13.13 55.634 0.064 6.58 3.22 10.99
5/20/2021 11:15:00 AM 13.38 56.084 0.064 6.58 3.54 10.94
5/20/2021 11:30:00 AM 13.65 56.57 0.064 6.58 3.67 10.89
5/20/2021 11:45:00 AM 13.92 57.056 0.064 6.59 3.55 10.83
5/20/2021 12:00:00 PM 14.19 57.542 0.064 6.59 3.74 10.78
5/20/2021 12:15:00 PM 14.46 58.028 0.064 6.61 3.81 10.72
5/20/2021 12:30:00 PM 14.71 58.478 0.064 6.59 3.82 10.66
5/20/2021 12:45:00 PM 14.95 58.91 0.064 6.61 3.78 10.61
5/20/2021 1:00:00 PM 15.17 59.306 0.064 6.59 3.9 10.55
5/20/2021 1:15:00 PM 15.36 59.648 0.064 6.59 3.74 10.5
5/20/2021 1:30:00 PM 15.55 59.99 0.064 6.6 3.68 10.46
5/20/2021 1:45:00 PM 15.72 60.296 0.064 6.58 3.51 10.41
5/20/2021 2:00:00 PM 15.86 60.548 0.064 6.58 3.48 10.39
5/20/2021 2:15:00 PM 15.95 60.71 0.064 6.59 3.55 10.35
5/20/2021 2:30:00 PM 16.04 60.872 0.064 6.57 3.55 10.32
5/20/2021 2:45:00 PM 16.13 61.034 0.064 6.56 3.57 10.29
5/20/2021 3:00:00 PM 16.2 61.16 0.064 6.56 3.54 10.27
5/20/2021 3:15:00 PM 16.24 61.232 0.064 6.56 3.26 10.25
5/20/2021 3:30:00 PM 16.27 61.286 0.064 6.57 4.13 10.24
5/20/2021 3:45:00 PM 16.29 61.322 0.064 6.55 3.68 10.22
5/20/2021 4:00:00 PM 16.3 61.34 0.064 6.54 3.39 10.2
5/20/2021 4:15:00 PM 16.27 61.286 0.064 6.55 3.34 10.2
5/20/2021 4:30:00 PM 16.24 61.232 0.064 6.53 3.27 10.19
5/20/2021 4:45:00 PM 16.22 61.196 0.064 6.52 3.3 10.17
5/20/2021 5:00:00 PM 16.19 61.142 0.064 6.51 3.34 10.17
5/20/2021 5:15:00 PM 16.13 61.034 0.064 6.51 3.39 10.16
5/20/2021 5:30:00 PM 16.07 60.926 0.064 6.5 3.39 10.14
5/20/2021 5:45:00 PM 16.01 60.818 0.064 6.5 3.34 10.14
5/20/2021 6:00:00 PM 15.95 60.71 0.064 6.49 3.47 10.13
5/20/2021 6:15:00 PM 15.86 60.548 0.064 6.49 3.55 10.13
5/20/2021 6:30:00 PM 15.77 60.386 0.064 6.47 3.26 10.14
5/20/2021 6:45:00 PM 15.67 60.206 0.064 6.46 3.23 10.13
5/20/2021 7:00:00 PM 15.58 60.044 0.064 6.47 4.57 10.14
5/20/2021 7:15:00 PM 15.49 59.882 0.064 6.46 3.43 10.15
5/20/2021 7:30:00 PM 15.41 59.738 0.064 6.45 3.26 10.15
5/20/2021 7:45:00 PM 15.32 59.576 0.064 6.44 3.26 10.16
5/20/2021 8:00:00 PM 15.22 59.396 0.064 6.44 3.21 10.16
5/20/2021 8:15:00 PM 15.12 59.216 0.064 6.43 3.23 10.16
5/20/2021 8:30:00 PM 15.03 59.054 0.065 6.42 3.33 10.16
5/20/2021 8:45:00 PM 14.93 58.874 0.065 6.42 3.4 10.18
5/20/2021 9:00:00 PM 14.84 58.712 0.064 6.41 3.66 10.2
5/20/2021 9:15:00 PM 14.75 58.55 0.065 6.41 3.4 10.21
5/20/2021 9:30:00 PM 14.66 58.388 0.065 6.42 3.4 10.23
5/20/2021 9:45:00 PM 14.58 58.244 0.065 6.42 3.56 10.24
5/20/2021 10:00:00 PM 14.5 58.1 0.065 6.42 3.24 10.27
5/20/2021 10:15:00 PM 14.42 57.956 0.065 6.42 3.09 10.29
5/20/2021 10:30:00 PM 14.33 57.794 0.065 6.43 3.11 10.3
5/20/2021 10:45:00 PM 14.25 57.65 0.065 6.43 3.07 10.32
5/20/2021 11:00:00 PM 14.17 57.506 0.065 6.43 3.03 10.34
5/20/2021 11:15:00 PM 14.09 57.362 0.065 6.42 3.45 10.37
5/20/2021 11:30:00 PM 14.01 57.218 0.065 6.42 4.1 10.39
5/20/2021 11:45:00 PM 13.94 57.092 0.065 6.42 3.17 10.4
5/21/2021 12:00:00 AM 13.87 56.966 0.065 6.44 3.06 10.42
5/21/2021 12:15:00 AM 13.8 56.84 0.064 6.43 3.05 10.43
5/21/2021 12:30:00 AM 13.73 56.714 0.064 6.43 3.15 10.46
5/21/2021 12:45:00 AM 13.67 56.606 0.064 6.43 3.17 10.46
5/21/2021 1:00:00 AM 13.6 56.48 0.064 6.45 3.07 10.49
5/21/2021 1:15:00 AM 13.53 56.354 0.064 6.43 2.99 10.51
5/21/2021 1:30:00 AM 13.47 56.246 0.064 6.44 3.11 10.53
5/21/2021 1:45:00 AM 13.4 56.12 0.064 6.44 3.19 10.54
5/21/2021 2:00:00 AM 13.34 56.012 0.064 6.43 3.08 10.55
5/21/2021 2:15:00 AM 13.28 55.904 0.064 6.43 3.09 10.57
5/21/2021 2:30:00 AM 13.22 55.796 0.064 6.44 3.1 10.59
5/21/2021 2:45:00 AM 13.15 55.67 0.064 6.44 3.04 10.61
5/21/2021 3:00:00 AM 13.09 55.562 0.064 6.43 3.11 10.62
5/21/2021 3:15:00 AM 13.03 55.454 0.065 6.43 2.99 10.62
5/21/2021 3:30:00 AM 12.97 55.346 0.064 6.45 3.11 10.64
5/21/2021 3:45:00 AM 12.91 55.238 0.065 6.43 3.1 10.66
5/21/2021 4:00:00 AM 12.85 55.13 0.065 6.43 3.05 10.67
5/21/2021 4:15:00 AM 12.79 55.022 0.065 6.45 3.02 10.7
5/21/2021 4:30:00 AM 12.73 54.914 0.065 6.43 3.04 10.71
5/21/2021 4:45:00 AM 12.68 54.824 0.065 6.43 2.96 10.72
5/21/2021 5:00:00 AM 12.62 54.716 0.065 6.44 3.03 10.74
5/21/2021 5:15:00 AM 12.56 54.608 0.065 6.43 2.89 10.76
5/21/2021 5:30:00 AM 12.5 54.5 0.065 6.45 3.41 10.77
5/21/2021 5:45:00 AM 12.44 54.392 0.065 6.43 2.91 10.79
5/21/2021 6:00:00 AM 12.4 54.32 0.065 6.44 2.95 10.8
5/21/2021 6:15:00 AM 12.35 54.23 0.065 6.43 3.03 10.82
5/21/2021 6:30:00 AM 12.3 54.14 0.065 6.44 2.94 10.87
5/21/2021 6:45:00 AM 12.26 54.068 0.065 6.44 3.06 10.89
5/21/2021 7:00:00 AM 12.24 54.032 0.065 6.45 2.95 10.91
5/21/2021 7:15:00 AM 12.23 54.014 0.065 6.46 2.4 10.94
5/21/2021 7:30:00 AM 12.23 54.014 0.065 6.47 2.51 10.97
5/21/2021 7:45:00 AM 12.24 54.032 0.065 6.49 2.43 10.99
5/21/2021 8:00:00 AM 12.26 54.068 0.065 6.49 2.47 11
5/21/2021 8:15:00 AM 12.29 54.122 0.065 6.5 2.37 11.01
5/21/2021 8:30:00 AM 12.33 54.194 0.065 6.51 2.4 11.02
5/21/2021 8:45:00 AM 12.38 54.284 0.065 6.52 3.08 11.03
5/21/2021 9:00:00 AM 12.46 54.428 0.065 6.55 2.41 11.03
5/21/2021 9:15:00 AM 12.57 54.626 0.065 6.54 2.35 11.03
5/21/2021 9:30:00 AM 12.73 54.914 0.065 6.56 2.42 11
5/21/2021 9:45:00 AM 12.91 55.238 0.065 6.57 2.36 10.98
5/21/2021 10:00:00 AM 13.11 55.598 0.065 6.58 2.4 10.95
5/21/2021 10:15:00 AM 13.33 55.994 0.065 6.58 2.55 10.91
5/21/2021 10:30:00 AM 13.56 56.408 0.065 6.61 5.85 10.87
5/21/2021 10:45:00 AM 13.79 56.822 0.065 6.6 9.2 10.83
5/21/2021 11:00:00 AM 14.03 57.254 0.065 6.6 8.58 10.78
5/21/2021 11:15:00 AM 14.29 57.722 0.065 6.61 6.33 10.74
5/21/2021 11:30:00 AM 14.57 58.226 0.065 6.61 3.68 10.69
5/21/2021 11:45:00 AM 14.83 58.694 0.065 6.61 9.82 10.63
5/21/2021 12:00:00 PM 15.11 59.198 0.065 6.61 3.9 10.57
5/21/2021 12:15:00 PM 15.36 59.648 0.065 6.61 4.25 10.52
5/21/2021 12:30:00 PM 15.62 60.116 0.065 6.62 5.03 10.46
5/21/2021 12:45:00 PM 15.86 60.548 0.065 6.62 3.88 10.4
5/21/2021 1:00:00 PM 16.07 60.926 0.065 6.61 4.92 10.37
5/21/2021 1:15:00 PM 16.25 61.25 0.065 6.62 25.49 10.31
5/21/2021 1:30:00 PM 16.43 61.574 0.065 6.61 4.13 10.28
5/21/2021 1:45:00 PM 16.63 61.934 0.065 6.61 3.13 10.24
5/21/2021 2:00:00 PM 16.77 62.186 0.065 6.6 3.56 10.2
5/21/2021 2:15:00 PM 16.88 62.384 0.065 6.6 2.73 10.17
5/21/2021 2:30:00 PM 16.99 62.582 0.065 6.59 2.36 10.14
5/21/2021 2:45:00 PM 17.08 62.744 0.065 6.59 2.36 10.11
5/21/2021 3:00:00 PM 17.16 62.888 0.065 6.61 2.34 10.1
5/21/2021 3:15:00 PM 17.2 62.96 0.066 6.59 35.91 10.06
5/21/2021 3:30:00 PM 16.96 62.528 0.066 6.55 3.21 10.04
5/21/2021 3:45:00 PM 17.1 62.78 0.066 6.57 2.46 10.03
5/21/2021 4:00:00 PM 17.12 62.816 0.066 6.56 2.46 10.03
5/21/2021 4:15:00 PM 17.08 62.744 0.066 6.53 2.49 10.03
5/21/2021 4:30:00 PM 16.92 62.456 0.066 6.52 2.83 10.03
5/21/2021 4:45:00 PM 16.84 62.312 0.066 6.52 2.58 10.03
5/21/2021 5:00:00 PM 16.87 62.366 0.066 6.53 2.5 10.02
5/21/2021 5:15:00 PM 16.82 62.276 0.066 6.51 2.62 10.02
5/21/2021 5:30:00 PM 16.74 62.132 0.066 6.52 2.61 10.01
5/21/2021 5:45:00 PM 16.67 62.006 0.066 6.5 2.96 10.01
5/21/2021 6:00:00 PM 16.6 61.88 0.066 6.5 2.84 10
5/21/2021 6:15:00 PM 16.51 61.718 0.066 6.49 2.73 9.99
5/21/2021 6:30:00 PM 16.43 61.574 0.066 6.48 2.7 9.99
5/21/2021 6:45:00 PM 16.34 61.412 0.066 6.5 2.6 9.99
5/21/2021 7:00:00 PM 16.26 61.268 0.066 6.47 2.59 9.99
5/21/2021 7:15:00 PM 16.17 61.106 0.066 6.48 2.52 10
5/21/2021 7:30:00 PM 16.07 60.926 0.066 6.45 2.54 9.99
5/21/2021 7:45:00 PM 15.98 60.764 0.066 6.45 2.54 9.99
5/21/2021 8:00:00 PM 15.88 60.584 0.066 6.44 2.35 10
5/21/2021 8:15:00 PM 15.78 60.404 0.066 6.44 2.18 10
5/21/2021 8:30:00 PM 15.68 60.224 0.066 6.44 2.21 10
5/21/2021 8:45:00 PM 15.58 60.044 0.066 6.44 2.26 10.02
5/21/2021 9:00:00 PM 15.49 59.882 0.066 6.43 2.42 10.03
5/21/2021 9:15:00 PM 15.39 59.702 0.066 6.43 2.43 10.04
5/21/2021 9:30:00 PM 15.31 59.558 0.066 6.43 2.38 10.06
5/21/2021 9:45:00 PM 15.23 59.414 0.066 6.43 2.3 10.08
5/21/2021 10:00:00 PM 15.14 59.252 0.066 6.43 2.42 10.1
5/21/2021 10:15:00 PM 15.06 59.108 0.066 6.43 2.4 10.11
5/21/2021 10:30:00 PM 14.97 58.946 0.066 6.45 2.36 10.13
5/21/2021 10:45:00 PM 14.9 58.82 0.066 6.43 2.4 10.14
5/21/2021 11:00:00 PM 14.83 58.694 0.066 6.43 2.49 10.17
5/21/2021 11:15:00 PM 14.76 58.568 0.066 6.44 2.42 10.18
5/21/2021 11:30:00 PM 14.69 58.442 0.066 6.44 2.61 10.2
5/21/2021 11:45:00 PM 14.63 58.334 0.066 6.44 2.87 10.21
5/22/2021 12:00:00 AM 14.57 58.226 0.066 6.44 3.58 10.22
5/22/2021 12:15:00 AM 14.5 58.1 0.066 6.44 3.61 10.23
5/22/2021 12:30:00 AM 14.44 57.992 0.066 6.44 3.78 10.25
5/22/2021 12:45:00 AM 14.37 57.866 0.066 6.45 4.42 10.26
5/22/2021 1:00:00 AM 14.31 57.758 0.066 6.44 2.69 10.27
5/22/2021 1:15:00 AM 14.25 57.65 0.066 6.44 2.64 10.27
5/22/2021 1:30:00 AM 14.18 57.524 0.066 6.44 2.62 10.3
5/22/2021 1:45:00 AM 14.12 57.416 0.066 6.45 2.84 10.31
5/22/2021 2:00:00 AM 14.06 57.308 0.066 6.44 2.55 10.33
5/22/2021 2:15:00 AM 13.99 57.182 0.066 6.44 2.68 10.35
5/22/2021 2:30:00 AM 13.93 57.074 0.066 6.44 2.45 10.36
5/22/2021 2:45:00 AM 13.87 56.966 0.066 6.45 2.59 10.37
5/22/2021 3:00:00 AM 13.81 56.858 0.066 6.46 2.52 10.39
5/22/2021 3:15:00 AM 13.75 56.75 0.066 6.45 2.54 10.39
5/22/2021 3:30:00 AM 13.68 56.624 0.066 6.45 2.55 10.43
5/22/2021 3:45:00 AM 13.63 56.534 0.066 6.45 2.47 10.43
5/22/2021 4:00:00 AM 13.57 56.426 0.066 6.45 2.63 10.45
5/22/2021 4:15:00 AM 13.51 56.318 0.066 6.45 2.53 10.46
5/22/2021 4:30:00 AM 13.45 56.21 0.066 6.45 2.56 10.48
5/22/2021 4:45:00 AM 13.4 56.12 0.066 6.45 2.63 10.49
5/22/2021 5:00:00 AM 13.34 56.012 0.066 6.45 2.75 10.49
5/22/2021 5:15:00 AM 13.29 55.922 0.066 6.44 2.85 10.51
5/22/2021 5:30:00 AM 13.23 55.814 0.066 6.45 2.83 10.53
5/22/2021 5:45:00 AM 13.18 55.724 0.066 6.45 3.01 10.54
5/22/2021 6:00:00 AM 13.12 55.616 0.066 6.45 3.71 10.55
5/22/2021 6:15:00 AM 13.08 55.544 0.066 6.45 3.17 10.58
5/22/2021 6:30:00 AM 13.04 55.472 0.066 6.46 2.54 10.61
5/22/2021 6:45:00 AM 13.01 55.418 0.066 6.47 2.74 10.66
5/22/2021 7:00:00 AM 13.01 55.418 0.066 6.48 4.51 10.7
5/22/2021 7:15:00 AM 12.98 55.364 0.066 6.48 2.9 10.72
5/22/2021 7:30:00 AM 12.96 55.328 0.066 6.48 59.05 10.72
5/22/2021 7:45:00 AM 12.96 55.328 0.066 6.49 32.24 10.75
5/22/2021 8:00:00 AM 12.99 55.382 0.066 6.52 42.36 10.77
5/22/2021 8:15:00 AM 13.04 55.472 0.066 6.52 2.37 10.8
5/22/2021 8:30:00 AM 13.13 55.634 0.066 6.56 2.46 10.81
5/22/2021 8:45:00 AM 13.13 55.634 0.066 6.53 2.29 10.8
5/22/2021 9:00:00 AM 13.18 55.724 0.066 6.55 2.34 10.82
5/22/2021 9:15:00 AM 13.29 55.922 0.066 6.56 2.25 10.82
5/22/2021 9:30:00 AM 13.44 56.192 0.066 6.58 24.73 10.82
5/22/2021 9:45:00 AM 13.55 56.39 0.066 6.59 2.76 10.78
5/22/2021 10:00:00 AM 13.71 56.678 0.066 6.6 2.19 10.79
5/22/2021 10:15:00 AM 13.8 56.84 0.066 6.6 2.12 10.76
5/22/2021 10:30:00 AM 13.95 57.11 0.066 6.6 2.1 10.74
5/22/2021 10:45:00 AM 14.04 57.272 0.066 6.61 2.11 10.72
5/22/2021 11:00:00 AM 14.25 57.65 0.066 6.61 2.08 10.7
5/22/2021 11:15:00 AM 14.47 58.046 0.066 6.63 2.27 10.66
5/22/2021 11:30:00 AM 14.65 58.37 0.066 6.61 2.63 10.62
5/22/2021 11:45:00 AM 14.93 58.874 0.066 6.62 2.8 10.56
5/22/2021 12:00:00 PM 15.23 59.414 0.066 6.64 2.64 10.51
5/22/2021 12:15:00 PM 15.31 59.558 0.066 6.62 2.41 10.48
5/22/2021 12:30:00 PM 15.27 59.486 0.066 6.59 2.07 10.44
5/22/2021 12:45:00 PM 15.37 59.666 0.066 6.61 1.98 10.41
5/22/2021 1:00:00 PM 15.61 60.098 0.066 6.64 2.01 10.38
5/22/2021 1:15:00 PM 15.62 60.116 0.066 6.61 2 10.37
5/22/2021 1:30:00 PM 15.75 60.35 0.066 6.63 1.99 10.35
5/22/2021 1:45:00 PM 15.81 60.458 0.066 6.62 2.04 10.34
5/22/2021 2:00:00 PM 15.87 60.566 0.066 6.62 2.09 10.32
5/22/2021 2:15:00 PM 15.9 60.62 0.066 6.6 2.01 10.29
5/22/2021 2:30:00 PM 16.01 60.818 0.066 6.62 1.93 10.27
5/22/2021 2:45:00 PM 16.04 60.872 0.066 6.63 2.05 10.25
5/22/2021 3:00:00 PM 15.95 60.71 0.066 6.58 2.01 10.23
5/22/2021 3:15:00 PM 15.9 60.62 0.066 6.57 2.08 10.22
5/22/2021 3:30:00 PM 15.99 60.782 0.067 6.6 2.05 10.2
5/22/2021 3:45:00 PM 16.09 60.962 0.067 6.61 2.03 10.21
5/22/2021 4:00:00 PM 16.08 60.944 0.066 6.59 1.93 10.22
5/22/2021 4:15:00 PM 16.14 61.052 0.067 6.6 1.92 10.2
5/22/2021 4:30:00 PM 16.1 60.98 0.067 6.58 1.97 10.2
5/22/2021 4:45:00 PM 16.07 60.926 0.067 6.58 2 10.17
5/22/2021 5:00:00 PM 16.18 61.124 0.067 6.6 2.06 10.16
5/22/2021 5:15:00 PM 16.16 61.088 0.067 6.58 2.02 10.14
5/22/2021 5:30:00 PM 16.12 61.016 0.067 6.59 2.03 10.14
5/22/2021 5:45:00 PM 16.09 60.962 0.067 6.56 2.02 10.12
5/22/2021 6:00:00 PM 16.05 60.89 0.067 6.57 2.03 10.09
5/22/2021 6:15:00 PM 16.03 60.854 0.067 6.55 1.99 10.08
5/22/2021 6:30:00 PM 16.01 60.818 0.067 6.55 1.96 10.06
5/22/2021 6:45:00 PM 15.99 60.782 0.067 6.54 2.02 10.01
5/22/2021 7:00:00 PM 15.95 60.71 0.067 6.54 1.97 9.98
5/22/2021 7:15:00 PM 15.89 60.602 0.067 6.52 1.98 9.95
5/22/2021 7:30:00 PM 15.85 60.53 0.067 6.51 1.99 9.98
5/22/2021 7:45:00 PM 15.79 60.422 0.067 6.51 2.02 9.97
5/22/2021 8:00:00 PM 15.7 60.26 0.067 6.5 2.08 9.96
5/22/2021 8:15:00 PM 15.63 60.134 0.067 6.49 1.97 9.95
5/22/2021 8:30:00 PM 15.56 60.008 0.067 6.49 2.09 9.94
5/22/2021 8:45:00 PM 15.49 59.882 0.067 6.47 2 9.94
5/22/2021 9:00:00 PM 15.43 59.774 0.067 6.47 2.13 9.95
5/22/2021 9:15:00 PM 15.37 59.666 0.067 6.47 2.2 9.95
5/22/2021 9:30:00 PM 15.31 59.558 0.067 6.46 2.16 9.96
5/22/2021 9:45:00 PM 15.25 59.45 0.067 6.46 2.24 9.97
5/22/2021 10:00:00 PM 15.21 59.378 0.067 6.46 2.25 9.99
5/22/2021 10:15:00 PM 15.16 59.288 0.067 6.45 2.15 9.99
5/22/2021 10:30:00 PM 15.1 59.18 0.067 6.45 2.04 10
5/22/2021 10:45:00 PM 15.06 59.108 0.067 6.45 2.06 10
5/22/2021 11:00:00 PM 15.01 59.018 0.067 6.46 2.09 10.01
5/22/2021 11:15:00 PM 14.95 58.91 0.067 6.44 2.06 10.02
5/22/2021 11:30:00 PM 14.9 58.82 0.068 6.45 2.1 10.04
5/22/2021 11:45:00 PM 14.85 58.73 0.067 6.44 2.2 10.03
5/23/2021 12:00:00 AM 14.83 58.694 0.067 6.47 2.05 10.05
5/23/2021 12:15:00 AM 14.79 58.622 0.067 6.45 2.08 10.06
5/23/2021 12:30:00 AM 14.75 58.55 0.067 6.45 2.07 10.06
5/23/2021 12:45:00 AM 14.72 58.496 0.067 6.45 2.02 10.07
5/23/2021 1:00:00 AM 14.68 58.424 0.067 6.46 2.03 10.08
5/23/2021 1:15:00 AM 14.63 58.334 0.067 6.46 2.09 10.08
5/23/2021 1:30:00 AM 14.59 58.262 0.067 6.47 2.07 10.1
5/23/2021 1:45:00 AM 14.54 58.172 0.067 6.46 2.16 10.11
5/23/2021 2:00:00 AM 14.49 58.082 0.067 6.48 2.01 10.12
5/23/2021 2:15:00 AM 14.46 58.028 0.067 6.46 2.04 10.14
5/23/2021 2:30:00 AM 14.44 57.992 0.067 6.47 2.09 10.12
5/23/2021 2:45:00 AM 14.41 57.938 0.067 6.48 2.07 10.15
5/23/2021 3:00:00 AM 14.37 57.866 0.067 6.48 1.98 10.16
5/23/2021 3:15:00 AM 14.33 57.794 0.067 6.48 2.02 10.17
5/23/2021 3:30:00 AM 14.28 57.704 0.067 6.47 2.03 10.15
5/23/2021 3:45:00 AM 14.25 57.65 0.067 6.47 2 10.18
5/23/2021 4:00:00 AM 14.2 57.56 0.067 6.46 2.04 10.16
5/23/2021 4:15:00 AM 14.16 57.488 0.067 6.46 2.02 10.17
5/23/2021 4:30:00 AM 14.11 57.398 0.067 6.47 1.99 10.2
5/23/2021 4:45:00 AM 14.07 57.326 0.067 6.49 2.01 10.21
5/23/2021 5:00:00 AM 14.02 57.236 0.067 6.47 2 10.21
5/23/2021 5:15:00 AM 13.98 57.164 0.067 6.47 2.16 10.22
5/23/2021 5:30:00 AM 13.94 57.092 0.067 6.47 2.01 10.22
5/23/2021 5:45:00 AM 13.89 57.002 0.067 6.47 1.98 10.25
5/23/2021 6:00:00 AM 13.87 56.966 0.067 6.47 1.95 10.25
5/23/2021 6:15:00 AM 13.83 56.894 0.067 6.47 1.95 10.3
5/23/2021 6:30:00 AM 13.8 56.84 0.067 6.48 1.93 10.32
5/23/2021 6:45:00 AM 13.77 56.786 0.067 6.51 1.95 10.35
5/23/2021 7:00:00 AM 13.77 56.786 0.067 6.5 1.9 10.37
5/23/2021 7:15:00 AM 13.77 56.786 0.067 6.51 1.89 10.4
5/23/2021 7:30:00 AM 13.78 56.804 0.067 6.52 1.91 10.43
5/23/2021 7:45:00 AM 13.8 56.84 0.067 6.54 1.89 10.45
5/23/2021 8:00:00 AM 13.82 56.876 0.067 6.54 1.84 10.48
5/23/2021 8:15:00 AM 13.86 56.948 0.067 6.55 1.93 10.48
5/23/2021 8:30:00 AM 13.92 57.056 0.067 6.56 1.9 10.48
5/23/2021 8:45:00 AM 13.98 57.164 0.067 6.56 1.87 10.48
5/23/2021 9:00:00 AM 14.06 57.308 0.067 6.58 1.9 10.49
5/23/2021 9:15:00 AM 14.19 57.542 0.067 6.59 1.89 10.48
5/23/2021 9:30:00 AM 14.37 57.866 0.067 6.6 1.92 10.46
5/23/2021 9:45:00 AM 14.62 58.316 0.067 6.63 1.93 10.46
5/23/2021 10:00:00 AM 14.75 58.55 0.067 6.62 1.85 10.42
5/23/2021 10:15:00 AM 14.87 58.766 0.067 6.62 1.88 10.41
5/23/2021 10:30:00 AM 15.12 59.216 0.067 6.64 1.95 10.37
5/23/2021 10:45:00 AM 15.13 59.234 0.067 6.62 1.86 10.36
5/23/2021 11:00:00 AM 15.32 59.576 0.067 6.65 1.92 10.34
5/23/2021 11:15:00 AM 15.39 59.702 0.067 6.63 1.83 10.31
5/23/2021 11:30:00 AM 15.6 60.08 0.067 6.63 1.92 10.28
5/23/2021 11:45:00 AM 15.83 60.494 0.067 6.66 1.76 10.25
5/23/2021 12:00:00 PM 16.1 60.98 0.067 6.66 1.82 10.23
5/23/2021 12:15:00 PM 16.35 61.43 0.067 6.66 1.82 10.18
5/23/2021 12:30:00 PM 16.47 61.646 0.067 6.67 2.07 10.14
5/23/2021 12:45:00 PM 16.45 61.61 0.067 6.62 2.01 10.1
5/23/2021 1:00:00 PM 16.69 62.042 0.067 6.66 2.2 10.08
5/23/2021 1:15:00 PM 16.69 62.042 0.067 6.63 2.16 10.03
5/23/2021 1:30:00 PM 17.04 62.672 0.067 6.67 2.43 10.01
5/23/2021 1:45:00 PM 17.36 63.248 0.067 6.67 2.23 10
5/23/2021 2:00:00 PM 17.3 63.14 0.067 6.61 2.19 9.97
5/23/2021 2:15:00 PM 17.3 63.14 0.067 6.62 2.15 9.95
5/23/2021 2:30:00 PM 17.06 62.708 0.068 6.57 1.8 9.91
5/23/2021 2:45:00 PM 17.22 62.996 0.068 6.62 1.68 9.92
5/23/2021 3:00:00 PM 17.55 63.59 0.068 6.64 1.66 9.88
5/23/2021 3:15:00 PM 17.54 63.572 0.068 6.62 1.69 9.87
5/23/2021 3:30:00 PM 17.55 63.59 0.068 6.62 1.71 9.88
5/23/2021 3:45:00 PM 17.5 63.5 0.068 6.62 1.72 9.88
5/23/2021 4:00:00 PM 17.45 63.41 0.068 6.6 1.75 9.89
5/23/2021 4:15:00 PM 17.47 63.446 0.068 6.59 1.79 9.87
5/23/2021 4:30:00 PM 17.5 63.5 0.068 6.59 1.74 9.84
5/23/2021 4:45:00 PM 17.52 63.536 0.068 6.61 1.73 9.82
5/23/2021 5:00:00 PM 17.42 63.356 0.068 6.57 1.74 9.81
5/23/2021 5:15:00 PM 17.42 63.356 0.068 6.59 1.63 9.79
5/23/2021 5:30:00 PM 17.41 63.338 0.068 6.58 1.76 9.8
5/23/2021 5:45:00 PM 17.38 63.284 0.068 6.58 1.71 9.78
5/23/2021 6:00:00 PM 17.4 63.32 0.068 6.58 1.73 9.79
5/23/2021 6:15:00 PM 17.34 63.212 0.068 6.56 1.8 9.77
5/23/2021 6:30:00 PM 17.27 63.086 0.068 6.56 1.74 9.75
5/23/2021 6:45:00 PM 17.22 62.996 0.068 6.57 1.73 9.76
5/23/2021 7:00:00 PM 17.17 62.906 0.068 6.55 1.7 9.75
5/23/2021 7:15:00 PM 17.09 62.762 0.068 6.53 1.7 9.7
5/23/2021 7:30:00 PM 16.98 62.564 0.068 6.51 1.72 9.67
5/23/2021 7:45:00 PM 16.92 62.456 0.068 6.5 1.73 9.63
5/23/2021 8:00:00 PM 16.85 62.33 0.068 6.5 1.7 9.64
5/23/2021 8:15:00 PM 16.77 62.186 0.068 6.49 1.74 9.64
5/23/2021 8:30:00 PM 16.69 62.042 0.068 6.48 1.77 9.63
5/23/2021 8:45:00 PM 16.63 61.934 0.068 6.47 1.69 9.62
5/23/2021 9:00:00 PM 16.56 61.808 0.068 6.47 2.97 9.62
5/23/2021 9:15:00 PM 16.48 61.664 0.068 6.47 1.57 9.63
5/23/2021 9:30:00 PM 16.41 61.538 0.068 6.47 4.33 9.64
5/23/2021 9:45:00 PM 16.34 61.412 0.068 6.47 1.7 9.65
5/23/2021 10:00:00 PM 16.28 61.304 0.068 6.47 1.59 9.67
5/23/2021 10:15:00 PM 16.23 61.214 0.069 6.47 1.64 9.67
5/23/2021 10:30:00 PM 16.18 61.124 0.068 6.47 1.66 9.68
5/23/2021 10:45:00 PM 16.12 61.016 0.068 6.47 1.62 9.7
5/23/2021 11:00:00 PM 16.07 60.926 0.068 6.47 1.62 9.7
5/23/2021 11:15:00 PM 16.01 60.818 0.068 6.47 1.62 9.72
5/23/2021 11:30:00 PM 15.95 60.71 0.069 6.47 1.59 9.72
5/23/2021 11:45:00 PM 15.93 60.674 0.068 6.47 1.65 9.73
5/24/2021 12:00:00 AM 15.89 60.602 0.068 6.47 1.62 9.75
5/24/2021 12:15:00 AM 15.81 60.458 0.068 6.49 1.62 9.77
5/24/2021 12:30:00 AM 15.75 60.35 0.068 6.47 1.64 9.78
5/24/2021 12:45:00 AM 15.69 60.242 0.068 6.47 1.66 9.78
5/24/2021 1:00:00 AM 15.63 60.134 0.068 6.48 1.67 9.8
5/24/2021 1:15:00 AM 15.58 60.044 0.068 6.48 1.78 9.81
5/24/2021 1:30:00 AM 15.53 59.954 0.069 6.48 1.64 9.82
5/24/2021 1:45:00 AM 15.49 59.882 0.069 6.48 1.68 9.84
5/24/2021 2:00:00 AM 15.45 59.81 0.068 6.48 1.6 9.84
5/24/2021 2:15:00 AM 15.4 59.72 0.068 6.48 1.6 9.87
5/24/2021 2:30:00 AM 15.35 59.63 0.068 6.48 1.61 9.87
5/24/2021 2:45:00 AM 15.3 59.54 0.068 6.48 1.58 9.87
5/24/2021 3:00:00 AM 15.24 59.432 0.068 6.5 1.61 9.88
5/24/2021 3:15:00 AM 15.18 59.324 0.068 6.48 1.61 9.89
5/24/2021 3:30:00 AM 15.13 59.234 0.068 6.48 1.62 9.91
5/24/2021 3:45:00 AM 15.07 59.126 0.068 6.48 1.7 9.94
5/24/2021 4:00:00 AM 14.99 58.982 0.068 6.48 1.66 9.94
5/24/2021 4:15:00 AM 14.95 58.91 0.068 6.5 1.67 9.96
5/24/2021 4:30:00 AM 14.89 58.802 0.068 6.5 1.69 9.98
5/24/2021 4:45:00 AM 14.85 58.73 0.068 6.49 1.67 9.98
5/24/2021 5:00:00 AM 14.8 58.64 0.068 6.5 1.67 10
5/24/2021 5:15:00 AM 14.76 58.568 0.068 6.49 1.69 10.02
5/24/2021 5:30:00 AM 14.71 58.478 0.068 6.48 1.65 10.01
5/24/2021 5:45:00 AM 14.66 58.388 0.068 6.48 1.73 10.04
5/24/2021 6:00:00 AM 14.62 58.316 0.068 6.49 1.64 10.05
5/24/2021 6:15:00 AM 14.58 58.244 0.068 6.49 1.63 10.06
5/24/2021 6:30:00 AM 14.53 58.154 0.068 6.48 1.67 10.08
5/24/2021 6:45:00 AM 14.5 58.1 0.068 6.49 1.63 10.13
5/24/2021 7:00:00 AM 14.47 58.046 0.068 6.51 1.59 10.16
5/24/2021 7:15:00 AM 14.45 58.01 0.068 6.51 1.62 10.21
5/24/2021 7:30:00 AM 14.44 57.992 0.068 6.53 1.65 10.26
5/24/2021 7:45:00 AM 14.44 57.992 0.068 6.55 1.62 10.29
5/24/2021 8:00:00 AM 14.43 57.974 0.068 6.54 1.63 10.3
5/24/2021 8:15:00 AM 14.43 57.974 0.068 6.55 1.62 10.35
5/24/2021 8:30:00 AM 14.5 58.1 0.068 6.58 1.6 10.39
5/24/2021 8:45:00 AM 14.52 58.136 0.068 6.58 1.66 10.41
5/24/2021 9:00:00 AM 14.53 58.154 0.068 6.6 1.61 10.42
5/24/2021 9:15:00 AM 14.56 58.208 0.068 6.6 1.61 10.43
5/24/2021 9:30:00 AM 14.58 58.244 0.068 6.59 1.64 10.43
5/24/2021 9:45:00 AM 14.62 58.316 0.068 6.61 1.58 10.44
5/24/2021 10:00:00 AM 14.66 58.388 0.068 6.61 1.58 10.46
5/24/2021 10:15:00 AM 14.76 58.568 0.068 6.62 1.61 10.43
5/24/2021 10:30:00 AM 14.86 58.748 0.068 6.64 1.58 10.45
5/24/2021 10:45:00 AM 14.94 58.892 0.068 6.63 1.59 10.43
5/24/2021 11:00:00 AM 15.15 59.27 0.068 6.68 1.58 10.43
5/24/2021 11:15:00 AM 15.19 59.342 0.068 6.63 1.57 10.41
5/24/2021 11:30:00 AM 15.24 59.432 0.068 6.65 1.58 10.41
5/24/2021 11:45:00 AM 15.36 59.648 0.068 6.65 1.58 10.38
5/24/2021 12:00:00 PM 15.33 59.594 0.068 6.63 1.56 10.37
5/24/2021 12:15:00 PM 15.46 59.828 0.068 6.67 1.56 10.37
5/24/2021 12:30:00 PM 15.89 60.602 0.068 6.68 1.55 10.32
5/24/2021 12:45:00 PM 15.9 60.62 0.068 6.64 1.55 10.3
5/24/2021 1:00:00 PM 15.83 60.494 0.068 6.63 1.56 10.29
5/24/2021 1:15:00 PM 15.89 60.602 0.068 6.64 1.59 10.28
5/24/2021 1:30:00 PM 15.94 60.692 0.068 6.64 1.56 10.26
5/24/2021 1:45:00 PM 16.03 60.854 0.068 6.65 1.53 10.24
5/24/2021 2:00:00 PM 16.03 60.854 0.068 6.62 1.57 10.22
5/24/2021 2:15:00 PM 16.03 60.854 0.068 6.63 1.52 10.22
5/24/2021 2:30:00 PM 16.11 60.998 0.068 6.64 1.55 10.22
5/24/2021 2:45:00 PM 16.08 60.944 0.068 6.61 1.52 10.19
5/24/2021 3:00:00 PM 15.99 60.782 0.068 6.59 1.56 10.17
5/24/2021 3:15:00 PM 15.95 60.71 0.068 6.61 1.6 10.17
5/24/2021 3:30:00 PM 15.88 60.584 0.068 6.58 1.53 10.16
5/24/2021 3:45:00 PM 15.82 60.476 0.068 6.58 1.64 10.14
5/24/2021 4:00:00 PM 15.75 60.35 0.068 6.59 1.63 10.13
5/24/2021 4:15:00 PM 15.74 60.332 0.068 6.58 1.59 10.16
5/24/2021 4:30:00 PM 15.83 60.494 0.068 6.62 1.74 10.2
5/24/2021 4:45:00 PM 15.83 60.494 0.068 6.6 1.55 10.19
5/24/2021 5:00:00 PM 15.76 60.368 0.068 6.59 1.55 10.2
5/24/2021 5:15:00 PM 15.7 60.26 0.068 6.58 1.58 10.2
5/24/2021 5:30:00 PM 15.65 60.17 0.069 6.58 1.51 10.19
5/24/2021 5:45:00 PM 15.61 60.098 0.069 6.58 1.54 10.18
5/24/2021 6:00:00 PM 15.57 60.026 0.069 6.57 1.59 10.16
5/24/2021 6:15:00 PM 15.53 59.954 0.069 6.59 1.58 10.16
5/24/2021 6:30:00 PM 15.47 59.846 0.069 6.55 1.52 10.12
5/24/2021 6:45:00 PM 15.42 59.756 0.069 6.56 1.56 10.13
5/24/2021 7:00:00 PM 15.35 59.63 0.069 6.55 1.53 10.1
5/24/2021 7:15:00 PM 15.29 59.522 0.069 6.54 1.54 10.08
5/24/2021 7:30:00 PM 15.23 59.414 0.069 6.55 1.56 10.05
5/24/2021 7:45:00 PM 15.17 59.306 0.069 6.53 1.54 10.04
5/24/2021 8:00:00 PM 15.12 59.216 0.069 6.52 1.56 10.01
5/24/2021 8:15:00 PM 15.06 59.108 0.069 6.52 1.61 10.01
5/24/2021 8:30:00 PM 15 59 0.069 6.52 1.57 10
5/24/2021 8:45:00 PM 14.95 58.91 0.069 6.51 1.6 10
5/24/2021 9:00:00 PM 14.9 58.82 0.069 6.52 1.59 9.99
5/24/2021 9:15:00 PM 14.86 58.748 0.069 6.51 1.6 10
5/24/2021 9:30:00 PM 14.81 58.658 0.069 6.5 1.58 9.98
5/24/2021 9:45:00 PM 14.77 58.586 0.069 6.5 1.58 10
5/24/2021 10:00:00 PM 14.73 58.514 0.069 6.51 1.62 10.03
5/24/2021 10:15:00 PM 14.69 58.442 0.069 6.51 1.66 10.05
5/24/2021 10:30:00 PM 14.65 58.37 0.069 6.5 1.6 10.04
5/24/2021 10:45:00 PM 14.62 58.316 0.069 6.51 1.59 10.05
5/24/2021 11:00:00 PM 14.59 58.262 0.069 6.51 1.58 10.04
5/24/2021 11:15:00 PM 14.56 58.208 0.069 6.51 1.63 10.06
5/24/2021 11:30:00 PM 14.53 58.154 0.069 6.51 1.62 10.08
5/24/2021 11:45:00 PM 14.5 58.1 0.069 6.52 1.66 10.07
5/25/2021 12:00:00 AM 14.48 58.064 0.069 6.51 1.63 10.07
5/25/2021 12:15:00 AM 14.45 58.01 0.069 6.51 1.59 10.07
5/25/2021 12:30:00 AM 14.42 57.956 0.069 6.51 1.59 10.1
5/25/2021 12:45:00 AM 14.41 57.938 0.069 6.5 1.59 10.08
5/25/2021 1:00:00 AM 14.38 57.884 0.069 6.51 1.64 10.1
5/25/2021 1:15:00 AM 14.35 57.83 0.069 6.5 1.6 10.11
5/25/2021 1:30:00 AM 14.33 57.794 0.069 6.51 1.61 10.12
5/25/2021 1:45:00 AM 14.31 57.758 0.069 6.51 1.55 10.1
5/25/2021 2:00:00 AM 14.29 57.722 0.069 6.51 1.64 10.13
5/25/2021 2:15:00 AM 14.27 57.686 0.069 6.51 1.59 10.12
5/25/2021 2:30:00 AM 14.25 57.65 0.069 6.51 1.64 10.11
5/25/2021 2:45:00 AM 14.23 57.614 0.069 6.52 1.63 10.12
5/25/2021 3:00:00 AM 14.2 57.56 0.069 6.51 1.6 10.15
5/25/2021 3:15:00 AM 14.18 57.524 0.069 6.51 1.64 10.15
5/25/2021 3:30:00 AM 14.17 57.506 0.069 6.53 1.61 10.14
5/25/2021 3:45:00 AM 14.14 57.452 0.069 6.51 1.62 10.16
5/25/2021 4:00:00 AM 14.13 57.434 0.069 6.52 1.61 10.15
5/25/2021 4:15:00 AM 14.11 57.398 0.069 6.51 1.57 10.16
5/25/2021 4:30:00 AM 14.09 57.362 0.069 6.51 1.63 10.17
5/25/2021 4:45:00 AM 14.07 57.326 0.069 6.51 1.6 10.17
5/25/2021 5:00:00 AM 14.05 57.29 0.069 6.51 1.6 10.18
5/25/2021 5:15:00 AM 14.03 57.254 0.069 6.51 1.6 10.18
5/25/2021 5:30:00 AM 14.01 57.218 0.069 6.51 1.62 10.18
5/25/2021 5:45:00 AM 13.99 57.182 0.069 6.52 1.57 10.21
5/25/2021 6:00:00 AM 13.98 57.164 0.069 6.51 1.64 10.18
5/25/2021 6:15:00 AM 13.96 57.128 0.069 6.52 1.55 10.22
5/25/2021 6:30:00 AM 13.95 57.11 0.069 6.52 1.61 10.24
5/25/2021 6:45:00 AM 13.95 57.11 0.07 6.54 1.63 10.24
5/25/2021 7:00:00 AM 13.94 57.092 0.069 6.53 1.59 10.27
5/25/2021 7:15:00 AM 13.93 57.074 0.07 6.53 1.57 10.27
5/25/2021 7:30:00 AM 13.93 57.074 0.07 6.54 1.6 10.33
5/25/2021 7:45:00 AM 13.94 57.092 0.07 6.54 1.56 10.32
5/25/2021 8:00:00 AM 13.94 57.092 0.07 6.55 1.59 10.37
5/25/2021 8:15:00 AM 13.96 57.128 0.069 6.57 1.59 10.42
5/25/2021 8:30:00 AM 13.98 57.164 0.069 6.57 1.55 10.43
5/25/2021 8:45:00 AM 14.01 57.218 0.07 6.59 1.56 10.43
5/25/2021 9:00:00 AM 14.04 57.272 0.07 6.58 1.57 10.46
5/25/2021 9:15:00 AM 14.08 57.344 0.07 6.6 1.56 10.47
5/25/2021 9:30:00 AM 14.11 57.398 0.07 6.6 1.59 10.5
5/25/2021 9:45:00 AM 14.17 57.506 0.069 6.62 1.56 10.53
5/25/2021 10:00:00 AM 14.25 57.65 0.069 6.61 1.57 10.52
5/25/2021 10:15:00 AM 14.34 57.812 0.069 6.63 1.57 10.55
5/25/2021 10:30:00 AM 14.47 58.046 0.069 6.67 1.54 10.56
5/25/2021 10:45:00 AM 14.64 58.352 0.069 6.66 1.57 10.55
5/25/2021 11:00:00 AM 14.8 58.64 0.069 6.66 1.8 10.52
5/25/2021 11:15:00 AM 14.97 58.946 0.069 6.66 1.49 10.5
5/25/2021 11:30:00 AM 15.14 59.252 0.069 6.69 1.49 10.48
5/25/2021 11:45:00 AM 15.4 59.72 0.069 6.67 1.56 10.43
5/25/2021 12:00:00 PM 15.5 59.9 0.069 6.67 1.53 10.4
5/25/2021 12:15:00 PM 15.73 60.314 0.069 6.69 1.54 10.36
5/25/2021 12:30:00 PM 16.09 60.962 0.069 6.69 1.51 10.32
5/25/2021 12:45:00 PM 16.41 61.538 0.069 6.69 1.47 10.27
5/25/2021 1:00:00 PM 16.68 62.024 0.069 6.7 1.52 10.22
5/25/2021 1:15:00 PM 16.82 62.276 0.069 6.67 1.5 10.18
5/25/2021 1:30:00 PM 17.12 62.816 0.069 6.69 1.47 10.12
5/25/2021 1:45:00 PM 17.31 63.158 0.069 6.69 1.51 10.07
5/25/2021 2:00:00 PM 17.49 63.482 0.069 6.69 1.47 10.03
5/25/2021 2:15:00 PM 17.45 63.41 0.069 6.65 1.49 10
5/25/2021 2:30:00 PM 17.32 63.176 0.069 6.64 1.45 9.98
5/25/2021 2:45:00 PM 17.41 63.338 0.069 6.63 1.49 9.96
5/25/2021 3:00:00 PM 17.59 63.662 0.069 6.66 1.49 9.95
5/25/2021 3:15:00 PM 17.74 63.932 0.069 6.68 1.56 9.92
5/25/2021 3:30:00 PM 17.9 64.22 0.07 6.68 1.45 9.9
5/25/2021 3:45:00 PM 17.61 63.698 0.07 6.61 1.49 9.85
5/25/2021 4:00:00 PM 17.43 63.374 0.07 6.59 1.47 9.84
5/25/2021 4:15:00 PM 17.48 63.464 0.07 6.62 1.44 9.85
5/25/2021 4:30:00 PM 17.49 63.482 0.07 6.6 1.5 9.84
5/25/2021 4:45:00 PM 17.41 63.338 0.07 6.59 1.5 9.85
5/25/2021 5:00:00 PM 17.38 63.284 0.07 6.6 1.44 9.84
5/25/2021 5:15:00 PM 17.26 63.068 0.07 6.56 1.42 9.79
5/25/2021 5:30:00 PM 17.18 62.924 0.07 6.57 1.44 9.82
5/25/2021 5:45:00 PM 17.24 63.032 0.07 6.61 1.46 9.84
5/25/2021 6:00:00 PM 17.16 62.888 0.07 6.58 1.43 9.85
5/25/2021 6:15:00 PM 17.08 62.744 0.07 6.57 1.4 9.83
5/25/2021 6:30:00 PM 17.02 62.636 0.07 6.56 1.4 9.82
5/25/2021 6:45:00 PM 16.96 62.528 0.07 6.57 1.45 9.84
5/25/2021 7:00:00 PM 16.95 62.51 0.07 6.57 1.42 9.84
5/25/2021 7:15:00 PM 16.87 62.366 0.07 6.56 1.5 9.81
5/25/2021 7:30:00 PM 16.8 62.24 0.071 6.54 1.49 9.76
5/25/2021 7:45:00 PM 16.71 62.078 0.071 6.53 1.44 9.73
5/25/2021 8:00:00 PM 16.62 61.916 0.071 6.52 1.53 9.7
5/25/2021 8:15:00 PM 16.55 61.79 0.071 6.53 1.49 9.67
5/25/2021 8:30:00 PM 16.49 61.682 0.071 6.5 1.49 9.64
5/25/2021 8:45:00 PM 16.42 61.556 0.071 6.51 1.53 9.6
5/25/2021 9:00:00 PM 16.35 61.43 0.071 6.49 1.48 9.61
5/25/2021 9:15:00 PM 16.29 61.322 0.071 6.49 1.5 9.6
5/25/2021 9:30:00 PM 16.23 61.214 0.071 6.48 1.48 9.6
5/25/2021 9:45:00 PM 16.17 61.106 0.071 6.47 1.5 9.59
5/25/2021 10:00:00 PM 16.11 60.998 0.071 6.48 1.53 9.63
5/25/2021 10:15:00 PM 16.05 60.89 0.071 6.48 1.49 9.63
5/25/2021 10:30:00 PM 15.99 60.782 0.071 6.48 1.5 9.62
5/25/2021 10:45:00 PM 15.91 60.638 0.071 6.49 1.46 9.66
5/25/2021 11:00:00 PM 15.85 60.53 0.071 6.48 1.51 9.68
5/25/2021 11:15:00 PM 15.81 60.458 0.071 6.49 1.58 9.67
5/25/2021 11:30:00 PM 15.75 60.35 0.071 6.48 1.53 9.68
5/25/2021 11:45:00 PM 15.69 60.242 0.071 6.48 1.54 9.7
5/26/2021 12:00:00 AM 15.63 60.134 0.071 6.48 1.52 9.72
5/26/2021 12:15:00 AM 15.57 60.026 0.071 6.47 1.55 9.72
5/26/2021 12:30:00 AM 15.52 59.936 0.071 6.48 1.52 9.74
5/26/2021 12:45:00 AM 15.46 59.828 0.071 6.47 1.53 9.75
5/26/2021 1:00:00 AM 15.4 59.72 0.071 6.47 1.49 9.76
5/26/2021 1:15:00 AM 15.34 59.612 0.071 6.47 1.56 9.78
5/26/2021 1:30:00 AM 15.28 59.504 0.071 6.48 1.57 9.77
5/26/2021 1:45:00 AM 15.23 59.414 0.071 6.48 1.56 9.8
5/26/2021 2:00:00 AM 15.18 59.324 0.071 6.47 1.49 9.8
5/26/2021 2:15:00 AM 15.13 59.234 0.071 6.47 1.58 9.81
5/26/2021 2:30:00 AM 15.08 59.144 0.071 6.47 1.53 9.83
5/26/2021 2:45:00 AM 15.05 59.09 0.071 6.47 1.57 9.82
5/26/2021 3:00:00 AM 15.01 59.018 0.071 6.47 1.54 9.83
5/26/2021 3:15:00 AM 14.97 58.946 0.071 6.48 1.57 9.86
5/26/2021 3:30:00 AM 14.93 58.874 0.071 6.48 1.52 9.86
5/26/2021 3:45:00 AM 14.9 58.82 0.071 6.48 1.55 9.85
5/26/2021 4:00:00 AM 14.86 58.748 0.071 6.48 1.49 9.88
5/26/2021 4:15:00 AM 14.84 58.712 0.071 6.5 1.62 9.87
5/26/2021 4:30:00 AM 14.81 58.658 0.071 6.48 1.6 9.89
5/26/2021 4:45:00 AM 14.77 58.586 0.071 6.48 1.6 9.9
5/26/2021 5:00:00 AM 14.74 58.532 0.071 6.48 1.56 9.91
5/26/2021 5:15:00 AM 14.71 58.478 0.071 6.48 1.59 9.91
5/26/2021 5:30:00 AM 14.67 58.406 0.071 6.48 1.52 9.93
5/26/2021 5:45:00 AM 14.64 58.352 0.071 6.5 1.57 9.93
5/26/2021 6:00:00 AM 14.62 58.316 0.071 6.49 1.55 9.94
5/26/2021 6:15:00 AM 14.6 58.28 0.071 6.49 1.56 9.99
5/26/2021 6:30:00 AM 14.59 58.262 0.071 6.5 1.51 10
5/26/2021 6:45:00 AM 14.57 58.226 0.071 6.5 1.58 10.02
5/26/2021 7:00:00 AM 14.57 58.226 0.071 6.51 1.51 10.07
5/26/2021 7:15:00 AM 14.6 58.28 0.071 6.53 1.56 10.15
5/26/2021 7:30:00 AM 14.62 58.316 0.071 6.54 1.56 10.18
5/26/2021 7:45:00 AM 14.63 58.334 0.071 6.55 1.58 10.16
5/26/2021 8:00:00 AM 14.69 58.442 0.071 6.57 1.57 10.25
5/26/2021 8:15:00 AM 14.7 58.46 0.071 6.56 1.52 10.24
5/26/2021 8:30:00 AM 14.74 58.532 0.071 6.58 1.5 10.28
5/26/2021 8:45:00 AM 14.84 58.712 0.071 6.61 1.5 10.32
5/26/2021 9:00:00 AM 14.87 58.766 0.071 6.6 1.5 10.31
5/26/2021 9:15:00 AM 14.97 58.946 0.071 6.62 1.49 10.28
5/26/2021 9:30:00 AM 15.12 59.216 0.07 6.63 1.51 10.3
5/26/2021 9:45:00 AM 15.3 59.54 0.07 6.65 1.53 10.29
5/26/2021 10:00:00 AM 15.5 59.9 0.07 6.66 1.43 10.28
5/26/2021 10:15:00 AM 15.7 60.26 0.07 6.66 1.48 10.25
5/26/2021 10:30:00 AM 15.92 60.656 0.07 6.65 1.48 10.2
5/26/2021 10:45:00 AM 16.17 61.106 0.07 6.67 1.47 10.19
5/26/2021 11:00:00 AM 16.41 61.538 0.07 6.69 1.46 10.17
5/26/2021 11:15:00 AM 16.67 62.006 0.07 6.67 1.5 10.12
5/26/2021 11:30:00 AM 16.72 62.096 0.07 6.64 1.48 10.04
5/26/2021 11:45:00 AM 16.76 62.168 0.07 6.66 1.47 10.05
5/26/2021 12:00:00 PM 17.1 62.78 0.07 6.68 1.52 10.02
5/26/2021 12:15:00 PM 17.13 62.834 0.07 6.68 1.45 9.97
5/26/2021 12:30:00 PM 16.9 62.42 0.07 6.6 1.48 9.85
5/26/2021 12:45:00 PM 16.98 62.564 0.07 6.63 1.43 9.85
5/26/2021 1:00:00 PM 16.92 62.456 0.069 6.57 3.15 9.77
5/26/2021 1:15:00 PM 17 62.6 0.071 6.69 3.5 9.84
5/26/2021 1:30:00 PM 17.31 63.158 0.07 6.68 2.44 9.86
5/26/2021 1:45:00 PM 17.08 62.744 0.07 6.59 2.01 9.81
5/26/2021 2:00:00 PM 16.93 62.474 0.071 6.57 1.8 9.74
5/26/2021 2:15:00 PM 16.82 62.276 0.07 6.57 1.96 9.68
5/26/2021 2:30:00 PM 16.99 62.582 0.071 6.62 1.73 9.76
5/26/2021 2:45:00 PM 17.2 62.96 0.071 6.63 2.04 9.77
5/26/2021 3:00:00 PM 17.15 62.87 0.071 6.59 1.57 9.82
5/26/2021 3:15:00 PM 17.49 63.482 0.071 6.66 1.54 9.82
5/26/2021 3:30:00 PM 17.52 63.536 0.071 6.66 1.5 9.82
5/26/2021 3:45:00 PM 17.27 63.086 0.071 6.59 1.52 9.8
5/26/2021 4:00:00 PM 17.42 63.356 0.071 6.64 1.49 9.82
5/26/2021 4:15:00 PM 17.32 63.176 0.071 6.6 1.49 9.81
5/26/2021 4:30:00 PM 17.42 63.356 0.071 6.66 1.52 9.81
5/26/2021 4:45:00 PM 17.29 63.122 0.071 6.59 1.43 9.72
5/26/2021 5:00:00 PM 17.18 62.924 0.071 6.55 1.46 9.64
5/26/2021 5:15:00 PM 17.3 63.14 0.071 6.62 1.46 9.74
5/26/2021 5:30:00 PM 17.27 63.086 0.071 6.59 1.53 9.72
5/26/2021 5:45:00 PM 17.19 62.942 0.071 6.58 1.48 9.7
5/26/2021 6:00:00 PM 17.14 62.852 0.071 6.57 1.45 9.68
5/26/2021 6:15:00 PM 17.08 62.744 0.071 6.56 1.48 9.64
5/26/2021 6:30:00 PM 17.03 62.654 0.071 6.57 1.48 9.63
5/26/2021 6:45:00 PM 16.95 62.51 0.071 6.54 1.47 9.56
5/26/2021 7:00:00 PM 16.91 62.438 0.072 6.54 1.43 9.52
5/26/2021 7:15:00 PM 16.85 62.33 0.072 6.52 1.52 9.51
5/26/2021 7:30:00 PM 16.77 62.186 0.072 6.51 1.48 9.49
5/26/2021 7:45:00 PM 16.69 62.042 0.072 6.52 1.5 9.47
5/26/2021 8:00:00 PM 16.61 61.898 0.072 6.5 1.5 9.49
5/26/2021 8:15:00 PM 16.54 61.772 0.072 6.49 1.51 9.49
5/26/2021 8:30:00 PM 16.46 61.628 0.072 6.5 1.58 9.48
5/26/2021 8:45:00 PM 16.39 61.502 0.072 6.48 1.53 9.48
5/26/2021 9:00:00 PM 16.32 61.376 0.072 6.48 1.53 9.49
5/26/2021 9:15:00 PM 16.23 61.214 0.072 6.47 1.51 9.49
5/26/2021 9:30:00 PM 16.16 61.088 0.072 6.46 1.51 9.51
5/26/2021 9:45:00 PM 16.09 60.962 0.072 6.48 1.49 9.52
5/26/2021 10:00:00 PM 16.03 60.854 0.072 6.45 1.53 9.52
5/26/2021 10:15:00 PM 15.96 60.728 0.072 6.46 1.58 9.55
5/26/2021 10:30:00 PM 15.9 60.62 0.072 6.47 1.6 9.55
5/26/2021 10:45:00 PM 15.86 60.548 0.072 6.47 1.56 9.55
5/26/2021 11:00:00 PM 15.81 60.458 0.072 6.47 1.55 9.57
5/26/2021 11:15:00 PM 15.76 60.368 0.072 6.48 1.59 9.58
5/26/2021 11:30:00 PM 15.71 60.278 0.072 6.49 1.52 9.61
5/26/2021 11:45:00 PM 15.66 60.188 0.072 6.48 1.52 9.6
5/27/2021 12:00:00 AM 15.62 60.116 0.072 6.48 1.53 9.62
5/27/2021 12:15:00 AM 15.57 60.026 0.072 6.48 1.53 9.64
5/27/2021 12:30:00 AM 15.52 59.936 0.072 6.49 1.52 9.64
5/27/2021 12:45:00 AM 15.49 59.882 0.072 6.5 1.56 9.64
5/27/2021 1:00:00 AM 15.44 59.792 0.072 6.49 1.54 9.67
5/27/2021 1:15:00 AM 15.4 59.72 0.072 6.49 1.59 9.68
5/27/2021 1:30:00 AM 15.37 59.666 0.072 6.5 1.58 9.68
5/27/2021 1:45:00 AM 15.34 59.612 0.072 6.49 1.56 9.69
5/27/2021 2:00:00 AM 15.3 59.54 0.072 6.49 1.54 9.7
5/27/2021 2:15:00 AM 15.26 59.468 0.072 6.49 1.52 9.71
5/27/2021 2:30:00 AM 15.21 59.378 0.072 6.49 1.52 9.74
5/27/2021 2:45:00 AM 15.16 59.288 0.072 6.5 1.56 9.74
5/27/2021 3:00:00 AM 15.1 59.18 0.072 6.49 1.55 9.76
5/27/2021 3:15:00 AM 15.08 59.144 0.072 6.49 1.56 9.74
5/27/2021 3:30:00 AM 15.04 59.072 0.072 6.49 1.54 9.77
5/27/2021 3:45:00 AM 15 59 0.072 6.49 1.57 9.78
5/27/2021 4:00:00 AM 14.95 58.91 0.072 6.49 1.59 9.79
5/27/2021 4:15:00 AM 14.89 58.802 0.072 6.48 1.54 9.79
5/27/2021 4:30:00 AM 14.83 58.694 0.072 6.48 1.7 9.82
5/27/2021 4:45:00 AM 14.77 58.586 0.072 6.48 1.56 9.82
5/27/2021 5:00:00 AM 14.73 58.514 0.072 6.48 1.55 9.85
5/27/2021 5:15:00 AM 14.66 58.388 0.072 6.48 8.67 9.85
5/27/2021 5:30:00 AM 14.6 58.28 0.072 6.47 1.56 9.88
5/27/2021 5:45:00 AM 14.53 58.154 0.072 6.48 1.57 9.89
5/27/2021 6:00:00 AM 14.49 58.082 0.072 6.47 1.56 9.89
5/27/2021 6:15:00 AM 14.44 57.992 0.072 6.46 1.58 9.9
5/27/2021 6:30:00 AM 14.37 57.866 0.072 6.5 1.54 9.99
5/27/2021 6:45:00 AM 14.31 57.758 0.072 6.49 1.52 10.03
5/27/2021 7:00:00 AM 14.27 57.686 0.072 6.51 1.54 10.1
5/27/2021 7:15:00 AM 14.24 57.632 0.072 6.51 1.54 10.11
5/27/2021 7:30:00 AM 14.23 57.614 0.072 6.52 1.51 10.17
5/27/2021 7:45:00 AM 14.26 57.668 0.072 6.56 1.5 10.21
5/27/2021 8:00:00 AM 14.27 57.686 0.072 6.56 1.51 10.24
5/27/2021 8:15:00 AM 14.3 57.74 0.072 6.56 1.52 10.23
5/27/2021 8:30:00 AM 14.34 57.812 0.072 6.58 1.5 10.29
5/27/2021 8:45:00 AM 14.38 57.884 0.072 6.61 1.53 10.31
5/27/2021 9:00:00 AM 14.42 57.956 0.072 6.59 1.5 10.3
5/27/2021 9:15:00 AM 14.48 58.064 0.072 6.61 1.52 10.32
5/27/2021 9:30:00 AM 14.59 58.262 0.072 6.61 1.48 10.31
5/27/2021 9:45:00 AM 14.76 58.568 0.072 6.64 1.47 10.29
5/27/2021 10:00:00 AM 14.95 58.91 0.072 6.64 1.5 10.32
5/27/2021 10:15:00 AM 15.13 59.234 0.072 6.64 1.53 10.28
5/27/2021 10:30:00 AM 15.35 59.63 0.072 6.66 1.51 10.27
5/27/2021 10:45:00 AM 15.56 60.008 0.072 6.65 1.47 10.24
5/27/2021 11:00:00 AM 15.78 60.404 0.072 6.66 1.44 10.22
5/27/2021 11:15:00 AM 15.92 60.656 0.072 6.66 1.45 10.2
5/27/2021 11:30:00 AM 16.14 61.052 0.072 6.67 1.56 10.15
5/27/2021 11:45:00 AM 16.36 61.448 0.072 6.67 1.53 10.14
5/27/2021 12:00:00 PM 16.57 61.826 0.072 6.67 1.46 10.09
5/27/2021 12:15:00 PM 16.81 62.258 0.072 6.67 1.45 10.05
5/27/2021 12:30:00 PM 17.03 62.654 0.072 6.67 1.45 10.02
5/27/2021 12:45:00 PM 17.22 62.996 0.072 6.69 1.45 9.97
5/27/2021 1:00:00 PM 17.44 63.392 0.072 6.67 1.5 9.94
5/27/2021 1:15:00 PM 17.55 63.59 0.072 6.67 1.38 9.94
5/27/2021 1:30:00 PM 17.69 63.842 0.072 6.67 1.41 9.89
5/27/2021 1:45:00 PM 17.8 64.04 0.072 6.7 1.39 9.92
5/27/2021 2:00:00 PM 17.9 64.22 0.072 6.7 1.45 9.91
5/27/2021 2:15:00 PM 17.88 64.184 0.072 6.66 1.41 9.89
5/27/2021 2:30:00 PM 17.73 63.914 0.072 6.64 1.43 9.9
5/27/2021 2:45:00 PM 17.61 63.698 0.072 6.63 1.49 9.9
5/27/2021 3:00:00 PM 17.52 63.536 0.072 6.62 1.46 9.9
5/27/2021 3:15:00 PM 17.73 63.914 0.072 6.68 1.43 9.89
5/27/2021 3:30:00 PM 17.87 64.166 0.072 6.69 1.42 9.87
5/27/2021 3:45:00 PM 17.92 64.256 0.072 6.66 1.4 9.84
5/27/2021 4:00:00 PM 17.78 64.004 0.072 6.62 1.48 9.81
5/27/2021 4:15:00 PM 17.47 63.446 0.072 6.59 1.46 9.84
5/27/2021 4:30:00 PM 17.39 63.302 0.072 6.62 1.47 9.88
5/27/2021 4:45:00 PM 17.37 63.266 0.072 6.61 1.47 9.88
5/27/2021 5:00:00 PM 17.35 63.23 0.072 6.62 1.42 9.9
5/27/2021 5:15:00 PM 17.27 63.086 0.073 6.61 1.42 9.86
5/27/2021 5:30:00 PM 17.05 62.69 0.073 6.57 1.44 9.85
5/27/2021 5:45:00 PM 16.94 62.492 0.072 6.57 1.44 9.86
5/27/2021 6:00:00 PM 16.83 62.294 0.073 6.56 1.43 9.86
5/27/2021 6:15:00 PM 16.72 62.096 0.073 6.57 1.47 9.84
5/27/2021 6:30:00 PM 16.59 61.862 0.073 6.54 1.44 9.77
5/27/2021 6:45:00 PM 16.47 61.646 0.073 6.53 1.47 9.75
5/27/2021 7:00:00 PM 16.4 61.52 0.073 6.53 1.47 9.77
5/27/2021 7:15:00 PM 16.32 61.376 0.073 6.52 1.43 9.75
5/27/2021 7:30:00 PM 16.27 61.286 0.073 6.55 1.42 9.77
5/27/2021 7:45:00 PM 16.19 61.142 0.073 6.51 1.39 9.74
5/27/2021 8:00:00 PM 16.08 60.944 0.073 6.5 1.42 9.7
5/27/2021 8:15:00 PM 15.96 60.728 0.073 6.49 1.47 9.68
5/27/2021 8:30:00 PM 15.85 60.53 0.073 6.49 1.46 9.64
5/27/2021 8:45:00 PM 15.74 60.332 0.073 6.49 1.57 9.62
5/27/2021 9:00:00 PM 15.65 60.17 0.073 6.48 1.48 9.62
5/27/2021 9:15:00 PM 15.55 59.99 0.073 6.49 1.6 9.62
5/27/2021 9:30:00 PM 15.44 59.792 0.073 6.47 1.49 9.61
5/27/2021 9:45:00 PM 15.33 59.594 0.073 6.48 1.48 9.65
5/27/2021 10:00:00 PM 15.23 59.414 0.073 6.47 1.5 9.66
5/27/2021 10:15:00 PM 15.13 59.234 0.073 6.47 1.58 9.66
5/27/2021 10:30:00 PM 15.03 59.054 0.073 6.47 1.48 9.69
5/27/2021 10:45:00 PM 14.93 58.874 0.073 6.48 1.51 9.72
5/27/2021 11:00:00 PM 14.85 58.73 0.073 6.48 1.52 9.75
5/27/2021 11:15:00 PM 14.77 58.586 0.073 6.48 1.51 9.76
5/27/2021 11:30:00 PM 14.68 58.424 0.073 6.48 1.55 9.78
5/27/2021 11:45:00 PM 14.59 58.262 0.073 6.48 1.49 9.79
5/28/2021 12:00:00 AM 14.52 58.136 0.073 6.48 1.52 9.8
5/28/2021 12:15:00 AM 14.45 58.01 0.073 6.48 1.49 9.84
5/28/2021 12:30:00 AM 14.38 57.884 0.073 6.48 1.57 9.82
5/28/2021 12:45:00 AM 14.32 57.776 0.074 6.47 2.13 9.83
5/28/2021 1:00:00 AM 14.26 57.668 0.074 6.47 1.73 9.84
5/28/2021 1:15:00 AM 14.18 57.524 0.073 6.48 1.65 9.89
5/28/2021 1:30:00 AM 14.13 57.434 0.073 6.51 1.59 9.89
5/28/2021 1:45:00 AM 14.09 57.362 0.073 6.49 1.53 9.91
5/28/2021 2:00:00 AM 14.01 57.218 0.073 6.49 1.58 9.94
5/28/2021 2:15:00 AM 13.94 57.092 0.073 6.51 1.55 9.95
5/28/2021 2:30:00 AM 13.88 56.984 0.073 6.48 1.67 9.94
5/28/2021 2:45:00 AM 13.81 56.858 0.073 6.49 1.54 9.98
5/28/2021 3:00:00 AM 13.76 56.768 0.073 6.49 1.62 9.98
5/28/2021 3:15:00 AM 13.69 56.642 0.073 6.49 1.56 10.01
5/28/2021 3:30:00 AM 13.63 56.534 0.073 6.48 1.5 10.01
5/28/2021 3:45:00 AM 13.55 56.39 0.073 6.47 1.51 10.01
5/28/2021 4:00:00 AM 13.46 56.228 0.073 6.48 1.52 10.05
5/28/2021 4:15:00 AM 13.39 56.102 0.073 6.47 1.56 10.05
5/28/2021 4:30:00 AM 13.32 55.976 0.073 6.47 1.46 10.06
5/28/2021 4:45:00 AM 13.26 55.868 0.073 6.47 1.55 10.08
5/28/2021 5:00:00 AM 13.19 55.742 0.073 6.47 1.57 10.08
5/28/2021 5:15:00 AM 13.12 55.616 0.073 6.47 1.79 10.08
5/28/2021 5:30:00 AM 13.05 55.49 0.073 6.48 1.53 10.14
5/28/2021 5:45:00 AM 13 55.4 0.073 6.47 1.48 10.15
5/28/2021 6:00:00 AM 12.96 55.328 0.073 6.48 1.53 10.18
5/28/2021 6:15:00 AM 12.9 55.22 0.073 6.5 1.55 10.22
5/28/2021 6:30:00 AM 12.86 55.148 0.073 6.49 1.49 10.25
5/28/2021 6:45:00 AM 12.84 55.112 0.073 6.5 1.54 10.3
5/28/2021 7:00:00 AM 12.81 55.058 0.073 6.52 1.54 10.39
5/28/2021 7:15:00 AM 12.79 55.022 0.073 6.53 1.52 10.41
5/28/2021 7:30:00 AM 12.78 55.004 0.073 6.53 1.51 10.41
5/28/2021 7:45:00 AM 12.75 54.95 0.073 6.54 1.51 10.43
5/28/2021 8:00:00 AM 12.74 54.932 0.073 6.54 1.62 10.44
5/28/2021 8:15:00 AM 12.72 54.896 0.073 6.56 1.53 10.47
5/28/2021 8:30:00 AM 12.71 54.878 0.073 6.55 1.5 10.5
5/28/2021 8:45:00 AM 12.72 54.896 0.073 6.56 1.48 10.53
5/28/2021 9:00:00 AM 12.71 54.878 0.073 6.57 1.53 10.59
5/28/2021 9:15:00 AM 12.74 54.932 0.072 6.58 1.51 10.63
5/28/2021 9:30:00 AM 12.76 54.968 0.073 6.59 1.51 10.65
5/28/2021 9:45:00 AM 12.77 54.986 0.072 6.59 1.51 10.66
5/28/2021 10:00:00 AM